<?xml version='1.0' encoding='UTF-8'?><gpx version="1.1" creator="JPX - https://github.com/jenetics/jpx" xmlns="http://www.topografix.com/GPX/1/1"><trk><trkseg><trkpt lat="46.212582139160276" lon="13.078286067912815"><ele>164.0</ele><time>2026-03-30T20:40:23Z</time></trkpt><trkpt lat="46.21264403240674" lon="13.078349706197564"><ele>164.0</ele><time>2026-03-30T20:40:27Z</time></trkpt><trkpt lat="46.212745335291544" lon="13.078391977741287"><ele>164.0</ele><time>2026-03-30T20:40:30Z</time></trkpt><trkpt lat="46.212843643537205" lon="13.07840738141826"><ele>164.0</ele><time>2026-03-30T20:40:32Z</time></trkpt><trkpt lat="46.212954272221275" lon="13.078405780908875"><ele>164.0</ele><time>2026-03-30T20:40:34Z</time></trkpt><trkpt lat="46.21306479451031" lon="13.078406385582047"><ele>163.39999999999998</ele><time>2026-03-30T20:40:36Z</time></trkpt><trkpt lat="46.21317788268145" lon="13.078423855558157"><ele>162.8</ele><time>2026-03-30T20:40:38Z</time></trkpt><trkpt lat="46.21329282463356" lon="13.078475717908251"><ele>162.2</ele><time>2026-03-30T20:40:40Z</time></trkpt><trkpt lat="46.2134075439034" lon="13.07854685755265"><ele>161.60000000000002</ele><time>2026-03-30T20:40:42Z</time></trkpt><trkpt lat="46.21347314864695" lon="13.07859315710963"><ele>161.0</ele><time>2026-03-30T20:40:43Z</time></trkpt><trkpt lat="46.21354418403871" lon="13.078653594937636"><ele>161.0</ele><time>2026-03-30T20:40:44Z</time></trkpt><trkpt lat="46.213616286324736" lon="13.078721983606858"><ele>161.0</ele><time>2026-03-30T20:40:45Z</time></trkpt><trkpt lat="46.21368872472277" lon="13.078791379498039"><ele>161.0</ele><time>2026-03-30T20:40:46Z</time></trkpt><trkpt lat="46.2137521124993" lon="13.078849909956116"><ele>161.0</ele><time>2026-03-30T20:40:47Z</time></trkpt><trkpt lat="46.21383960149781" lon="13.078929041948674"><ele>161.0</ele><time>2026-03-30T20:40:49Z</time></trkpt><trkpt lat="46.21391511391627" lon="13.079022781667321"><ele>161.0</ele><time>2026-03-30T20:40:51Z</time></trkpt><trkpt lat="46.21397000362517" lon="13.079074667664857"><ele>161.0</ele><time>2026-03-30T20:40:52Z</time></trkpt><trkpt lat="46.21402910313924" lon="13.079125901584902"><ele>161.0</ele><time>2026-03-30T20:40:53Z</time></trkpt><trkpt lat="46.214098789792466" lon="13.079189102952805"><ele>161.0</ele><time>2026-03-30T20:40:54Z</time></trkpt><trkpt lat="46.214171509107615" lon="13.079258707347728"><ele>161.0</ele><time>2026-03-30T20:40:55Z</time></trkpt><trkpt lat="46.21424895849192" lon="13.07932817208884"><ele>161.0</ele><time>2026-03-30T20:40:56Z</time></trkpt><trkpt lat="46.214319250334746" lon="13.079394285820765"><ele>161.14285714285714</ele><time>2026-03-30T20:40:57Z</time></trkpt><trkpt lat="46.214383837608764" lon="13.079456442866373"><ele>161.28571428571428</ele><time>2026-03-30T20:40:58Z</time></trkpt><trkpt lat="46.21444564458667" lon="13.079516969254994"><ele>161.42857142857144</ele><time>2026-03-30T20:40:59Z</time></trkpt><trkpt lat="46.21450621278865" lon="13.079578351179093"><ele>161.57142857142856</ele><time>2026-03-30T20:41:00Z</time></trkpt><trkpt lat="46.214565009635194" lon="13.079638049420904"><ele>161.71428571428572</ele><time>2026-03-30T20:41:01Z</time></trkpt><trkpt lat="46.21462027761866" lon="13.079697975690154"><ele>161.85714285714286</ele><time>2026-03-30T20:41:02Z</time></trkpt><trkpt lat="46.214671224336705" lon="13.079756069616746"><ele>162.0</ele><time>2026-03-30T20:41:03Z</time></trkpt><trkpt lat="46.214743236782674" lon="13.079832662561348"><ele>162.16666666666666</ele><time>2026-03-30T20:41:05Z</time></trkpt><trkpt lat="46.214847927364985" lon="13.079938656257342"><ele>162.33333333333334</ele><time>2026-03-30T20:41:07Z</time></trkpt><trkpt lat="46.21489998953746" lon="13.079993437761027"><ele>162.5</ele><time>2026-03-30T20:41:08Z</time></trkpt><trkpt lat="46.21495799826532" lon="13.080047192229317"><ele>162.66666666666669</ele><time>2026-03-30T20:41:09Z</time></trkpt><trkpt lat="46.21502029952162" lon="13.080103225462196"><ele>162.83333333333334</ele><time>2026-03-30T20:41:10Z</time></trkpt><trkpt lat="46.21508490441781" lon="13.080160574431142"><ele>163.0</ele><time>2026-03-30T20:41:11Z</time></trkpt><trkpt lat="46.215160317058476" lon="13.080198806339306"><ele>163.0</ele><time>2026-03-30T20:41:12Z</time></trkpt><trkpt lat="46.215235963932635" lon="13.08022514675204"><ele>163.0</ele><time>2026-03-30T20:41:13Z</time></trkpt><trkpt lat="46.21530197689334" lon="13.080251601237094"><ele>163.0</ele><time>2026-03-30T20:41:14Z</time></trkpt><trkpt lat="46.215362314438465" lon="13.080278532963366"><ele>163.0</ele><time>2026-03-30T20:41:15Z</time></trkpt><trkpt lat="46.215469204402844" lon="13.080311525242388"><ele>163.0</ele><time>2026-03-30T20:41:17Z</time></trkpt><trkpt lat="46.21559684677131" lon="13.080337446116395"><ele>163.0</ele><time>2026-03-30T20:41:18.999Z</time></trkpt><trkpt lat="46.215669492181355" lon="13.080354828725524"><ele>163.0</ele><time>2026-03-30T20:41:19.999Z</time></trkpt><trkpt lat="46.21574807154703" lon="13.08037697390874"><ele>163.0</ele><time>2026-03-30T20:41:20.999Z</time></trkpt><trkpt lat="46.21583122366576" lon="13.080392413452078"><ele>163.0</ele><time>2026-03-30T20:41:21.999Z</time></trkpt><trkpt lat="46.215908515547476" lon="13.080404560150923"><ele>163.0</ele><time>2026-03-30T20:41:22.999Z</time></trkpt><trkpt lat="46.21597926572928" lon="13.080430265958915"><ele>163.0</ele><time>2026-03-30T20:41:23.999Z</time></trkpt><trkpt lat="46.21605312850575" lon="13.08046766166262"><ele>163.0</ele><time>2026-03-30T20:41:24.999Z</time></trkpt><trkpt lat="46.2161268624722" lon="13.080509185350033"><ele>163.0</ele><time>2026-03-30T20:41:25.999Z</time></trkpt><trkpt lat="46.21620321427613" lon="13.080554480916824"><ele>163.0</ele><time>2026-03-30T20:41:26.999Z</time></trkpt><trkpt lat="46.21627257131464" lon="13.080601660102674"><ele>163.0</ele><time>2026-03-30T20:41:27.999Z</time></trkpt><trkpt lat="46.216322817385624" lon="13.080668557816855"><ele>163.0</ele><time>2026-03-30T20:41:28.999Z</time></trkpt><trkpt lat="46.216396625631695" lon="13.08082437471914"><ele>163.0</ele><time>2026-03-30T20:41:30.999Z</time></trkpt><trkpt lat="46.21642664082284" lon="13.080917611453339"><ele>163.0</ele><time>2026-03-30T20:41:32Z</time></trkpt><trkpt lat="46.21644091669391" lon="13.08102585812537"><ele>163.16666666666669</ele><time>2026-03-30T20:41:33Z</time></trkpt><trkpt lat="46.21644337613501" lon="13.08112892835372"><ele>163.33333333333334</ele><time>2026-03-30T20:41:34Z</time></trkpt><trkpt lat="46.21643506878835" lon="13.081281602422898"><ele>163.5</ele><time>2026-03-30T20:41:36Z</time></trkpt><trkpt lat="46.216423480317836" lon="13.081429805094144"><ele>163.66666666666666</ele><time>2026-03-30T20:41:38Z</time></trkpt><trkpt lat="46.21644301613047" lon="13.081522967430324"><ele>163.83333333333331</ele><time>2026-03-30T20:41:39Z</time></trkpt><trkpt lat="46.21648891283392" lon="13.081614650089302"><ele>164.0</ele><time>2026-03-30T20:41:40Z</time></trkpt><trkpt lat="46.21654879015201" lon="13.081693805901956"><ele>164.0</ele><time>2026-03-30T20:41:41Z</time></trkpt><trkpt lat="46.21662580062999" lon="13.08176281134198"><ele>164.0</ele><time>2026-03-30T20:41:42Z</time></trkpt><trkpt lat="46.21671692398128" lon="13.081823886439313"><ele>164.0</ele><time>2026-03-30T20:41:43Z</time></trkpt><trkpt lat="46.216822997760396" lon="13.081887057293317"><ele>164.0</ele><time>2026-03-30T20:41:44Z</time></trkpt><trkpt lat="46.21694733939211" lon="13.081964681238189"><ele>164.0</ele><time>2026-03-30T20:41:45Z</time></trkpt><trkpt lat="46.217072642670026" lon="13.082042250771133"><ele>164.0</ele><time>2026-03-30T20:41:46Z</time></trkpt><trkpt lat="46.217181471174904" lon="13.082094255920474"><ele>164.0</ele><time>2026-03-30T20:41:47Z</time></trkpt><trkpt lat="46.21730887760864" lon="13.082170754844851"><ele>164.0</ele><time>2026-03-30T20:41:48Z</time></trkpt><trkpt lat="46.21743831016791" lon="13.08224229293489"><ele>164.0</ele><time>2026-03-30T20:41:49Z</time></trkpt><trkpt lat="46.217546875933415" lon="13.082296875992817"><ele>164.0</ele><time>2026-03-30T20:41:50Z</time></trkpt><trkpt lat="46.21764603760715" lon="13.08235918827518"><ele>164.0</ele><time>2026-03-30T20:41:51Z</time></trkpt><trkpt lat="46.217720527920356" lon="13.082427063218894"><ele>164.0</ele><time>2026-03-30T20:41:52Z</time></trkpt><trkpt lat="46.21788161799204" lon="13.082526075975705"><ele>164.0</ele><time>2026-03-30T20:41:53Z</time></trkpt><trkpt lat="46.217961755212926" lon="13.082579151253105"><ele>164.0</ele><time>2026-03-30T20:41:54Z</time></trkpt><trkpt lat="46.21803634266283" lon="13.082620545824506"><ele>164.0</ele><time>2026-03-30T20:41:55Z</time></trkpt><trkpt lat="46.21814424584401" lon="13.082689188260513"><ele>164.0</ele><time>2026-03-30T20:41:57Z</time></trkpt><trkpt lat="46.21820770513351" lon="13.08274420885439"><ele>164.0</ele><time>2026-03-30T20:41:58Z</time></trkpt><trkpt lat="46.21827521346301" lon="13.082797980185678"><ele>164.0</ele><time>2026-03-30T20:41:59Z</time></trkpt><trkpt lat="46.21833634231006" lon="13.082881386241057"><ele>164.0</ele><time>2026-03-30T20:42:00Z</time></trkpt><trkpt lat="46.218401675265696" lon="13.082958862162135"><ele>164.0</ele><time>2026-03-30T20:42:01Z</time></trkpt><trkpt lat="46.218463101027574" lon="13.083023602857653"><ele>164.0</ele><time>2026-03-30T20:42:02Z</time></trkpt><trkpt lat="46.21843441616131" lon="13.083226699712384"><ele>164.0</ele><time>2026-03-30T20:42:03Z</time></trkpt><trkpt lat="46.21841782145598" lon="13.083357534999056"><ele>164.0</ele><time>2026-03-30T20:42:04Z</time></trkpt><trkpt lat="46.21840033302777" lon="13.083476429990553"><ele>164.0</ele><time>2026-03-30T20:42:05Z</time></trkpt><trkpt lat="46.21838289896545" lon="13.083606910959409"><ele>164.0</ele><time>2026-03-30T20:42:06Z</time></trkpt><trkpt lat="46.21829852999488" lon="13.083727603095388"><ele>164.0</ele><time>2026-03-30T20:42:07Z</time></trkpt><trkpt lat="46.218223209657545" lon="13.083896857899946"><ele>164.0</ele><time>2026-03-30T20:42:08Z</time></trkpt><trkpt lat="46.2181468000264" lon="13.08411202900353"><ele>164.0</ele><time>2026-03-30T20:42:09Z</time></trkpt><trkpt lat="46.21802954462315" lon="13.084332106866594"><ele>164.0</ele><time>2026-03-30T20:42:10Z</time></trkpt><trkpt lat="46.21793597719436" lon="13.084585087968994"><ele>164.0</ele><time>2026-03-30T20:42:11Z</time></trkpt><trkpt lat="46.21783658444547" lon="13.084787170610264"><ele>164.0</ele><time>2026-03-30T20:42:12Z</time></trkpt><trkpt lat="46.21773095380177" lon="13.085016256195715"><ele>164.33333333333331</ele><time>2026-03-30T20:42:13Z</time></trkpt><trkpt lat="46.21762695986652" lon="13.085254080882962"><ele>164.66666666666666</ele><time>2026-03-30T20:42:14Z</time></trkpt><trkpt lat="46.217539119156115" lon="13.085450792131935"><ele>165.0</ele><time>2026-03-30T20:42:15Z</time></trkpt><trkpt lat="46.21746164132777" lon="13.08563064343628"><ele>165.0</ele><time>2026-03-30T20:42:16Z</time></trkpt><trkpt lat="46.21738978611397" lon="13.085795158260241"><ele>165.0</ele><time>2026-03-30T20:42:17Z</time></trkpt><trkpt lat="46.217321249633535" lon="13.085949762330227"><ele>165.0</ele><time>2026-03-30T20:42:18Z</time></trkpt><trkpt lat="46.21725616915033" lon="13.086099643755988"><ele>165.0</ele><time>2026-03-30T20:42:19Z</time></trkpt><trkpt lat="46.21718298351558" lon="13.08623013367959"><ele>165.0</ele><time>2026-03-30T20:42:20Z</time></trkpt><trkpt lat="46.21715546368454" lon="13.086369175482218"><ele>165.0</ele><time>2026-03-30T20:42:21Z</time></trkpt><trkpt lat="46.21712110470196" lon="13.086491575137034"><ele>165.0</ele><time>2026-03-30T20:42:22Z</time></trkpt><trkpt lat="46.21707676610666" lon="13.086639646900958"><ele>165.0</ele><time>2026-03-30T20:42:23Z</time></trkpt><trkpt lat="46.217001504062516" lon="13.08680392906439"><ele>165.0</ele><time>2026-03-30T20:42:24Z</time></trkpt><trkpt lat="46.21691230461601" lon="13.087001432291704"><ele>165.0</ele><time>2026-03-30T20:42:25Z</time></trkpt><trkpt lat="46.21680894819275" lon="13.087196829104538"><ele>165.0</ele><time>2026-03-30T20:42:26Z</time></trkpt><trkpt lat="46.21667443346978" lon="13.087368848326383"><ele>165.0</ele><time>2026-03-30T20:42:27Z</time></trkpt><trkpt lat="46.21658275490546" lon="13.087594176121915"><ele>164.33333333333334</ele><time>2026-03-30T20:42:28Z</time></trkpt><trkpt lat="46.21649506887776" lon="13.087795470373164"><ele>163.66666666666669</ele><time>2026-03-30T20:42:29Z</time></trkpt><trkpt lat="46.21641856988566" lon="13.087976039338427"><ele>163.0</ele><time>2026-03-30T20:42:30Z</time></trkpt><trkpt lat="46.216341847570476" lon="13.088155908163628"><ele>163.33333333333334</ele><time>2026-03-30T20:42:31Z</time></trkpt><trkpt lat="46.21625551826979" lon="13.088350667853867"><ele>163.66666666666666</ele><time>2026-03-30T20:42:32Z</time></trkpt><trkpt lat="46.216162608555145" lon="13.08855354016668"><ele>164.0</ele><time>2026-03-30T20:42:33Z</time></trkpt><trkpt lat="46.216068580137005" lon="13.088757332275023"><ele>164.0</ele><time>2026-03-30T20:42:34Z</time></trkpt><trkpt lat="46.2159748485126" lon="13.088968656264102"><ele>164.0</ele><time>2026-03-30T20:42:35Z</time></trkpt><trkpt lat="46.21588006955223" lon="13.089179347872422"><ele>164.0</ele><time>2026-03-30T20:42:36Z</time></trkpt><trkpt lat="46.215783235276426" lon="13.089393276329485"><ele>163.33333333333331</ele><time>2026-03-30T20:42:37Z</time></trkpt><trkpt lat="46.21568912261609" lon="13.089607025558502"><ele>162.66666666666666</ele><time>2026-03-30T20:42:38Z</time></trkpt><trkpt lat="46.21559617016797" lon="13.089817658616347"><ele>162.0</ele><time>2026-03-30T20:42:39Z</time></trkpt><trkpt lat="46.215504903825604" lon="13.090024956778855"><ele>162.0</ele><time>2026-03-30T20:42:40Z</time></trkpt><trkpt lat="46.2154138927693" lon="13.090228950927116"><ele>162.0</ele><time>2026-03-30T20:42:41Z</time></trkpt><trkpt lat="46.21531805874931" lon="13.090447194734615"><ele>162.0</ele><time>2026-03-30T20:42:42Z</time></trkpt><trkpt lat="46.215216722200765" lon="13.090676967435881"><ele>162.66666666666666</ele><time>2026-03-30T20:42:43Z</time></trkpt><trkpt lat="46.21511511355569" lon="13.090909221025504"><ele>163.33333333333331</ele><time>2026-03-30T20:42:44Z</time></trkpt><trkpt lat="46.215014994278306" lon="13.091132884556828"><ele>164.0</ele><time>2026-03-30T20:42:45Z</time></trkpt><trkpt lat="46.21492470684856" lon="13.091329817625894"><ele>164.0</ele><time>2026-03-30T20:42:46Z</time></trkpt><trkpt lat="46.2148386627434" lon="13.091528635913493"><ele>164.0</ele><time>2026-03-30T20:42:47Z</time></trkpt><trkpt lat="46.21474955796619" lon="13.091731176128757"><ele>164.0</ele><time>2026-03-30T20:42:48Z</time></trkpt><trkpt lat="46.21465572530375" lon="13.091934701168748"><ele>164.33333333333331</ele><time>2026-03-30T20:42:49Z</time></trkpt><trkpt lat="46.214559063237324" lon="13.092141383300259"><ele>164.66666666666666</ele><time>2026-03-30T20:42:50Z</time></trkpt><trkpt lat="46.21445955864304" lon="13.092356296877792"><ele>165.0</ele><time>2026-03-30T20:42:51Z</time></trkpt><trkpt lat="46.21435961470546" lon="13.09257986393902"><ele>165.66666666666666</ele><time>2026-03-30T20:42:52Z</time></trkpt><trkpt lat="46.21426019982997" lon="13.092803800666454"><ele>166.33333333333331</ele><time>2026-03-30T20:42:53Z</time></trkpt><trkpt lat="46.21416067083781" lon="13.093034383640225"><ele>167.0</ele><time>2026-03-30T20:42:54Z</time></trkpt><trkpt lat="46.214062612427924" lon="13.093258252387344"><ele>165.66666666666666</ele><time>2026-03-30T20:42:55Z</time></trkpt><trkpt lat="46.21396991685475" lon="13.093469512203868"><ele>164.33333333333334</ele><time>2026-03-30T20:42:56Z</time></trkpt><trkpt lat="46.21387867681747" lon="13.093682382092062"><ele>163.0</ele><time>2026-03-30T20:42:57Z</time></trkpt><trkpt lat="46.21378363337944" lon="13.09389190013646"><ele>164.33333333333334</ele><time>2026-03-30T20:42:58Z</time></trkpt><trkpt lat="46.2136879303691" lon="13.094100979841707"><ele>165.66666666666666</ele><time>2026-03-30T20:42:59Z</time></trkpt><trkpt lat="46.21359103236338" lon="13.09431342046846"><ele>167.0</ele><time>2026-03-30T20:43:00Z</time></trkpt><trkpt lat="46.213493211898694" lon="13.094533991898967"><ele>167.0</ele><time>2026-03-30T20:43:01Z</time></trkpt><trkpt lat="46.21339004157875" lon="13.094768829873704"><ele>167.0</ele><time>2026-03-30T20:43:02Z</time></trkpt><trkpt lat="46.213290258428344" lon="13.094988946178603"><ele>167.0</ele><time>2026-03-30T20:43:03Z</time></trkpt><trkpt lat="46.213200454223234" lon="13.095193362133852"><ele>166.5</ele><time>2026-03-30T20:43:04Z</time></trkpt><trkpt lat="46.21311582941593" lon="13.095382062210904"><ele>166.0</ele><time>2026-03-30T20:43:05Z</time></trkpt><trkpt lat="46.213034583987834" lon="13.095560880611618"><ele>165.5</ele><time>2026-03-30T20:43:06Z</time></trkpt><trkpt lat="46.21295770675139" lon="13.095733367645717"><ele>165.0</ele><time>2026-03-30T20:43:07Z</time></trkpt><trkpt lat="46.21288111323471" lon="13.095913482132895"><ele>164.25</ele><time>2026-03-30T20:43:08Z</time></trkpt><trkpt lat="46.212799072514066" lon="13.096102139656526"><ele>163.5</ele><time>2026-03-30T20:43:09Z</time></trkpt><trkpt lat="46.21272226553789" lon="13.096269318231611"><ele>162.75</ele><time>2026-03-30T20:43:10Z</time></trkpt><trkpt lat="46.21265460747946" lon="13.096419331526352"><ele>162.0</ele><time>2026-03-30T20:43:11Z</time></trkpt><trkpt lat="46.21258453117531" lon="13.09658025096446"><ele>162.66666666666666</ele><time>2026-03-30T20:43:12Z</time></trkpt><trkpt lat="46.212504706060706" lon="13.096761630883236"><ele>163.33333333333331</ele><time>2026-03-30T20:43:13Z</time></trkpt><trkpt lat="46.2124206716611" lon="13.096949265818811"><ele>164.0</ele><time>2026-03-30T20:43:14Z</time></trkpt><trkpt lat="46.21233017699888" lon="13.097149744832755"><ele>163.0</ele><time>2026-03-30T20:43:15Z</time></trkpt><trkpt lat="46.21224006571849" lon="13.097356641229188"><ele>162.0</ele><time>2026-03-30T20:43:16Z</time></trkpt><trkpt lat="46.212146815909314" lon="13.097574648472536"><ele>161.0</ele><time>2026-03-30T20:43:17Z</time></trkpt><trkpt lat="46.21205920993803" lon="13.097766085068248"><ele>160.66666666666666</ele><time>2026-03-30T20:43:18Z</time></trkpt><trkpt lat="46.211974664597065" lon="13.097948995577356"><ele>160.33333333333334</ele><time>2026-03-30T20:43:19Z</time></trkpt><trkpt lat="46.211886132620336" lon="13.098145385007244"><ele>160.0</ele><time>2026-03-30T20:43:20Z</time></trkpt><trkpt lat="46.211795643126884" lon="13.098348071790209"><ele>160.0</ele><time>2026-03-30T20:43:21Z</time></trkpt><trkpt lat="46.211702266776385" lon="13.098559881459696"><ele>160.0</ele><time>2026-03-30T20:43:22Z</time></trkpt><trkpt lat="46.211606471296655" lon="13.098776951762714"><ele>160.0</ele><time>2026-03-30T20:43:23Z</time></trkpt><trkpt lat="46.211508075734926" lon="13.098999148340441"><ele>162.0</ele><time>2026-03-30T20:43:23.999Z</time></trkpt><trkpt lat="46.211407361479395" lon="13.099227825732877"><ele>164.0</ele><time>2026-03-30T20:43:24.999Z</time></trkpt><trkpt lat="46.21130723709005" lon="13.0994481132003"><ele>166.0</ele><time>2026-03-30T20:43:25.999Z</time></trkpt><trkpt lat="46.21121233375132" lon="13.099652307408787"><ele>166.0</ele><time>2026-03-30T20:43:26.999Z</time></trkpt><trkpt lat="46.21112413408271" lon="13.099851529575757"><ele>166.0</ele><time>2026-03-30T20:43:27.999Z</time></trkpt><trkpt lat="46.21103839337421" lon="13.100046672953335"><ele>166.0</ele><time>2026-03-30T20:43:28.999Z</time></trkpt><trkpt lat="46.21095096669267" lon="13.10024489804661"><ele>165.33333333333334</ele><time>2026-03-30T20:43:29.999Z</time></trkpt><trkpt lat="46.210860218557904" lon="13.100448935609313"><ele>164.66666666666666</ele><time>2026-03-30T20:43:30.999Z</time></trkpt><trkpt lat="46.210766453803174" lon="13.100658945481443"><ele>164.0</ele><time>2026-03-30T20:43:31.999Z</time></trkpt><trkpt lat="46.21067112299355" lon="13.100876262811871"><ele>163.33333333333331</ele><time>2026-03-30T20:43:32.999Z</time></trkpt><trkpt lat="46.210569879657434" lon="13.10110094620246"><ele>162.66666666666666</ele><time>2026-03-30T20:43:33.999Z</time></trkpt><trkpt lat="46.210464977254354" lon="13.101335003196358"><ele>162.0</ele><time>2026-03-30T20:43:34.999Z</time></trkpt><trkpt lat="46.21035904908147" lon="13.101576528753709"><ele>162.0</ele><time>2026-03-30T20:43:35.999Z</time></trkpt><trkpt lat="46.2102587818873" lon="13.101804790591519"><ele>162.0</ele><time>2026-03-30T20:43:36.999Z</time></trkpt><trkpt lat="46.21016457865924" lon="13.102015824415943"><ele>162.0</ele><time>2026-03-30T20:43:37.999Z</time></trkpt><trkpt lat="46.21007183627519" lon="13.10222336964549"><ele>162.0</ele><time>2026-03-30T20:43:38.999Z</time></trkpt><trkpt lat="46.20996977962467" lon="13.102442095309641"><ele>162.0</ele><time>2026-03-30T20:43:39.999Z</time></trkpt><trkpt lat="46.20986518037805" lon="13.102677676326728"><ele>162.0</ele><time>2026-03-30T20:43:40.999Z</time></trkpt><trkpt lat="46.20975586506381" lon="13.10292670939433"><ele>162.0</ele><time>2026-03-30T20:43:41.999Z</time></trkpt><trkpt lat="46.209644262216095" lon="13.103175370353421"><ele>162.0</ele><time>2026-03-30T20:43:42.999Z</time></trkpt><trkpt lat="46.2095386430371" lon="13.103406401106353"><ele>162.0</ele><time>2026-03-30T20:43:43.999Z</time></trkpt><trkpt lat="46.20944149486767" lon="13.10362427746528"><ele>162.0</ele><time>2026-03-30T20:43:44.999Z</time></trkpt><trkpt lat="46.20934372104231" lon="13.103849430089802"><ele>162.0</ele><time>2026-03-30T20:43:45.999Z</time></trkpt><trkpt lat="46.20924373424541" lon="13.104074689464895"><ele>162.0</ele><time>2026-03-30T20:43:46.999Z</time></trkpt><trkpt lat="46.20914080902149" lon="13.104310106569828"><ele>161.66666666666666</ele><time>2026-03-30T20:43:47.999Z</time></trkpt><trkpt lat="46.20903484033704" lon="13.104553967186689"><ele>161.33333333333331</ele><time>2026-03-30T20:43:48.999Z</time></trkpt><trkpt lat="46.20893864605475" lon="13.104782067792799"><ele>161.0</ele><time>2026-03-30T20:43:49.999Z</time></trkpt><trkpt lat="46.20885916425697" lon="13.104997146043907"><ele>161.0</ele><time>2026-03-30T20:43:50.999Z</time></trkpt><trkpt lat="46.208788626802885" lon="13.105194712404767"><ele>161.0</ele><time>2026-03-30T20:43:51.999Z</time></trkpt><trkpt lat="46.2087213795964" lon="13.105385896534944"><ele>161.0</ele><time>2026-03-30T20:43:52.999Z</time></trkpt><trkpt lat="46.2086596391896" lon="13.105565450085281"><ele>161.0</ele><time>2026-03-30T20:43:53.999Z</time></trkpt><trkpt lat="46.208602730066524" lon="13.105729006880493"><ele>162.25</ele><time>2026-03-30T20:43:54.999Z</time></trkpt><trkpt lat="46.208549737667894" lon="13.105892300835697"><ele>163.5</ele><time>2026-03-30T20:43:56Z</time></trkpt><trkpt lat="46.208497829303546" lon="13.106044867011692"><ele>164.75</ele><time>2026-03-30T20:43:57Z</time></trkpt><trkpt lat="46.20844036408277" lon="13.106214037510414"><ele>166.0</ele><time>2026-03-30T20:43:58Z</time></trkpt><trkpt lat="46.20837968064216" lon="13.10638861576368"><ele>167.66666666666669</ele><time>2026-03-30T20:43:59Z</time></trkpt><trkpt lat="46.20831477071579" lon="13.10658274882905"><ele>169.33333333333334</ele><time>2026-03-30T20:44:00Z</time></trkpt><trkpt lat="46.208248806032934" lon="13.106790077583552"><ele>171.0</ele><time>2026-03-30T20:44:01Z</time></trkpt><trkpt lat="46.20817699924559" lon="13.107001121187242"><ele>171.33333333333334</ele><time>2026-03-30T20:44:02Z</time></trkpt><trkpt lat="46.20809974898791" lon="13.107223474282188"><ele>171.66666666666669</ele><time>2026-03-30T20:44:03Z</time></trkpt><trkpt lat="46.20802073065474" lon="13.107451792619665"><ele>172.0</ele><time>2026-03-30T20:44:04Z</time></trkpt><trkpt lat="46.20793778973114" lon="13.107694298472088"><ele>172.0</ele><time>2026-03-30T20:44:05Z</time></trkpt><trkpt lat="46.20785200082054" lon="13.107947058874343"><ele>172.0</ele><time>2026-03-30T20:44:06Z</time></trkpt><trkpt lat="46.207767479878214" lon="13.108204141154761"><ele>172.0</ele><time>2026-03-30T20:44:07Z</time></trkpt><trkpt lat="46.20767778196987" lon="13.10846796911283"><ele>173.66666666666669</ele><time>2026-03-30T20:44:08Z</time></trkpt><trkpt lat="46.207585809737054" lon="13.108736906062699"><ele>175.33333333333334</ele><time>2026-03-30T20:44:09Z</time></trkpt><trkpt lat="46.20749307436161" lon="13.109017214559897"><ele>177.0</ele><time>2026-03-30T20:44:10Z</time></trkpt><trkpt lat="46.20739922086902" lon="13.109291578058142"><ele>176.66666666666666</ele><time>2026-03-30T20:44:11Z</time></trkpt><trkpt lat="46.20731305131307" lon="13.109538720960492"><ele>176.33333333333331</ele><time>2026-03-30T20:44:12Z</time></trkpt><trkpt lat="46.207228085494705" lon="13.10979279611815"><ele>176.0</ele><time>2026-03-30T20:44:13Z</time></trkpt><trkpt lat="46.207128071033665" lon="13.110061417407085"><ele>176.0</ele><time>2026-03-30T20:44:14Z</time></trkpt><trkpt lat="46.20702064000386" lon="13.110341974177942"><ele>176.0</ele><time>2026-03-30T20:44:15Z</time></trkpt><trkpt lat="46.20690816310779" lon="13.110628468189546"><ele>176.66666666666666</ele><time>2026-03-30T20:44:16Z</time></trkpt><trkpt lat="46.20680039444232" lon="13.110886061452538"><ele>177.33333333333334</ele><time>2026-03-30T20:44:17Z</time></trkpt><trkpt lat="46.2066988995711" lon="13.111118617051908"><ele>178.0</ele><time>2026-03-30T20:44:18Z</time></trkpt><trkpt lat="46.206599601642345" lon="13.111335247432548"><ele>178.33333333333334</ele><time>2026-03-30T20:44:19Z</time></trkpt><trkpt lat="46.20647231980558" lon="13.111547149686109"><ele>178.66666666666666</ele><time>2026-03-30T20:44:20Z</time></trkpt><trkpt lat="46.206358674033105" lon="13.111802192262576"><ele>179.0</ele><time>2026-03-30T20:44:21Z</time></trkpt><trkpt lat="46.20623087683599" lon="13.112031761521088"><ele>179.0</ele><time>2026-03-30T20:44:22Z</time></trkpt><trkpt lat="46.206116929153545" lon="13.11224212719783"><ele>179.0</ele><time>2026-03-30T20:44:23Z</time></trkpt><trkpt lat="46.206015551556696" lon="13.11243911963216"><ele>179.0</ele><time>2026-03-30T20:44:24Z</time></trkpt><trkpt lat="46.20591625091071" lon="13.112625737455158"><ele>179.0</ele><time>2026-03-30T20:44:25Z</time></trkpt><trkpt lat="46.20582567824854" lon="13.11279678274892"><ele>179.0</ele><time>2026-03-30T20:44:26Z</time></trkpt><trkpt lat="46.205727241380416" lon="13.112985367240627"><ele>179.0</ele><time>2026-03-30T20:44:27Z</time></trkpt><trkpt lat="46.2056254907918" lon="13.113179049991977"><ele>178.0</ele><time>2026-03-30T20:44:28Z</time></trkpt><trkpt lat="46.20552126263873" lon="13.113379234825222"><ele>177.0</ele><time>2026-03-30T20:44:29Z</time></trkpt><trkpt lat="46.20541639898329" lon="13.113583469589726"><ele>176.0</ele><time>2026-03-30T20:44:30Z</time></trkpt><trkpt lat="46.20530693986713" lon="13.11379440033342"><ele>176.0</ele><time>2026-03-30T20:44:31Z</time></trkpt><trkpt lat="46.20519381744846" lon="13.114008491047707"><ele>176.0</ele><time>2026-03-30T20:44:32Z</time></trkpt><trkpt lat="46.20507962638393" lon="13.11422608586414"><ele>176.0</ele><time>2026-03-30T20:44:33Z</time></trkpt><trkpt lat="46.20496534884607" lon="13.114435614698014"><ele>176.0</ele><time>2026-03-30T20:44:34Z</time></trkpt><trkpt lat="46.20485158794413" lon="13.114644111646955"><ele>176.0</ele><time>2026-03-30T20:44:35Z</time></trkpt><trkpt lat="46.204741225160035" lon="13.114849446002685"><ele>176.0</ele><time>2026-03-30T20:44:36Z</time></trkpt><trkpt lat="46.20463516213672" lon="13.115051048588505"><ele>176.0</ele><time>2026-03-30T20:44:37Z</time></trkpt><trkpt lat="46.204532581790914" lon="13.115247722940504"><ele>176.0</ele><time>2026-03-30T20:44:38Z</time></trkpt><trkpt lat="46.20443353909049" lon="13.11543755866217"><ele>176.0</ele><time>2026-03-30T20:44:39Z</time></trkpt><trkpt lat="46.20433574742131" lon="13.115621196784566"><ele>176.33333333333331</ele><time>2026-03-30T20:44:40Z</time></trkpt><trkpt lat="46.20424118596722" lon="13.115800685347029"><ele>176.66666666666666</ele><time>2026-03-30T20:44:41Z</time></trkpt><trkpt lat="46.20414573956824" lon="13.115977450019335"><ele>177.0</ele><time>2026-03-30T20:44:42Z</time></trkpt><trkpt lat="46.204043729204855" lon="13.116167448476693"><ele>176.66666666666666</ele><time>2026-03-30T20:44:43Z</time></trkpt><trkpt lat="46.20393828782382" lon="13.116364980804278"><ele>176.33333333333331</ele><time>2026-03-30T20:44:44Z</time></trkpt><trkpt lat="46.20383530130539" lon="13.116559570062158"><ele>176.0</ele><time>2026-03-30T20:44:45Z</time></trkpt><trkpt lat="46.20373990543067" lon="13.116739491955805"><ele>175.66666666666666</ele><time>2026-03-30T20:44:46Z</time></trkpt><trkpt lat="46.203649795924456" lon="13.116912072564878"><ele>175.33333333333334</ele><time>2026-03-30T20:44:47Z</time></trkpt><trkpt lat="46.20355834931568" lon="13.117085291891003"><ele>175.0</ele><time>2026-03-30T20:44:48Z</time></trkpt><trkpt lat="46.203464348417874" lon="13.117264949077917"><ele>175.0</ele><time>2026-03-30T20:44:49Z</time></trkpt><trkpt lat="46.20339786657515" lon="13.117402517535478"><ele>175.0</ele><time>2026-03-30T20:44:50Z</time></trkpt><trkpt lat="46.203308497128425" lon="13.117567028315912"><ele>175.0</ele><time>2026-03-30T20:44:51Z</time></trkpt><trkpt lat="46.20321911267928" lon="13.117735506005868"><ele>175.0</ele><time>2026-03-30T20:44:52Z</time></trkpt><trkpt lat="46.203137097568074" lon="13.11789359926066"><ele>175.0</ele><time>2026-03-30T20:44:53Z</time></trkpt><trkpt lat="46.20306026613323" lon="13.118033756232355"><ele>175.0</ele><time>2026-03-30T20:44:54Z</time></trkpt><trkpt lat="46.20298844357167" lon="13.118163334113012"><ele>175.0</ele><time>2026-03-30T20:44:55Z</time></trkpt><trkpt lat="46.20291840399701" lon="13.118282624608003"><ele>175.0</ele><time>2026-03-30T20:44:56Z</time></trkpt><trkpt lat="46.20285151126046" lon="13.118397069300583"><ele>175.2</ele><time>2026-03-30T20:44:57Z</time></trkpt><trkpt lat="46.20278547147185" lon="13.118504062630516"><ele>175.4</ele><time>2026-03-30T20:44:58Z</time></trkpt><trkpt lat="46.20272892134101" lon="13.11859753380452"><ele>175.60000000000002</ele><time>2026-03-30T20:44:59Z</time></trkpt><trkpt lat="46.20267429221773" lon="13.118675372819586"><ele>175.8</ele><time>2026-03-30T20:45:00Z</time></trkpt><trkpt lat="46.202604242773525" lon="13.118769383798448"><ele>176.0</ele><time>2026-03-30T20:45:01Z</time></trkpt><trkpt lat="46.202504657367385" lon="13.118841117508422"><ele>176.0</ele><time>2026-03-30T20:45:02Z</time></trkpt><trkpt lat="46.202430162003004" lon="13.118949252711282"><ele>176.0</ele><time>2026-03-30T20:45:03Z</time></trkpt><trkpt lat="46.202374646304456" lon="13.11909453230401"><ele>176.0</ele><time>2026-03-30T20:45:04Z</time></trkpt><trkpt lat="46.202314071104944" lon="13.119286210411651"><ele>176.0</ele><time>2026-03-30T20:45:05Z</time></trkpt><trkpt lat="46.202226768872194" lon="13.119465914575063"><ele>175.66666666666666</ele><time>2026-03-30T20:45:06Z</time></trkpt><trkpt lat="46.20210845886465" lon="13.119634485960033"><ele>175.33333333333334</ele><time>2026-03-30T20:45:07Z</time></trkpt><trkpt lat="46.20197044362028" lon="13.1198163283881"><ele>175.0</ele><time>2026-03-30T20:45:08Z</time></trkpt><trkpt lat="46.20182235346772" lon="13.119977320810076"><ele>175.0</ele><time>2026-03-30T20:45:09Z</time></trkpt><trkpt lat="46.2016727359171" lon="13.120133166327292"><ele>175.0</ele><time>2026-03-30T20:45:10Z</time></trkpt><trkpt lat="46.20150781112553" lon="13.120310849250272"><ele>175.0</ele><time>2026-03-30T20:45:11Z</time></trkpt><trkpt lat="46.20132876048936" lon="13.120483874189576"><ele>176.0</ele><time>2026-03-30T20:45:12Z</time></trkpt><trkpt lat="46.201131216619494" lon="13.120640485127659"><ele>177.0</ele><time>2026-03-30T20:45:13Z</time></trkpt><trkpt lat="46.20092937781357" lon="13.12079610820941"><ele>177.0</ele><time>2026-03-30T20:45:14Z</time></trkpt><trkpt lat="46.20075217242306" lon="13.120924261778942"><ele>177.0</ele><time>2026-03-30T20:45:15Z</time></trkpt><trkpt lat="46.200585377728636" lon="13.121037718376828"><ele>177.0</ele><time>2026-03-30T20:45:16Z</time></trkpt><trkpt lat="46.20042696353735" lon="13.121129903954811"><ele>176.66666666666666</ele><time>2026-03-30T20:45:17Z</time></trkpt><trkpt lat="46.20027276950076" lon="13.121215310145512"><ele>176.33333333333331</ele><time>2026-03-30T20:45:18Z</time></trkpt><trkpt lat="46.200122810663146" lon="13.121296726293245"><ele>176.0</ele><time>2026-03-30T20:45:19Z</time></trkpt><trkpt lat="46.199950915342725" lon="13.121349085571996"><ele>175.33333333333331</ele><time>2026-03-30T20:45:20Z</time></trkpt><trkpt lat="46.19977138612529" lon="13.121419335833702"><ele>174.66666666666666</ele><time>2026-03-30T20:45:21Z</time></trkpt><trkpt lat="46.199588180982445" lon="13.121506324167292"><ele>174.0</ele><time>2026-03-30T20:45:22Z</time></trkpt><trkpt lat="46.19939581328199" lon="13.121561595675672"><ele>173.66666666666666</ele><time>2026-03-30T20:45:23Z</time></trkpt><trkpt lat="46.19920428203828" lon="13.121587776951086"><ele>173.33333333333331</ele><time>2026-03-30T20:45:24Z</time></trkpt><trkpt lat="46.19901329034555" lon="13.121640698044288"><ele>173.0</ele><time>2026-03-30T20:45:25Z</time></trkpt><trkpt lat="46.198831600273635" lon="13.121667425154078"><ele>173.0</ele><time>2026-03-30T20:45:26Z</time></trkpt><trkpt lat="46.19866323859797" lon="13.121679991133448"><ele>173.0</ele><time>2026-03-30T20:45:27Z</time></trkpt><trkpt lat="46.19850416867624" lon="13.121685381614327"><ele>173.0</ele><time>2026-03-30T20:45:28Z</time></trkpt><trkpt lat="46.19833146952365" lon="13.12168641700408"><ele>173.0</ele><time>2026-03-30T20:45:29Z</time></trkpt><trkpt lat="46.19814628421149" lon="13.121673639106298"><ele>173.0</ele><time>2026-03-30T20:45:29.999Z</time></trkpt><trkpt lat="46.19795405782259" lon="13.121646708288479"><ele>173.0</ele><time>2026-03-30T20:45:30.999Z</time></trkpt><trkpt lat="46.19774613871843" lon="13.121610849189635"><ele>173.0</ele><time>2026-03-30T20:45:31.999Z</time></trkpt><trkpt lat="46.19752388610508" lon="13.121566480711095"><ele>173.0</ele><time>2026-03-30T20:45:32.999Z</time></trkpt><trkpt lat="46.197289701723975" lon="13.121515095821255"><ele>175.5</ele><time>2026-03-30T20:45:33.999Z</time></trkpt><trkpt lat="46.19705235092652" lon="13.121462033403601"><ele>178.0</ele><time>2026-03-30T20:45:34.999Z</time></trkpt><trkpt lat="46.196819783066594" lon="13.121408194445033"><ele>178.0</ele><time>2026-03-30T20:45:35.999Z</time></trkpt><trkpt lat="46.196614408434584" lon="13.121359539736018"><ele>178.0</ele><time>2026-03-30T20:45:36.999Z</time></trkpt><trkpt lat="46.196414405693716" lon="13.12131470226758"><ele>178.0</ele><time>2026-03-30T20:45:37.999Z</time></trkpt><trkpt lat="46.19620387450373" lon="13.121264549538626"><ele>176.5</ele><time>2026-03-30T20:45:38.999Z</time></trkpt><trkpt lat="46.19597999963152" lon="13.121210074804132"><ele>175.0</ele><time>2026-03-30T20:45:39.999Z</time></trkpt><trkpt lat="46.19574695806347" lon="13.121155827894167"><ele>172.5</ele><time>2026-03-30T20:45:40.999Z</time></trkpt><trkpt lat="46.195512833898704" lon="13.121101525551511"><ele>170.0</ele><time>2026-03-30T20:45:41.999Z</time></trkpt><trkpt lat="46.195302684860756" lon="13.121056639419946"><ele>170.0</ele><time>2026-03-30T20:45:42.999Z</time></trkpt><trkpt lat="46.19508944432671" lon="13.1210076179403"><ele>170.0</ele><time>2026-03-30T20:45:43.999Z</time></trkpt><trkpt lat="46.19486991647153" lon="13.120959622558923"><ele>170.0</ele><time>2026-03-30T20:45:44.999Z</time></trkpt><trkpt lat="46.19464784758625" lon="13.120907753920655"><ele>168.5</ele><time>2026-03-30T20:45:45.999Z</time></trkpt><trkpt lat="46.19441704435541" lon="13.120853142571992"><ele>167.0</ele><time>2026-03-30T20:45:46.999Z</time></trkpt><trkpt lat="46.19418500400343" lon="13.120800940160604"><ele>167.33333333333331</ele><time>2026-03-30T20:45:47.999Z</time></trkpt><trkpt lat="46.19396164204763" lon="13.120753028600383"><ele>167.66666666666666</ele><time>2026-03-30T20:45:48.999Z</time></trkpt><trkpt lat="46.19375523130654" lon="13.12070379573898"><ele>168.0</ele><time>2026-03-30T20:45:49.999Z</time></trkpt><trkpt lat="46.19355990861102" lon="13.12065885768086"><ele>168.0</ele><time>2026-03-30T20:45:50.999Z</time></trkpt><trkpt lat="46.19337425624315" lon="13.12061444694407"><ele>168.0</ele><time>2026-03-30T20:45:51.999Z</time></trkpt><trkpt lat="46.19318097812559" lon="13.120565390081966"><ele>168.0</ele><time>2026-03-30T20:45:52.999Z</time></trkpt><trkpt lat="46.19297795813612" lon="13.120517860624394"><ele>167.33333333333334</ele><time>2026-03-30T20:45:53.999Z</time></trkpt><trkpt lat="46.19276752873151" lon="13.12047186435231"><ele>166.66666666666669</ele><time>2026-03-30T20:45:54.999Z</time></trkpt><trkpt lat="46.19255471691091" lon="13.120422011650476"><ele>166.0</ele><time>2026-03-30T20:45:55.999Z</time></trkpt><trkpt lat="46.19234452071195" lon="13.120373385098972"><ele>165.66666666666669</ele><time>2026-03-30T20:45:56.999Z</time></trkpt><trkpt lat="46.19214406981673" lon="13.120329382127977"><ele>165.33333333333334</ele><time>2026-03-30T20:45:57.999Z</time></trkpt><trkpt lat="46.19195590966081" lon="13.120289186539429"><ele>165.0</ele><time>2026-03-30T20:45:58.999Z</time></trkpt><trkpt lat="46.19177135204306" lon="13.120257143052253"><ele>165.0</ele><time>2026-03-30T20:45:59.999Z</time></trkpt><trkpt lat="46.19157609445819" lon="13.120228830459178"><ele>165.0</ele><time>2026-03-30T20:46:00.999Z</time></trkpt><trkpt lat="46.191373194647575" lon="13.12020775410739"><ele>165.0</ele><time>2026-03-30T20:46:01.999Z</time></trkpt><trkpt lat="46.19116581122289" lon="13.1201915451276"><ele>165.0</ele><time>2026-03-30T20:46:02.999Z</time></trkpt><trkpt lat="46.19096840650561" lon="13.120185590391037"><ele>165.0</ele><time>2026-03-30T20:46:03.999Z</time></trkpt><trkpt lat="46.190782880001365" lon="13.120190877210323"><ele>165.0</ele><time>2026-03-30T20:46:04.999Z</time></trkpt><trkpt lat="46.19058802173768" lon="13.120200571041778"><ele>165.33333333333334</ele><time>2026-03-30T20:46:05.999Z</time></trkpt><trkpt lat="46.19040557424592" lon="13.12021331291915"><ele>165.66666666666669</ele><time>2026-03-30T20:46:06.999Z</time></trkpt><trkpt lat="46.19023997730265" lon="13.120230327075985"><ele>166.0</ele><time>2026-03-30T20:46:07.999Z</time></trkpt><trkpt lat="46.190080615580904" lon="13.120250361562844"><ele>166.0</ele><time>2026-03-30T20:46:08.999Z</time></trkpt><trkpt lat="46.18991771629722" lon="13.120277656568927"><ele>166.0</ele><time>2026-03-30T20:46:09.999Z</time></trkpt><trkpt lat="46.189742552360805" lon="13.120317463823273"><ele>166.0</ele><time>2026-03-30T20:46:10.999Z</time></trkpt><trkpt lat="46.18954997752544" lon="13.120364824364732"><ele>167.33333333333334</ele><time>2026-03-30T20:46:11.999Z</time></trkpt><trkpt lat="46.18935014345626" lon="13.120424749697104"><ele>168.66666666666666</ele><time>2026-03-30T20:46:12.999Z</time></trkpt><trkpt lat="46.189143917806724" lon="13.120494391663785"><ele>170.0</ele><time>2026-03-30T20:46:13.999Z</time></trkpt><trkpt lat="46.18894987395188" lon="13.120573315182632"><ele>171.0</ele><time>2026-03-30T20:46:14.999Z</time></trkpt><trkpt lat="46.18877261605678" lon="13.120651258773679"><ele>172.0</ele><time>2026-03-30T20:46:15.999Z</time></trkpt><trkpt lat="46.18859876237269" lon="13.120732170420462"><ele>173.0</ele><time>2026-03-30T20:46:16.999Z</time></trkpt><trkpt lat="46.18841290991163" lon="13.120823037541117"><ele>173.0</ele><time>2026-03-30T20:46:17.999Z</time></trkpt><trkpt lat="46.18822747863607" lon="13.120928829653215"><ele>173.0</ele><time>2026-03-30T20:46:18.999Z</time></trkpt><trkpt lat="46.188035309068916" lon="13.121042705270623"><ele>173.0</ele><time>2026-03-30T20:46:19.999Z</time></trkpt><trkpt lat="46.18783995183605" lon="13.121164179281267"><ele>173.0</ele><time>2026-03-30T20:46:20.999Z</time></trkpt><trkpt lat="46.18763781515948" lon="13.121293423100932"><ele>173.0</ele><time>2026-03-30T20:46:21.999Z</time></trkpt><trkpt lat="46.18743547429619" lon="13.121421487741165"><ele>173.0</ele><time>2026-03-30T20:46:22.999Z</time></trkpt><trkpt lat="46.18722993396727" lon="13.121555759482446"><ele>172.33333333333331</ele><time>2026-03-30T20:46:23.999Z</time></trkpt><trkpt lat="46.18702910334427" lon="13.121688215563594"><ele>171.66666666666666</ele><time>2026-03-30T20:46:24.999Z</time></trkpt><trkpt lat="46.18683328979814" lon="13.12181878765496"><ele>171.0</ele><time>2026-03-30T20:46:25.999Z</time></trkpt><trkpt lat="46.18663401240761" lon="13.121946495888594"><ele>170.33333333333334</ele><time>2026-03-30T20:46:26.999Z</time></trkpt><trkpt lat="46.18643352498005" lon="13.12207792867648"><ele>169.66666666666669</ele><time>2026-03-30T20:46:28Z</time></trkpt><trkpt lat="46.18623015417877" lon="13.12220908849285"><ele>169.0</ele><time>2026-03-30T20:46:29Z</time></trkpt><trkpt lat="46.186028888951036" lon="13.122340296029895"><ele>170.33333333333334</ele><time>2026-03-30T20:46:30Z</time></trkpt><trkpt lat="46.185827399384884" lon="13.122470292568886"><ele>171.66666666666666</ele><time>2026-03-30T20:46:31Z</time></trkpt><trkpt lat="46.18563378950287" lon="13.122587340738123"><ele>173.0</ele><time>2026-03-30T20:46:32Z</time></trkpt><trkpt lat="46.18545045595474" lon="13.12270745198551"><ele>173.0</ele><time>2026-03-30T20:46:33Z</time></trkpt><trkpt lat="46.18526617657167" lon="13.122826983835266"><ele>173.0</ele><time>2026-03-30T20:46:34Z</time></trkpt><trkpt lat="46.18507700337047" lon="13.122948486149427"><ele>173.0</ele><time>2026-03-30T20:46:35Z</time></trkpt><trkpt lat="46.18488009968037" lon="13.12307737071003"><ele>174.33333333333331</ele><time>2026-03-30T20:46:36Z</time></trkpt><trkpt lat="46.18467946600119" lon="13.123209818138355"><ele>175.66666666666666</ele><time>2026-03-30T20:46:37Z</time></trkpt><trkpt lat="46.1844849118782" lon="13.12333782220597"><ele>177.0</ele><time>2026-03-30T20:46:38Z</time></trkpt><trkpt lat="46.1842936419405" lon="13.12345824688224"><ele>177.0</ele><time>2026-03-30T20:46:39Z</time></trkpt><trkpt lat="46.18410850522749" lon="13.12357726598627"><ele>177.0</ele><time>2026-03-30T20:46:40Z</time></trkpt><trkpt lat="46.183917317004465" lon="13.123702666724762"><ele>177.0</ele><time>2026-03-30T20:46:41Z</time></trkpt><trkpt lat="46.18373942468506" lon="13.12381736931504"><ele>177.0</ele><time>2026-03-30T20:46:42Z</time></trkpt><trkpt lat="46.1835689386016" lon="13.123928214543906"><ele>177.0</ele><time>2026-03-30T20:46:43Z</time></trkpt><trkpt lat="46.183412448475636" lon="13.124031215246799"><ele>177.0</ele><time>2026-03-30T20:46:44Z</time></trkpt><trkpt lat="46.1832640247318" lon="13.124130338714572"><ele>176.66666666666666</ele><time>2026-03-30T20:46:45Z</time></trkpt><trkpt lat="46.18311662018566" lon="13.124225654687159"><ele>176.33333333333331</ele><time>2026-03-30T20:46:46Z</time></trkpt><trkpt lat="46.18296213095748" lon="13.124325828031948"><ele>176.0</ele><time>2026-03-30T20:46:47Z</time></trkpt><trkpt lat="46.18279557728027" lon="13.124432478178486"><ele>176.0</ele><time>2026-03-30T20:46:48Z</time></trkpt><trkpt lat="46.18261912828402" lon="13.1245472531561"><ele>176.0</ele><time>2026-03-30T20:46:49Z</time></trkpt><trkpt lat="46.18243304652262" lon="13.124668974756077"><ele>176.0</ele><time>2026-03-30T20:46:50Z</time></trkpt><trkpt lat="46.18224074046492" lon="13.124791209504798"><ele>177.66666666666666</ele><time>2026-03-30T20:46:51Z</time></trkpt><trkpt lat="46.182041299823034" lon="13.124920135643176"><ele>179.33333333333334</ele><time>2026-03-30T20:46:52Z</time></trkpt><trkpt lat="46.18184327545025" lon="13.125050073958159"><ele>181.0</ele><time>2026-03-30T20:46:53Z</time></trkpt><trkpt lat="46.1816567960391" lon="13.125166569879799"><ele>181.33333333333334</ele><time>2026-03-30T20:46:54Z</time></trkpt><trkpt lat="46.181488206795194" lon="13.125278143153215"><ele>181.66666666666666</ele><time>2026-03-30T20:46:55Z</time></trkpt><trkpt lat="46.18132669407239" lon="13.125378696013271"><ele>182.0</ele><time>2026-03-30T20:46:56Z</time></trkpt><trkpt lat="46.18116914975188" lon="13.125484373524957"><ele>182.0</ele><time>2026-03-30T20:46:57Z</time></trkpt><trkpt lat="46.18100063318944" lon="13.125593644178988"><ele>182.0</ele><time>2026-03-30T20:46:58Z</time></trkpt><trkpt lat="46.18082768535517" lon="13.125706493582932"><ele>182.0</ele><time>2026-03-30T20:46:59Z</time></trkpt><trkpt lat="46.18064553670729" lon="13.125824024317929"><ele>182.33333333333331</ele><time>2026-03-30T20:47:00Z</time></trkpt><trkpt lat="46.180460812263426" lon="13.125944808078934"><ele>182.66666666666666</ele><time>2026-03-30T20:47:01Z</time></trkpt><trkpt lat="46.18027172026704" lon="13.126066212014674"><ele>183.0</ele><time>2026-03-30T20:47:02Z</time></trkpt><trkpt lat="46.180084972726284" lon="13.12618474977688"><ele>183.0</ele><time>2026-03-30T20:47:03Z</time></trkpt><trkpt lat="46.17990399659491" lon="13.126299391100893"><ele>183.0</ele><time>2026-03-30T20:47:04Z</time></trkpt><trkpt lat="46.1797259836413" lon="13.12641215071119"><ele>183.0</ele><time>2026-03-30T20:47:05Z</time></trkpt><trkpt lat="46.17955201565316" lon="13.126523075587334"><ele>182.66666666666666</ele><time>2026-03-30T20:47:06Z</time></trkpt><trkpt lat="46.17937204756167" lon="13.12663823049383"><ele>182.33333333333331</ele><time>2026-03-30T20:47:07Z</time></trkpt><trkpt lat="46.179200841873474" lon="13.12674867492013"><ele>182.0</ele><time>2026-03-30T20:47:08Z</time></trkpt><trkpt lat="46.17904471225547" lon="13.12685063824865"><ele>182.66666666666666</ele><time>2026-03-30T20:47:09Z</time></trkpt><trkpt lat="46.17889775309458" lon="13.12695139565083"><ele>183.33333333333334</ele><time>2026-03-30T20:47:10Z</time></trkpt><trkpt lat="46.178759178288786" lon="13.127044478777949"><ele>184.0</ele><time>2026-03-30T20:47:11Z</time></trkpt><trkpt lat="46.17863096925661" lon="13.12712826094919"><ele>184.0</ele><time>2026-03-30T20:47:12Z</time></trkpt><trkpt lat="46.178510400647504" lon="13.127206773962882"><ele>184.0</ele><time>2026-03-30T20:47:13Z</time></trkpt><trkpt lat="46.17839353530415" lon="13.127282931073252"><ele>184.0</ele><time>2026-03-30T20:47:14Z</time></trkpt><trkpt lat="46.17828589012432" lon="13.127352025240908"><ele>184.0</ele><time>2026-03-30T20:47:15Z</time></trkpt><trkpt lat="46.17818814601104" lon="13.12741538673823"><ele>184.2</ele><time>2026-03-30T20:47:16Z</time></trkpt><trkpt lat="46.17809716641539" lon="13.127474565805542"><ele>184.39999999999998</ele><time>2026-03-30T20:47:17Z</time></trkpt><trkpt lat="46.17799674832954" lon="13.127536023574812"><ele>184.6</ele><time>2026-03-30T20:47:18Z</time></trkpt><trkpt lat="46.17788768572375" lon="13.127601815724896"><ele>184.8</ele><time>2026-03-30T20:47:19Z</time></trkpt><trkpt lat="46.17779639643957" lon="13.127660103521498"><ele>185.0</ele><time>2026-03-30T20:47:20Z</time></trkpt><trkpt lat="46.17771531849936" lon="13.127712938191857"><ele>185.0</ele><time>2026-03-30T20:47:21Z</time></trkpt><trkpt lat="46.177641366647656" lon="13.127760308443486"><ele>185.0</ele><time>2026-03-30T20:47:22Z</time></trkpt><trkpt lat="46.17757313047082" lon="13.127800482353631"><ele>185.0</ele><time>2026-03-30T20:47:23Z</time></trkpt><trkpt lat="46.17751332690426" lon="13.127837301735378"><ele>185.0</ele><time>2026-03-30T20:47:24Z</time></trkpt><trkpt lat="46.177388723838654" lon="13.127885924287542"><ele>185.0</ele><time>2026-03-30T20:47:26Z</time></trkpt><trkpt lat="46.17730985234332" lon="13.127890739760518"><ele>185.0</ele><time>2026-03-30T20:47:27Z</time></trkpt><trkpt lat="46.177240248271005" lon="13.127856467070641"><ele>185.6</ele><time>2026-03-30T20:47:28Z</time></trkpt><trkpt lat="46.17717152596111" lon="13.127805415057846"><ele>186.2</ele><time>2026-03-30T20:47:29Z</time></trkpt><trkpt lat="46.17705580698066" lon="13.127810950401017"><ele>186.8</ele><time>2026-03-30T20:47:31Z</time></trkpt><trkpt lat="46.176971134904434" lon="13.127954003192361"><ele>187.4</ele><time>2026-03-30T20:47:33Z</time></trkpt><trkpt lat="46.17696919360518" lon="13.128052067663912"><ele>188.0</ele><time>2026-03-30T20:47:34Z</time></trkpt><trkpt lat="46.177001561315834" lon="13.128142832199261"><ele>188.0</ele><time>2026-03-30T20:47:35Z</time></trkpt><trkpt lat="46.17706500577397" lon="13.128200406793319"><ele>188.0</ele><time>2026-03-30T20:47:35.999Z</time></trkpt><trkpt lat="46.17718189209599" lon="13.128189278616986"><ele>188.0</ele><time>2026-03-30T20:47:37.999Z</time></trkpt><trkpt lat="46.17724208038808" lon="13.128127400999748"><ele>188.0</ele><time>2026-03-30T20:47:38.999Z</time></trkpt><trkpt lat="46.17730535634124" lon="13.128043082944018"><ele>188.0</ele><time>2026-03-30T20:47:39.999Z</time></trkpt><trkpt lat="46.17738985336141" lon="13.12796986489365"><ele>187.0</ele><time>2026-03-30T20:47:40.999Z</time></trkpt><trkpt lat="46.17749867798959" lon="13.127900933055894"><ele>186.0</ele><time>2026-03-30T20:47:41.999Z</time></trkpt><trkpt lat="46.17763661637559" lon="13.127811258725451"><ele>185.0</ele><time>2026-03-30T20:47:42.999Z</time></trkpt><trkpt lat="46.177804158866834" lon="13.127700125064587"><ele>185.0</ele><time>2026-03-30T20:47:43.999Z</time></trkpt><trkpt lat="46.1779995315234" lon="13.127570683067768"><ele>185.0</ele><time>2026-03-30T20:47:44.999Z</time></trkpt><trkpt lat="46.17823255529664" lon="13.127423080238636"><ele>184.5</ele><time>2026-03-30T20:47:45.999Z</time></trkpt><trkpt lat="46.178480966840326" lon="13.12726676131757"><ele>184.0</ele><time>2026-03-30T20:47:46.999Z</time></trkpt><trkpt lat="46.17869962873706" lon="13.127119221214064"><ele>184.0</ele><time>2026-03-30T20:47:47.999Z</time></trkpt><trkpt lat="46.178909502635044" lon="13.126977930192"><ele>184.0</ele><time>2026-03-30T20:47:48.999Z</time></trkpt><trkpt lat="46.179127135076996" lon="13.126837410612442"><ele>184.0</ele><time>2026-03-30T20:47:49.999Z</time></trkpt><trkpt lat="46.17933734561908" lon="13.126703585229777"><ele>184.0</ele><time>2026-03-30T20:47:50.999Z</time></trkpt><trkpt lat="46.17953754527909" lon="13.126576099105698"><ele>184.0</ele><time>2026-03-30T20:47:51.999Z</time></trkpt><trkpt lat="46.17973625176155" lon="13.126447767738387"><ele>183.66666666666669</ele><time>2026-03-30T20:47:52.999Z</time></trkpt><trkpt lat="46.179930084432016" lon="13.126323223063785"><ele>183.33333333333334</ele><time>2026-03-30T20:47:53.999Z</time></trkpt><trkpt lat="46.18012588093918" lon="13.126197633012334"><ele>183.0</ele><time>2026-03-30T20:47:54.999Z</time></trkpt><trkpt lat="46.180324802235916" lon="13.126068243541592"><ele>183.0</ele><time>2026-03-30T20:47:55.999Z</time></trkpt><trkpt lat="46.18050921232993" lon="13.125948718450914"><ele>183.0</ele><time>2026-03-30T20:47:56.999Z</time></trkpt><trkpt lat="46.18069056356926" lon="13.125833171643615"><ele>183.0</ele><time>2026-03-30T20:47:57.999Z</time></trkpt><trkpt lat="46.180882139905805" lon="13.125709162341295"><ele>182.66666666666666</ele><time>2026-03-30T20:47:58.999Z</time></trkpt><trkpt lat="46.181077745810505" lon="13.12558000659388"><ele>182.33333333333331</ele><time>2026-03-30T20:47:59.999Z</time></trkpt><trkpt lat="46.181277398294114" lon="13.125450469856531"><ele>182.0</ele><time>2026-03-30T20:48:00.999Z</time></trkpt><trkpt lat="46.18148114474202" lon="13.125317445468621"><ele>181.5</ele><time>2026-03-30T20:48:01.999Z</time></trkpt><trkpt lat="46.181689446283855" lon="13.125182529279545"><ele>181.0</ele><time>2026-03-30T20:48:02.999Z</time></trkpt><trkpt lat="46.18190055042992" lon="13.125046170626515"><ele>181.0</ele><time>2026-03-30T20:48:03.999Z</time></trkpt><trkpt lat="46.182111189724516" lon="13.124910371152813"><ele>181.0</ele><time>2026-03-30T20:48:04.999Z</time></trkpt><trkpt lat="46.18232617190682" lon="13.124773926438266"><ele>178.5</ele><time>2026-03-30T20:48:05.999Z</time></trkpt><trkpt lat="46.18254624810141" lon="13.124633814118122"><ele>176.0</ele><time>2026-03-30T20:48:06.999Z</time></trkpt><trkpt lat="46.18277065559578" lon="13.124487163247398"><ele>176.0</ele><time>2026-03-30T20:48:07.999Z</time></trkpt><trkpt lat="46.18297939322281" lon="13.124347561390213"><ele>176.0</ele><time>2026-03-30T20:48:08.999Z</time></trkpt><trkpt lat="46.18317342204903" lon="13.124207528033129"><ele>176.0</ele><time>2026-03-30T20:48:09.999Z</time></trkpt><trkpt lat="46.18337396712689" lon="13.124099488147467"><ele>176.33333333333331</ele><time>2026-03-30T20:48:10.999Z</time></trkpt><trkpt lat="46.183529411115444" lon="13.123997588343904"><ele>176.66666666666666</ele><time>2026-03-30T20:48:11.999Z</time></trkpt><trkpt lat="46.18370656312616" lon="13.123884399372344"><ele>177.0</ele><time>2026-03-30T20:48:12.999Z</time></trkpt><trkpt lat="46.183891423067685" lon="13.123763578012559"><ele>177.33333333333334</ele><time>2026-03-30T20:48:13.999Z</time></trkpt><trkpt lat="46.18408304586032" lon="13.123645353056483"><ele>177.66666666666669</ele><time>2026-03-30T20:48:14.999Z</time></trkpt><trkpt lat="46.18427968501474" lon="13.12351853763615"><ele>178.0</ele><time>2026-03-30T20:48:15.999Z</time></trkpt><trkpt lat="46.18448339080907" lon="13.123387438157144"><ele>178.0</ele><time>2026-03-30T20:48:16.999Z</time></trkpt><trkpt lat="46.18468531058064" lon="13.123248534607994"><ele>178.0</ele><time>2026-03-30T20:48:17.999Z</time></trkpt><trkpt lat="46.18486980701318" lon="13.123125275063575"><ele>178.0</ele><time>2026-03-30T20:48:18.999Z</time></trkpt><trkpt lat="46.18503453799271" lon="13.123010824469276"><ele>176.33333333333334</ele><time>2026-03-30T20:48:19.999Z</time></trkpt><trkpt lat="46.18520816214932" lon="13.122903346332999"><ele>174.66666666666666</ele><time>2026-03-30T20:48:20.999Z</time></trkpt><trkpt lat="46.185406300074376" lon="13.122783737599756"><ele>173.0</ele><time>2026-03-30T20:48:21.999Z</time></trkpt><trkpt lat="46.18561892711208" lon="13.12264460209807"><ele>171.0</ele><time>2026-03-30T20:48:22.999Z</time></trkpt><trkpt lat="46.18583778397868" lon="13.122497659447285"><ele>169.0</ele><time>2026-03-30T20:48:23.999Z</time></trkpt><trkpt lat="46.186060888729656" lon="13.122350640392105"><ele>169.0</ele><time>2026-03-30T20:48:24.999Z</time></trkpt><trkpt lat="46.186285155435364" lon="13.122204534230622"><ele>169.0</ele><time>2026-03-30T20:48:25.999Z</time></trkpt><trkpt lat="46.18650161501397" lon="13.122065510772472"><ele>169.66666666666669</ele><time>2026-03-30T20:48:26.999Z</time></trkpt><trkpt lat="46.18671273181575" lon="13.121933561569339"><ele>170.33333333333334</ele><time>2026-03-30T20:48:27.999Z</time></trkpt><trkpt lat="46.1869041864907" lon="13.121812017793603"><ele>171.0</ele><time>2026-03-30T20:48:28.999Z</time></trkpt><trkpt lat="46.1870850529126" lon="13.121699863058872"><ele>171.0</ele><time>2026-03-30T20:48:29.999Z</time></trkpt><trkpt lat="46.187259988094496" lon="13.121585767168634"><ele>171.0</ele><time>2026-03-30T20:48:30.999Z</time></trkpt><trkpt lat="46.18743021184442" lon="13.12147351835363"><ele>171.0</ele><time>2026-03-30T20:48:31.999Z</time></trkpt><trkpt lat="46.18760789160812" lon="13.121351265208286"><ele>171.66666666666666</ele><time>2026-03-30T20:48:32.999Z</time></trkpt><trkpt lat="46.18779573762538" lon="13.121223174453982"><ele>172.33333333333331</ele><time>2026-03-30T20:48:33.999Z</time></trkpt><trkpt lat="46.18798472673749" lon="13.12110264782455"><ele>173.0</ele><time>2026-03-30T20:48:34.999Z</time></trkpt><trkpt lat="46.188177138832486" lon="13.1209876066342"><ele>173.0</ele><time>2026-03-30T20:48:35.999Z</time></trkpt><trkpt lat="46.188376059625135" lon="13.120882266469845"><ele>173.0</ele><time>2026-03-30T20:48:36.999Z</time></trkpt><trkpt lat="46.18857834260614" lon="13.120775629997405"><ele>173.0</ele><time>2026-03-30T20:48:37.999Z</time></trkpt><trkpt lat="46.188789060313496" lon="13.120677201512375"><ele>173.0</ele><time>2026-03-30T20:48:38.999Z</time></trkpt><trkpt lat="46.18900543939225" lon="13.120588619956212"><ele>173.0</ele><time>2026-03-30T20:48:40Z</time></trkpt><trkpt lat="46.18921954998603" lon="13.120504243328494"><ele>173.0</ele><time>2026-03-30T20:48:41Z</time></trkpt><trkpt lat="46.18942862269393" lon="13.120433375128204"><ele>172.0</ele><time>2026-03-30T20:48:42Z</time></trkpt><trkpt lat="46.18962001806781" lon="13.120378351895262"><ele>171.0</ele><time>2026-03-30T20:48:43Z</time></trkpt><trkpt lat="46.18981583072309" lon="13.120331553055134"><ele>170.0</ele><time>2026-03-30T20:48:44Z</time></trkpt><trkpt lat="46.19002710409344" lon="13.120304843964183"><ele>168.66666666666666</ele><time>2026-03-30T20:48:45Z</time></trkpt><trkpt lat="46.19024034835906" lon="13.120270144145087"><ele>167.33333333333334</ele><time>2026-03-30T20:48:46Z</time></trkpt><trkpt lat="46.190458967845444" lon="13.120244845493612"><ele>166.0</ele><time>2026-03-30T20:48:47Z</time></trkpt><trkpt lat="46.1906834892609" lon="13.120231300234835"><ele>165.5</ele><time>2026-03-30T20:48:48Z</time></trkpt><trkpt lat="46.190912360111255" lon="13.120228548231799"><ele>165.0</ele><time>2026-03-30T20:48:49Z</time></trkpt><trkpt lat="46.191149771707245" lon="13.120232547912725"><ele>165.0</ele><time>2026-03-30T20:48:50Z</time></trkpt><trkpt lat="46.19138533258348" lon="13.120247203442762"><ele>165.0</ele><time>2026-03-30T20:48:51Z</time></trkpt><trkpt lat="46.19162722710404" lon="13.120275681715375"><ele>165.0</ele><time>2026-03-30T20:48:52Z</time></trkpt><trkpt lat="46.19187522083757" lon="13.120318582235255"><ele>165.0</ele><time>2026-03-30T20:48:53Z</time></trkpt><trkpt lat="46.19213082552981" lon="13.120370938040942"><ele>165.5</ele><time>2026-03-30T20:48:54Z</time></trkpt><trkpt lat="46.19238493865833" lon="13.12042868658133"><ele>166.0</ele><time>2026-03-30T20:48:55Z</time></trkpt><trkpt lat="46.19264223883163" lon="13.120487247706508"><ele>166.0</ele><time>2026-03-30T20:48:56Z</time></trkpt><trkpt lat="46.19291004261866" lon="13.120553908355697"><ele>166.0</ele><time>2026-03-30T20:48:57Z</time></trkpt><trkpt lat="46.19317538879989" lon="13.120612580850578"><ele>167.0</ele><time>2026-03-30T20:48:58Z</time></trkpt><trkpt lat="46.19341718914344" lon="13.12066480402373"><ele>168.0</ele><time>2026-03-30T20:48:59Z</time></trkpt><trkpt lat="46.1936442652347" lon="13.120716104703266"><ele>167.66666666666666</ele><time>2026-03-30T20:49:00Z</time></trkpt><trkpt lat="46.19386649876852" lon="13.120763233602437"><ele>167.33333333333331</ele><time>2026-03-30T20:49:01Z</time></trkpt><trkpt lat="46.19406251374136" lon="13.120814600479717"><ele>167.0</ele><time>2026-03-30T20:49:02Z</time></trkpt><trkpt lat="46.19425394844787" lon="13.12085973004264"><ele>167.0</ele><time>2026-03-30T20:49:03Z</time></trkpt><trkpt lat="46.194454414055635" lon="13.120905641984493"><ele>167.0</ele><time>2026-03-30T20:49:04Z</time></trkpt><trkpt lat="46.19465498053447" lon="13.12095092172842"><ele>167.0</ele><time>2026-03-30T20:49:05Z</time></trkpt><trkpt lat="46.19485971444227" lon="13.120997663491666"><ele>168.0</ele><time>2026-03-30T20:49:06Z</time></trkpt><trkpt lat="46.195061496808734" lon="13.121042745361839"><ele>169.0</ele><time>2026-03-30T20:49:07Z</time></trkpt><trkpt lat="46.195260711403165" lon="13.12108857029175"><ele>170.0</ele><time>2026-03-30T20:49:08Z</time></trkpt><trkpt lat="46.19546142368884" lon="13.121131995758251"><ele>170.0</ele><time>2026-03-30T20:49:09Z</time></trkpt><trkpt lat="46.195661329777074" lon="13.121177245480123"><ele>170.0</ele><time>2026-03-30T20:49:10Z</time></trkpt><trkpt lat="46.195866788561474" lon="13.121227543156756"><ele>170.0</ele><time>2026-03-30T20:49:11Z</time></trkpt><trkpt lat="46.19607308230276" lon="13.121279225009502"><ele>171.66666666666666</ele><time>2026-03-30T20:49:12Z</time></trkpt><trkpt lat="46.19627609016874" lon="13.121326665887976"><ele>173.33333333333334</ele><time>2026-03-30T20:49:13Z</time></trkpt><trkpt lat="46.19647104366819" lon="13.121368190883606"><ele>175.0</ele><time>2026-03-30T20:49:14Z</time></trkpt><trkpt lat="46.196660845907566" lon="13.121409208788824"><ele>176.0</ele><time>2026-03-30T20:49:15Z</time></trkpt><trkpt lat="46.19685466579157" lon="13.121453777558793"><ele>177.0</ele><time>2026-03-30T20:49:16Z</time></trkpt><trkpt lat="46.19704632332338" lon="13.121498504903721"><ele>178.0</ele><time>2026-03-30T20:49:17Z</time></trkpt><trkpt lat="46.197235397593715" lon="13.12154188917589"><ele>176.33333333333334</ele><time>2026-03-30T20:49:18Z</time></trkpt><trkpt lat="46.19743196860179" lon="13.121585941077676"><ele>174.66666666666666</ele><time>2026-03-30T20:49:19Z</time></trkpt><trkpt lat="46.197626391291465" lon="13.121628761531012"><ele>173.0</ele><time>2026-03-30T20:49:20Z</time></trkpt><trkpt lat="46.19780655593285" lon="13.12166348839772"><ele>173.0</ele><time>2026-03-30T20:49:21Z</time></trkpt><trkpt lat="46.19796995026163" lon="13.121691294590308"><ele>173.0</ele><time>2026-03-30T20:49:22Z</time></trkpt><trkpt lat="46.19812928677975" lon="13.121710818475306"><ele>173.0</ele><time>2026-03-30T20:49:23Z</time></trkpt><trkpt lat="46.198299079112985" lon="13.121724723627858"><ele>173.0</ele><time>2026-03-30T20:49:24Z</time></trkpt><trkpt lat="46.19848104483875" lon="13.121730671390015"><ele>173.0</ele><time>2026-03-30T20:49:25Z</time></trkpt><trkpt lat="46.198663752619844" lon="13.121716157449244"><ele>173.0</ele><time>2026-03-30T20:49:26Z</time></trkpt><trkpt lat="46.19883839975183" lon="13.121694039221092"><ele>173.0</ele><time>2026-03-30T20:49:27Z</time></trkpt><trkpt lat="46.199002309919294" lon="13.121674165956431"><ele>173.0</ele><time>2026-03-30T20:49:28Z</time></trkpt><trkpt lat="46.199152532283485" lon="13.121649277108641"><ele>173.0</ele><time>2026-03-30T20:49:29Z</time></trkpt><trkpt lat="46.19930186779145" lon="13.12161916409541"><ele>173.0</ele><time>2026-03-30T20:49:30Z</time></trkpt><trkpt lat="46.19946907211715" lon="13.121577090129826"><ele>173.0</ele><time>2026-03-30T20:49:31Z</time></trkpt><trkpt lat="46.199646142885754" lon="13.121520345144255"><ele>173.0</ele><time>2026-03-30T20:49:32Z</time></trkpt><trkpt lat="46.1998282209257" lon="13.121454785964467"><ele>174.0</ele><time>2026-03-30T20:49:33Z</time></trkpt><trkpt lat="46.20001781005794" lon="13.1213750105515"><ele>175.0</ele><time>2026-03-30T20:49:34Z</time></trkpt><trkpt lat="46.200208978716404" lon="13.121282497499376"><ele>176.0</ele><time>2026-03-30T20:49:35Z</time></trkpt><trkpt lat="46.20039671847782" lon="13.121186098112029"><ele>176.0</ele><time>2026-03-30T20:49:36Z</time></trkpt><trkpt lat="46.200579958454675" lon="13.12108460121681"><ele>176.0</ele><time>2026-03-30T20:49:37Z</time></trkpt><trkpt lat="46.200746013522235" lon="13.120979954821854"><ele>176.0</ele><time>2026-03-30T20:49:38Z</time></trkpt><trkpt lat="46.20089487703636" lon="13.120873493911214"><ele>176.33333333333331</ele><time>2026-03-30T20:49:39Z</time></trkpt><trkpt lat="46.20103456309978" lon="13.120765968618175"><ele>176.66666666666666</ele><time>2026-03-30T20:49:40Z</time></trkpt><trkpt lat="46.20117262338484" lon="13.120656350334322"><ele>177.0</ele><time>2026-03-30T20:49:41Z</time></trkpt><trkpt lat="46.20131855062613" lon="13.120533021116978"><ele>177.33333333333334</ele><time>2026-03-30T20:49:41.998Z</time></trkpt><trkpt lat="46.20145716298314" lon="13.120406954012996"><ele>177.66666666666669</ele><time>2026-03-30T20:49:42.998Z</time></trkpt><trkpt lat="46.201583066931384" lon="13.120281267213104"><ele>178.0</ele><time>2026-03-30T20:49:43.998Z</time></trkpt><trkpt lat="46.20169833956785" lon="13.120165582118766"><ele>178.0</ele><time>2026-03-30T20:49:44.998Z</time></trkpt><trkpt lat="46.201811740224684" lon="13.120048945299313"><ele>178.0</ele><time>2026-03-30T20:49:45.998Z</time></trkpt><trkpt lat="46.20191951713332" lon="13.119929027935573"><ele>178.0</ele><time>2026-03-30T20:49:46.998Z</time></trkpt><trkpt lat="46.20201452017638" lon="13.119813574057906"><ele>178.0</ele><time>2026-03-30T20:49:47.998Z</time></trkpt><trkpt lat="46.202101656489766" lon="13.119705173776065"><ele>178.0</ele><time>2026-03-30T20:49:48.998Z</time></trkpt><trkpt lat="46.2021759816105" lon="13.119606532525395"><ele>178.0</ele><time>2026-03-30T20:49:49.998Z</time></trkpt><trkpt lat="46.20223459530987" lon="13.119524706812072"><ele>178.0</ele><time>2026-03-30T20:49:50.998Z</time></trkpt><trkpt lat="46.20229198468888" lon="13.119449622093027"><ele>178.0</ele><time>2026-03-30T20:49:51.998Z</time></trkpt><trkpt lat="46.20234293445869" lon="13.119380540708926"><ele>178.0</ele><time>2026-03-30T20:49:52.999Z</time></trkpt><trkpt lat="46.20240515377371" lon="13.119313662034035"><ele>178.0</ele><time>2026-03-30T20:49:53.999Z</time></trkpt><trkpt lat="46.20248856224211" lon="13.119264863021538"><ele>177.66666666666669</ele><time>2026-03-30T20:49:54.999Z</time></trkpt><trkpt lat="46.20256047738667" lon="13.119230172716831"><ele>177.33333333333334</ele><time>2026-03-30T20:49:55.999Z</time></trkpt><trkpt lat="46.20262741516571" lon="13.119185604287457"><ele>177.0</ele><time>2026-03-30T20:49:56.999Z</time></trkpt><trkpt lat="46.202675840424305" lon="13.119111254545373"><ele>176.66666666666666</ele><time>2026-03-30T20:49:57.999Z</time></trkpt><trkpt lat="46.20271440324284" lon="13.118999479103334"><ele>176.33333333333331</ele><time>2026-03-30T20:49:58.999Z</time></trkpt><trkpt lat="46.2027419256552" lon="13.118862588807874"><ele>176.0</ele><time>2026-03-30T20:49:59.999Z</time></trkpt><trkpt lat="46.202774749994205" lon="13.118703499617967"><ele>176.0</ele><time>2026-03-30T20:50:00.999Z</time></trkpt><trkpt lat="46.2028322060175" lon="13.1185614980785"><ele>176.0</ele><time>2026-03-30T20:50:01.999Z</time></trkpt><trkpt lat="46.20289570089132" lon="13.11845024861598"><ele>176.0</ele><time>2026-03-30T20:50:02.999Z</time></trkpt><trkpt lat="46.202950098432936" lon="13.118360101460864"><ele>176.0</ele><time>2026-03-30T20:50:03.999Z</time></trkpt><trkpt lat="46.20299736619664" lon="13.11827071179405"><ele>176.0</ele><time>2026-03-30T20:50:04.999Z</time></trkpt><trkpt lat="46.20304005316074" lon="13.118193800262151"><ele>176.0</ele><time>2026-03-30T20:50:05.999Z</time></trkpt><trkpt lat="46.203118046737785" lon="13.11807401274288"><ele>175.83333333333331</ele><time>2026-03-30T20:50:07.999Z</time></trkpt><trkpt lat="46.203167386358324" lon="13.117970519180961"><ele>175.66666666666666</ele><time>2026-03-30T20:50:09.999Z</time></trkpt><trkpt lat="46.20321389363215" lon="13.117898412652892"><ele>175.5</ele><time>2026-03-30T20:50:11.999Z</time></trkpt><trkpt lat="46.20329157999891" lon="13.117833097983299"><ele>175.33333333333334</ele><time>2026-03-30T20:50:14.999Z</time></trkpt><trkpt lat="46.20338061745623" lon="13.117895067038784"><ele>175.16666666666669</ele><time>2026-03-30T20:50:16.999Z</time></trkpt><trkpt lat="46.20345149232562" lon="13.117940549261371"><ele>175.0</ele><time>2026-03-30T20:50:18.999Z</time></trkpt><trkpt lat="46.203514525508496" lon="13.117982339030073"><ele>175.0</ele><time>2026-03-30T20:50:20.999Z</time></trkpt><trkpt lat="46.20357460103139" lon="13.1180158115833"><ele>175.0</ele><time>2026-03-30T20:50:22.999Z</time></trkpt><trkpt lat="46.20366315170816" lon="13.118077389210004"><ele>175.0</ele><time>2026-03-30T20:50:24.999Z</time></trkpt><trkpt lat="46.2037200604491" lon="13.11798179261385"><ele>175.0</ele><time>2026-03-30T20:50:27.999Z</time></trkpt><trkpt lat="46.20365736400156" lon="13.118006625566931"><ele>175.0</ele><time>2026-03-30T20:50:34.999Z</time></trkpt><trkpt lat="46.20357373113773" lon="13.118019857678055"><ele>175.0</ele><time>2026-03-30T20:57:27.001Z</time></trkpt><trkpt lat="46.203501010221906" lon="13.117969725655197"><ele>175.0</ele><time>2026-03-30T20:57:29.001Z</time></trkpt><trkpt lat="46.20348655578959" lon="13.118110458626184"><ele>175.0</ele><time>2026-03-30T20:57:31.001Z</time></trkpt><trkpt lat="46.203332599856196" lon="13.117747894037848"><ele>175.0</ele><time>2026-03-30T20:57:36.001Z</time></trkpt><trkpt lat="46.20333239752917" lon="13.117586094737609"><ele>175.0</ele><time>2026-03-30T20:58:04.002Z</time></trkpt><trkpt lat="46.20338061788609" lon="13.117491636845527"><ele>175.0</ele><time>2026-03-30T20:58:05.002Z</time></trkpt><trkpt lat="46.20344327849684" lon="13.117388511955596"><ele>175.0</ele><time>2026-03-30T20:58:06.001Z</time></trkpt><trkpt lat="46.20351211612516" lon="13.117248050613245"><ele>175.0</ele><time>2026-03-30T20:58:07.001Z</time></trkpt><trkpt lat="46.20361063357851" lon="13.117071631968486"><ele>175.0</ele><time>2026-03-30T20:58:08.001Z</time></trkpt><trkpt lat="46.203679838071984" lon="13.116928851032895"><ele>175.0</ele><time>2026-03-30T20:58:09.001Z</time></trkpt><trkpt lat="46.20376939633441" lon="13.116754797762182"><ele>175.0</ele><time>2026-03-30T20:58:10.001Z</time></trkpt><trkpt lat="46.203901998151665" lon="13.116498830511691"><ele>176.0</ele><time>2026-03-30T20:58:11.001Z</time></trkpt><trkpt lat="46.204048181622305" lon="13.116224287559252"><ele>177.0</ele><time>2026-03-30T20:58:12.001Z</time></trkpt><trkpt lat="46.20417991852315" lon="13.115984491382225"><ele>177.0</ele><time>2026-03-30T20:58:13.001Z</time></trkpt><trkpt lat="46.20429169515149" lon="13.11576643387886"><ele>177.0</ele><time>2026-03-30T20:58:14.001Z</time></trkpt><trkpt lat="46.204398945777136" lon="13.115576935136264"><ele>177.0</ele><time>2026-03-30T20:58:15.001Z</time></trkpt><trkpt lat="46.20450001623083" lon="13.115380160984664"><ele>177.0</ele><time>2026-03-30T20:58:16.001Z</time></trkpt><trkpt lat="46.20460655498578" lon="13.115166366503683"><ele>177.0</ele><time>2026-03-30T20:58:17.001Z</time></trkpt><trkpt lat="46.204729331717324" lon="13.114940798603454"><ele>177.0</ele><time>2026-03-30T20:58:18.001Z</time></trkpt><trkpt lat="46.20485708827615" lon="13.11469535799883"><ele>177.0</ele><time>2026-03-30T20:58:19.001Z</time></trkpt><trkpt lat="46.20497908682324" lon="13.114454093877326"><ele>177.0</ele><time>2026-03-30T20:58:20.001Z</time></trkpt><trkpt lat="46.20508986933717" lon="13.114239123785396"><ele>177.0</ele><time>2026-03-30T20:58:21.001Z</time></trkpt><trkpt lat="46.20519053130737" lon="13.114044771903156"><ele>176.75</ele><time>2026-03-30T20:58:22.001Z</time></trkpt><trkpt lat="46.20528398083694" lon="13.113858071816844"><ele>176.5</ele><time>2026-03-30T20:58:23.001Z</time></trkpt><trkpt lat="46.20537176025742" lon="13.113698363820765"><ele>176.25</ele><time>2026-03-30T20:58:24.001Z</time></trkpt><trkpt lat="46.205447688447684" lon="13.113556338073476"><ele>176.0</ele><time>2026-03-30T20:58:25.001Z</time></trkpt><trkpt lat="46.20551528943229" lon="13.11342385112762"><ele>176.0</ele><time>2026-03-30T20:58:26.001Z</time></trkpt><trkpt lat="46.20558227320839" lon="13.113291983815078"><ele>176.0</ele><time>2026-03-30T20:58:27.001Z</time></trkpt><trkpt lat="46.20564862202738" lon="13.113173746550578"><ele>176.0</ele><time>2026-03-30T20:58:28.001Z</time></trkpt><trkpt lat="46.20571373539816" lon="13.11305269775929"><ele>176.0</ele><time>2026-03-30T20:58:29.001Z</time></trkpt><trkpt lat="46.205776483874494" lon="13.112936500264407"><ele>176.0</ele><time>2026-03-30T20:58:30.001Z</time></trkpt><trkpt lat="46.205843173646365" lon="13.112784646592754"><ele>177.0</ele><time>2026-03-30T20:58:31.001Z</time></trkpt><trkpt lat="46.20592767617972" lon="13.112625743550307"><ele>178.0</ele><time>2026-03-30T20:58:32.001Z</time></trkpt><trkpt lat="46.20601774159989" lon="13.112452233999829"><ele>179.0</ele><time>2026-03-30T20:58:33.001Z</time></trkpt><trkpt lat="46.206120875368164" lon="13.11227066181541"><ele>179.0</ele><time>2026-03-30T20:58:34.001Z</time></trkpt><trkpt lat="46.20622021477904" lon="13.11207026647514"><ele>179.0</ele><time>2026-03-30T20:58:35.001Z</time></trkpt><trkpt lat="46.206342850716325" lon="13.111874769472228"><ele>179.0</ele><time>2026-03-30T20:58:36.001Z</time></trkpt><trkpt lat="46.206444278235224" lon="13.111680707264682"><ele>178.75</ele><time>2026-03-30T20:58:37.001Z</time></trkpt><trkpt lat="46.20653635001526" lon="13.111504224095523"><ele>178.5</ele><time>2026-03-30T20:58:38.001Z</time></trkpt><trkpt lat="46.20661095387491" lon="13.111319538581766"><ele>178.25</ele><time>2026-03-30T20:58:39.001Z</time></trkpt><trkpt lat="46.206705790764175" lon="13.111154560209242"><ele>178.0</ele><time>2026-03-30T20:58:40.001Z</time></trkpt><trkpt lat="46.206776440326415" lon="13.11095679646354"><ele>178.0</ele><time>2026-03-30T20:58:41.001Z</time></trkpt><trkpt lat="46.20687727202751" lon="13.11077124749354"><ele>178.0</ele><time>2026-03-30T20:58:42.001Z</time></trkpt><trkpt lat="46.206964154282225" lon="13.11056134929409"><ele>178.0</ele><time>2026-03-30T20:58:43.001Z</time></trkpt><trkpt lat="46.20702618933858" lon="13.11035932104938"><ele>177.5</ele><time>2026-03-30T20:58:44.001Z</time></trkpt><trkpt lat="46.20710798475258" lon="13.110196574326489"><ele>177.0</ele><time>2026-03-30T20:58:45.001Z</time></trkpt><trkpt lat="46.20716203245514" lon="13.110016013386627"><ele>176.5</ele><time>2026-03-30T20:58:46.001Z</time></trkpt><trkpt lat="46.207229282803176" lon="13.109823132171043"><ele>176.0</ele><time>2026-03-30T20:58:47.001Z</time></trkpt><trkpt lat="46.20730295812521" lon="13.109613670511266"><ele>176.33333333333331</ele><time>2026-03-30T20:58:48.001Z</time></trkpt><trkpt lat="46.20738110062355" lon="13.109382390549948"><ele>176.66666666666666</ele><time>2026-03-30T20:58:49.001Z</time></trkpt><trkpt lat="46.20745596364244" lon="13.109168505730585"><ele>177.0</ele><time>2026-03-30T20:58:50.001Z</time></trkpt><trkpt lat="46.207533089205185" lon="13.10895138144963"><ele>177.0</ele><time>2026-03-30T20:58:51.001Z</time></trkpt><trkpt lat="46.207607987248245" lon="13.108746815724496"><ele>177.0</ele><time>2026-03-30T20:58:52.001Z</time></trkpt><trkpt lat="46.20767512105221" lon="13.108559611523976"><ele>177.0</ele><time>2026-03-30T20:58:53.001Z</time></trkpt><trkpt lat="46.20773483759376" lon="13.108380408371936"><ele>177.0</ele><time>2026-03-30T20:58:54.001Z</time></trkpt><trkpt lat="46.20779006332599" lon="13.108196907124853"><ele>175.75</ele><time>2026-03-30T20:58:55.001Z</time></trkpt><trkpt lat="46.20784043459209" lon="13.108027649229669"><ele>174.5</ele><time>2026-03-30T20:58:56.001Z</time></trkpt><trkpt lat="46.20790546086487" lon="13.107852154369736"><ele>173.25</ele><time>2026-03-30T20:58:57.001Z</time></trkpt><trkpt lat="46.20797287996172" lon="13.107646432707057"><ele>172.0</ele><time>2026-03-30T20:58:58.001Z</time></trkpt><trkpt lat="46.208048881134864" lon="13.107418856971393"><ele>171.66666666666669</ele><time>2026-03-30T20:58:59.001Z</time></trkpt><trkpt lat="46.20813348337741" lon="13.107175845767662"><ele>171.33333333333334</ele><time>2026-03-30T20:59:00.001Z</time></trkpt><trkpt lat="46.208221130951685" lon="13.106915823044611"><ele>171.0</ele><time>2026-03-30T20:59:01.001Z</time></trkpt><trkpt lat="46.20830973303179" lon="13.10664845831257"><ele>169.33333333333334</ele><time>2026-03-30T20:59:02.001Z</time></trkpt><trkpt lat="46.20840192658898" lon="13.106367481743444"><ele>167.66666666666669</ele><time>2026-03-30T20:59:03.001Z</time></trkpt><trkpt lat="46.20850178536687" lon="13.106082633887944"><ele>166.0</ele><time>2026-03-30T20:59:04.001Z</time></trkpt><trkpt lat="46.20861597507299" lon="13.10579216710092"><ele>164.33333333333334</ele><time>2026-03-30T20:59:05.001Z</time></trkpt><trkpt lat="46.20871819922495" lon="13.10549541502659"><ele>162.66666666666666</ele><time>2026-03-30T20:59:06.001Z</time></trkpt><trkpt lat="46.20880896402586" lon="13.10522842236846"><ele>161.0</ele><time>2026-03-30T20:59:07.001Z</time></trkpt><trkpt lat="46.20888838420035" lon="13.104956122226856"><ele>162.5</ele><time>2026-03-30T20:59:08.001Z</time></trkpt><trkpt lat="46.209010729805556" lon="13.104694520558446"><ele>164.0</ele><time>2026-03-30T20:59:09.001Z</time></trkpt><trkpt lat="46.209131791088176" lon="13.104404428617414"><ele>164.0</ele><time>2026-03-30T20:59:10.001Z</time></trkpt><trkpt lat="46.209249271430004" lon="13.104089445296806"><ele>164.0</ele><time>2026-03-30T20:59:11.001Z</time></trkpt><trkpt lat="46.20936441685819" lon="13.103837361279163"><ele>163.33333333333331</ele><time>2026-03-30T20:59:12.001Z</time></trkpt><trkpt lat="46.20947226886237" lon="13.103617311744316"><ele>162.66666666666666</ele><time>2026-03-30T20:59:13.001Z</time></trkpt><trkpt lat="46.209581504814906" lon="13.103390790726628"><ele>162.0</ele><time>2026-03-30T20:59:14.001Z</time></trkpt><trkpt lat="46.209690928234814" lon="13.103126662568402"><ele>162.0</ele><time>2026-03-30T20:59:15.001Z</time></trkpt><trkpt lat="46.20980814165963" lon="13.10285080448635"><ele>162.0</ele><time>2026-03-30T20:59:16.001Z</time></trkpt><trkpt lat="46.20992938902674" lon="13.102559651141926"><ele>162.0</ele><time>2026-03-30T20:59:17.001Z</time></trkpt><trkpt lat="46.210062016979144" lon="13.102274145792181"><ele>162.0</ele><time>2026-03-30T20:59:18.001Z</time></trkpt><trkpt lat="46.2101858034603" lon="13.102008760160187"><ele>162.0</ele><time>2026-03-30T20:59:19.001Z</time></trkpt><trkpt lat="46.21029844324905" lon="13.101757251199448"><ele>162.0</ele><time>2026-03-30T20:59:20.001Z</time></trkpt><trkpt lat="46.210402569207" lon="13.101531091494705"><ele>162.0</ele><time>2026-03-30T20:59:21.001Z</time></trkpt><trkpt lat="46.21049815436196" lon="13.101314449907022"><ele>162.0</ele><time>2026-03-30T20:59:22.001Z</time></trkpt><trkpt lat="46.210590846236556" lon="13.101103153547044"><ele>162.0</ele><time>2026-03-30T20:59:23.001Z</time></trkpt><trkpt lat="46.21068761326401" lon="13.100880435947923"><ele>162.0</ele><time>2026-03-30T20:59:24.001Z</time></trkpt><trkpt lat="46.21079560062663" lon="13.100648857656678"><ele>162.66666666666666</ele><time>2026-03-30T20:59:25.001Z</time></trkpt><trkpt lat="46.21090315327974" lon="13.1004038232104"><ele>163.33333333333331</ele><time>2026-03-30T20:59:26.001Z</time></trkpt><trkpt lat="46.21101265013553" lon="13.100152825367479"><ele>164.0</ele><time>2026-03-30T20:59:27.001Z</time></trkpt><trkpt lat="46.2111198735023" lon="13.099906232747045"><ele>164.66666666666666</ele><time>2026-03-30T20:59:28.001Z</time></trkpt><trkpt lat="46.21122469286003" lon="13.09966166674772"><ele>165.33333333333334</ele><time>2026-03-30T20:59:29.001Z</time></trkpt><trkpt lat="46.21132988223273" lon="13.099434276532152"><ele>166.0</ele><time>2026-03-30T20:59:30.001Z</time></trkpt><trkpt lat="46.21142508501446" lon="13.09922569909102"><ele>164.5</ele><time>2026-03-30T20:59:31.001Z</time></trkpt><trkpt lat="46.21151372171125" lon="13.099027783601239"><ele>163.0</ele><time>2026-03-30T20:59:32.001Z</time></trkpt><trkpt lat="46.211588420962684" lon="13.098853500561683"><ele>161.5</ele><time>2026-03-30T20:59:33.001Z</time></trkpt><trkpt lat="46.21166055637143" lon="13.098689279961366"><ele>160.0</ele><time>2026-03-30T20:59:34.001Z</time></trkpt><trkpt lat="46.21173132352526" lon="13.098532840024648"><ele>160.0</ele><time>2026-03-30T20:59:35.001Z</time></trkpt><trkpt lat="46.21179829259957" lon="13.098385092208542"><ele>160.0</ele><time>2026-03-30T20:59:36.001Z</time></trkpt><trkpt lat="46.21186419044644" lon="13.09824546956677"><ele>160.0</ele><time>2026-03-30T20:59:37.001Z</time></trkpt><trkpt lat="46.211922371879176" lon="13.098103985758101"><ele>160.0</ele><time>2026-03-30T20:59:38.001Z</time></trkpt><trkpt lat="46.21198673048067" lon="13.097970394661788"><ele>160.0</ele><time>2026-03-30T20:59:39.001Z</time></trkpt><trkpt lat="46.21204862128743" lon="13.097824721843052"><ele>160.0</ele><time>2026-03-30T20:59:40.001Z</time></trkpt><trkpt lat="46.21212547131483" lon="13.097659263761743"><ele>160.0</ele><time>2026-03-30T20:59:41.001Z</time></trkpt><trkpt lat="46.21220077544822" lon="13.097477534053782"><ele>160.0</ele><time>2026-03-30T20:59:42.001Z</time></trkpt><trkpt lat="46.212274003245376" lon="13.097308054851217"><ele>161.0</ele><time>2026-03-30T20:59:43.001Z</time></trkpt><trkpt lat="46.21234757793681" lon="13.09715885506343"><ele>162.0</ele><time>2026-03-30T20:59:44.001Z</time></trkpt><trkpt lat="46.21241276073037" lon="13.097004200667106"><ele>163.0</ele><time>2026-03-30T20:59:45.001Z</time></trkpt><trkpt lat="46.212483538823335" lon="13.096838659008526"><ele>164.0</ele><time>2026-03-30T20:59:46.001Z</time></trkpt><trkpt lat="46.21256847617595" lon="13.096647158928258"><ele>163.33333333333331</ele><time>2026-03-30T20:59:47.001Z</time></trkpt><trkpt lat="46.21266774618571" lon="13.096434111593895"><ele>162.66666666666666</ele><time>2026-03-30T20:59:48.001Z</time></trkpt><trkpt lat="46.21275862140207" lon="13.096224077122626"><ele>162.0</ele><time>2026-03-30T20:59:49.001Z</time></trkpt><trkpt lat="46.21284359372383" lon="13.0960368634688"><ele>162.0</ele><time>2026-03-30T20:59:50.001Z</time></trkpt><trkpt lat="46.21293558250068" lon="13.095833074629173"><ele>162.0</ele><time>2026-03-30T20:59:51.001Z</time></trkpt><trkpt lat="46.213036581823545" lon="13.095602546270062"><ele>162.0</ele><time>2026-03-30T20:59:52.001Z</time></trkpt><trkpt lat="46.213148891531496" lon="13.095349941051564"><ele>164.0</ele><time>2026-03-30T20:59:53.001Z</time></trkpt><trkpt lat="46.21327709006384" lon="13.09506825098343"><ele>166.0</ele><time>2026-03-30T20:59:54.001Z</time></trkpt><trkpt lat="46.21341707754484" lon="13.094758863005083"><ele>166.5</ele><time>2026-03-30T20:59:55.002Z</time></trkpt><trkpt lat="46.21357087421668" lon="13.094417622258852"><ele>167.0</ele><time>2026-03-30T20:59:56.002Z</time></trkpt><trkpt lat="46.21371713429679" lon="13.09408910560495"><ele>167.0</ele><time>2026-03-30T20:59:57.002Z</time></trkpt><trkpt lat="46.213842453803124" lon="13.093807156953037"><ele>167.0</ele><time>2026-03-30T20:59:58.002Z</time></trkpt><trkpt lat="46.213952348528224" lon="13.09355515318632"><ele>167.0</ele><time>2026-03-30T20:59:59.002Z</time></trkpt><trkpt lat="46.21404556600125" lon="13.09334314559437"><ele>167.33333333333331</ele><time>2026-03-30T21:00:00.002Z</time></trkpt><trkpt lat="46.214131556155" lon="13.09314804153408"><ele>167.66666666666666</ele><time>2026-03-30T21:00:01.002Z</time></trkpt><trkpt lat="46.214217282341636" lon="13.092956028550564"><ele>168.0</ele><time>2026-03-30T21:00:02.002Z</time></trkpt><trkpt lat="46.21431065002251" lon="13.092747305849036"><ele>168.0</ele><time>2026-03-30T21:00:03.002Z</time></trkpt><trkpt lat="46.21441169049554" lon="13.092525032161753"><ele>168.0</ele><time>2026-03-30T21:00:04.002Z</time></trkpt><trkpt lat="46.2144971002315" lon="13.092333206018726"><ele>168.0</ele><time>2026-03-30T21:00:05.002Z</time></trkpt><trkpt lat="46.214567810666935" lon="13.092173217904143"><ele>167.25</ele><time>2026-03-30T21:00:06.002Z</time></trkpt><trkpt lat="46.2146356738659" lon="13.092018831552693"><ele>166.5</ele><time>2026-03-30T21:00:07.002Z</time></trkpt><trkpt lat="46.214702111064675" lon="13.09187048792974"><ele>165.75</ele><time>2026-03-30T21:00:08.002Z</time></trkpt><trkpt lat="46.21476347617357" lon="13.091726383982675"><ele>165.0</ele><time>2026-03-30T21:00:09.002Z</time></trkpt><trkpt lat="46.214822278555026" lon="13.091586500760558"><ele>164.75</ele><time>2026-03-30T21:00:10.002Z</time></trkpt><trkpt lat="46.21489057800893" lon="13.091444240173004"><ele>164.5</ele><time>2026-03-30T21:00:11.002Z</time></trkpt><trkpt lat="46.21496919847599" lon="13.091283787796733"><ele>164.25</ele><time>2026-03-30T21:00:12Z</time></trkpt><trkpt lat="46.215048494661254" lon="13.091103560875867"><ele>164.0</ele><time>2026-03-30T21:00:13Z</time></trkpt><trkpt lat="46.2151381272175" lon="13.090908643374611"><ele>163.33333333333331</ele><time>2026-03-30T21:00:14Z</time></trkpt><trkpt lat="46.21523410871315" lon="13.090696517213116"><ele>162.66666666666666</ele><time>2026-03-30T21:00:15Z</time></trkpt><trkpt lat="46.21533062593076" lon="13.090482262185963"><ele>162.0</ele><time>2026-03-30T21:00:16Z</time></trkpt><trkpt lat="46.21541419724733" lon="13.090295365773807"><ele>162.0</ele><time>2026-03-30T21:00:17Z</time></trkpt><trkpt lat="46.21548284798825" lon="13.090135383143362"><ele>162.0</ele><time>2026-03-30T21:00:18Z</time></trkpt><trkpt lat="46.21554628500803" lon="13.08998747724447"><ele>162.0</ele><time>2026-03-30T21:00:19Z</time></trkpt><trkpt lat="46.21560158815869" lon="13.08986135108171"><ele>162.0</ele><time>2026-03-30T21:00:20Z</time></trkpt><trkpt lat="46.2156503088691" lon="13.089751252727218"><ele>162.0</ele><time>2026-03-30T21:00:21Z</time></trkpt><trkpt lat="46.21569810084088" lon="13.089639580576794"><ele>162.0</ele><time>2026-03-30T21:00:22Z</time></trkpt><trkpt lat="46.21575120791531" lon="13.089523930201477"><ele>162.0</ele><time>2026-03-30T21:00:23Z</time></trkpt><trkpt lat="46.21579818292915" lon="13.089417814741651"><ele>162.0</ele><time>2026-03-30T21:00:24Z</time></trkpt><trkpt lat="46.21583611930955" lon="13.089330417989139"><ele>162.0</ele><time>2026-03-30T21:00:25Z</time></trkpt><trkpt lat="46.215890026793026" lon="13.089217933342795"><ele>162.0</ele><time>2026-03-30T21:00:27Z</time></trkpt><trkpt lat="46.215941288051816" lon="13.089115528070892"><ele>162.0</ele><time>2026-03-30T21:00:29Z</time></trkpt><trkpt lat="46.21597866555907" lon="13.08902573619913"><ele>162.5</ele><time>2026-03-30T21:00:30Z</time></trkpt><trkpt lat="46.21602916603249" lon="13.088901457572524"><ele>163.0</ele><time>2026-03-30T21:00:31Z</time></trkpt><trkpt lat="46.21608908563429" lon="13.088761886562558"><ele>163.5</ele><time>2026-03-30T21:00:32Z</time></trkpt><trkpt lat="46.21615504721404" lon="13.088614422681422"><ele>164.0</ele><time>2026-03-30T21:00:33Z</time></trkpt><trkpt lat="46.216228159538524" lon="13.088442504277168"><ele>164.0</ele><time>2026-03-30T21:00:34Z</time></trkpt><trkpt lat="46.21630468338717" lon="13.088266851171683"><ele>164.0</ele><time>2026-03-30T21:00:35Z</time></trkpt><trkpt lat="46.21637505422386" lon="13.088110082207931"><ele>164.0</ele><time>2026-03-30T21:00:36Z</time></trkpt><trkpt lat="46.21643946629809" lon="13.087967684366726"><ele>164.0</ele><time>2026-03-30T21:00:37Z</time></trkpt><trkpt lat="46.2164969239529" lon="13.087837631847806"><ele>163.79999999999998</ele><time>2026-03-30T21:00:38Z</time></trkpt><trkpt lat="46.21654903284762" lon="13.08771555257048"><ele>163.6</ele><time>2026-03-30T21:00:39Z</time></trkpt><trkpt lat="46.21660099735674" lon="13.087597748072625"><ele>163.4</ele><time>2026-03-30T21:00:40Z</time></trkpt><trkpt lat="46.21665493519262" lon="13.087482138460304"><ele>163.2</ele><time>2026-03-30T21:00:41Z</time></trkpt><trkpt lat="46.216712245454325" lon="13.087371350580282"><ele>163.0</ele><time>2026-03-30T21:00:42Z</time></trkpt><trkpt lat="46.216780417417695" lon="13.087272123821425"><ele>163.33333333333334</ele><time>2026-03-30T21:00:43Z</time></trkpt><trkpt lat="46.21685216270829" lon="13.087198027174848"><ele>163.66666666666669</ele><time>2026-03-30T21:00:44Z</time></trkpt><trkpt lat="46.21692565995004" lon="13.087152269180416"><ele>164.0</ele><time>2026-03-30T21:00:45Z</time></trkpt><trkpt lat="46.216997726285044" lon="13.087119832282099"><ele>164.33333333333334</ele><time>2026-03-30T21:00:46Z</time></trkpt><trkpt lat="46.217068582127894" lon="13.087086909759297"><ele>164.66666666666666</ele><time>2026-03-30T21:00:47Z</time></trkpt><trkpt lat="46.217135017759176" lon="13.087034759069253"><ele>165.0</ele><time>2026-03-30T21:00:48Z</time></trkpt><trkpt lat="46.21717732730841" lon="13.086961649709396"><ele>165.0</ele><time>2026-03-30T21:00:49.001Z</time></trkpt><trkpt lat="46.21720084229257" lon="13.086869358458538"><ele>165.0</ele><time>2026-03-30T21:00:50.001Z</time></trkpt><trkpt lat="46.217201554561115" lon="13.086760405408294"><ele>165.0</ele><time>2026-03-30T21:00:51.001Z</time></trkpt><trkpt lat="46.217184616738244" lon="13.08663682466568"><ele>165.0</ele><time>2026-03-30T21:00:52.001Z</time></trkpt><trkpt lat="46.21717269602883" lon="13.086496233810372"><ele>165.0</ele><time>2026-03-30T21:00:53.001Z</time></trkpt><trkpt lat="46.21718394199283" lon="13.086349799872359"><ele>165.0</ele><time>2026-03-30T21:00:54.001Z</time></trkpt><trkpt lat="46.21722338099405" lon="13.086202828075846"><ele>165.0</ele><time>2026-03-30T21:00:55.001Z</time></trkpt><trkpt lat="46.21728406818314" lon="13.08604675978551"><ele>165.0</ele><time>2026-03-30T21:00:56.001Z</time></trkpt><trkpt lat="46.21735922552182" lon="13.085882707408729"><ele>165.0</ele><time>2026-03-30T21:00:57.001Z</time></trkpt><trkpt lat="46.21744509786617" lon="13.085702432286597"><ele>165.0</ele><time>2026-03-30T21:00:58.001Z</time></trkpt><trkpt lat="46.21753747961443" lon="13.085504343259656"><ele>165.0</ele><time>2026-03-30T21:00:59.001Z</time></trkpt><trkpt lat="46.21763604709861" lon="13.0852833605214"><ele>165.0</ele><time>2026-03-30T21:01:00.001Z</time></trkpt><trkpt lat="46.217744077568696" lon="13.085039349244143"><ele>165.0</ele><time>2026-03-30T21:01:01.001Z</time></trkpt><trkpt lat="46.2178576176482" lon="13.084785950196533"><ele>164.66666666666666</ele><time>2026-03-30T21:01:02.001Z</time></trkpt><trkpt lat="46.217973569869585" lon="13.084524499490303"><ele>164.33333333333331</ele><time>2026-03-30T21:01:03.001Z</time></trkpt><trkpt lat="46.21808964159782" lon="13.084261512510537"><ele>164.0</ele><time>2026-03-30T21:01:04.001Z</time></trkpt><trkpt lat="46.218201289504435" lon="13.084009431629903"><ele>164.0</ele><time>2026-03-30T21:01:05.001Z</time></trkpt><trkpt lat="46.218299869140516" lon="13.08378696063042"><ele>164.0</ele><time>2026-03-30T21:01:06.001Z</time></trkpt><trkpt lat="46.218393900198734" lon="13.083582304370374"><ele>164.0</ele><time>2026-03-30T21:01:07.001Z</time></trkpt><trkpt lat="46.218497195864614" lon="13.083350841564066"><ele>164.33333333333331</ele><time>2026-03-30T21:01:08.001Z</time></trkpt><trkpt lat="46.21860528670547" lon="13.083105146903929"><ele>164.66666666666666</ele><time>2026-03-30T21:01:09.001Z</time></trkpt><trkpt lat="46.218717896388334" lon="13.082851059709006"><ele>165.0</ele><time>2026-03-30T21:01:10.001Z</time></trkpt><trkpt lat="46.218834070594234" lon="13.082593588796653"><ele>164.5</ele><time>2026-03-30T21:01:11.001Z</time></trkpt><trkpt lat="46.21895549420512" lon="13.082315787858258"><ele>164.0</ele><time>2026-03-30T21:01:12.001Z</time></trkpt><trkpt lat="46.21909587511873" lon="13.081995898857437"><ele>163.5</ele><time>2026-03-30T21:01:13.001Z</time></trkpt><trkpt lat="46.21925248583827" lon="13.08164762022576"><ele>163.0</ele><time>2026-03-30T21:01:14.001Z</time></trkpt><trkpt lat="46.21939506960123" lon="13.081328416785356"><ele>163.66666666666669</ele><time>2026-03-30T21:01:15.001Z</time></trkpt><trkpt lat="46.21951556168079" lon="13.081051743818067"><ele>164.33333333333334</ele><time>2026-03-30T21:01:16.001Z</time></trkpt><trkpt lat="46.21962869413281" lon="13.08080069030406"><ele>165.0</ele><time>2026-03-30T21:01:17.001Z</time></trkpt><trkpt lat="46.21973627983277" lon="13.080566150350482"><ele>165.0</ele><time>2026-03-30T21:01:18.001Z</time></trkpt><trkpt lat="46.21983525633836" lon="13.08034060783453"><ele>165.0</ele><time>2026-03-30T21:01:19.001Z</time></trkpt><trkpt lat="46.21992615331341" lon="13.080132414922973"><ele>165.0</ele><time>2026-03-30T21:01:20.001Z</time></trkpt><trkpt lat="46.220019125042455" lon="13.079926675967904"><ele>165.0</ele><time>2026-03-30T21:01:21.001Z</time></trkpt><trkpt lat="46.220119979776015" lon="13.079702797341032"><ele>165.0</ele><time>2026-03-30T21:01:22.001Z</time></trkpt><trkpt lat="46.22022204963325" lon="13.079470945441315"><ele>165.0</ele><time>2026-03-30T21:01:23.001Z</time></trkpt><trkpt lat="46.22031371993435" lon="13.079262845067351"><ele>164.33333333333334</ele><time>2026-03-30T21:01:24.001Z</time></trkpt><trkpt lat="46.22040123141418" lon="13.079068294400397"><ele>163.66666666666669</ele><time>2026-03-30T21:01:25.001Z</time></trkpt><trkpt lat="46.22049399777927" lon="13.078859760343107"><ele>163.0</ele><time>2026-03-30T21:01:26.001Z</time></trkpt><trkpt lat="46.22059336875169" lon="13.078635821575963"><ele>162.66666666666669</ele><time>2026-03-30T21:01:27.001Z</time></trkpt><trkpt lat="46.22069343342383" lon="13.078405484405426"><ele>162.33333333333334</ele><time>2026-03-30T21:01:28.001Z</time></trkpt><trkpt lat="46.22080112388405" lon="13.078164128168519"><ele>162.0</ele><time>2026-03-30T21:01:29.001Z</time></trkpt><trkpt lat="46.22091047414452" lon="13.077916105196199"><ele>162.0</ele><time>2026-03-30T21:01:30.001Z</time></trkpt><trkpt lat="46.22102881488884" lon="13.077654036900872"><ele>162.0</ele><time>2026-03-30T21:01:31.001Z</time></trkpt><trkpt lat="46.22114857843082" lon="13.077384380474664"><ele>162.0</ele><time>2026-03-30T21:01:32.001Z</time></trkpt><trkpt lat="46.22125439613938" lon="13.077141014373385"><ele>162.66666666666666</ele><time>2026-03-30T21:01:33.001Z</time></trkpt><trkpt lat="46.22135944177641" lon="13.076907791595238"><ele>163.33333333333331</ele><time>2026-03-30T21:01:34.001Z</time></trkpt><trkpt lat="46.22146979332584" lon="13.076659065522108"><ele>164.0</ele><time>2026-03-30T21:01:35.001Z</time></trkpt><trkpt lat="46.221585661175894" lon="13.076397888699042"><ele>164.0</ele><time>2026-03-30T21:01:36.001Z</time></trkpt><trkpt lat="46.221707727932305" lon="13.076123705484246"><ele>164.0</ele><time>2026-03-30T21:01:37.001Z</time></trkpt><trkpt lat="46.221821514924294" lon="13.075873034321761"><ele>164.0</ele><time>2026-03-30T21:01:38.001Z</time></trkpt><trkpt lat="46.221930209650104" lon="13.07562995566377"><ele>164.0</ele><time>2026-03-30T21:01:39.001Z</time></trkpt><trkpt lat="46.222041582282564" lon="13.075378245945647"><ele>164.0</ele><time>2026-03-30T21:01:40.001Z</time></trkpt><trkpt lat="46.222154908144255" lon="13.075124261516661"><ele>164.0</ele><time>2026-03-30T21:01:41.001Z</time></trkpt><trkpt lat="46.22227606801914" lon="13.074853229204047"><ele>165.0</ele><time>2026-03-30T21:01:42.001Z</time></trkpt><trkpt lat="46.222400278815854" lon="13.074577572880571"><ele>166.0</ele><time>2026-03-30T21:01:43.001Z</time></trkpt><trkpt lat="46.22252015632277" lon="13.074307020644138"><ele>165.66666666666669</ele><time>2026-03-30T21:01:44.001Z</time></trkpt><trkpt lat="46.22263044740604" lon="13.074065225350068"><ele>165.33333333333334</ele><time>2026-03-30T21:01:45.001Z</time></trkpt><trkpt lat="46.2227326551837" lon="13.073835703633634"><ele>165.0</ele><time>2026-03-30T21:01:46.001Z</time></trkpt><trkpt lat="46.22282765217125" lon="13.073620969646184"><ele>165.0</ele><time>2026-03-30T21:01:47.001Z</time></trkpt><trkpt lat="46.222917258216384" lon="13.073422087366195"><ele>165.0</ele><time>2026-03-30T21:01:48.001Z</time></trkpt><trkpt lat="46.22299940030073" lon="13.073236303729532"><ele>165.0</ele><time>2026-03-30T21:01:49.001Z</time></trkpt><trkpt lat="46.223077467079754" lon="13.073059477264334"><ele>165.0</ele><time>2026-03-30T21:01:50.001Z</time></trkpt><trkpt lat="46.22315316980425" lon="13.072874487692287"><ele>165.0</ele><time>2026-03-30T21:01:51.001Z</time></trkpt><trkpt lat="46.22322552377276" lon="13.0726756746213"><ele>165.0</ele><time>2026-03-30T21:01:52.001Z</time></trkpt><trkpt lat="46.2233065602034" lon="13.0724633855659"><ele>164.66666666666666</ele><time>2026-03-30T21:01:53.001Z</time></trkpt><trkpt lat="46.22335106138194" lon="13.072216291669779"><ele>164.33333333333331</ele><time>2026-03-30T21:01:54.001Z</time></trkpt><trkpt lat="46.2233994937075" lon="13.071966601672393"><ele>164.0</ele><time>2026-03-30T21:01:55.001Z</time></trkpt><trkpt lat="46.223443594289485" lon="13.071732839752483"><ele>163.75</ele><time>2026-03-30T21:01:56.001Z</time></trkpt><trkpt lat="46.22348383939258" lon="13.07151528098223"><ele>163.5</ele><time>2026-03-30T21:01:57.001Z</time></trkpt><trkpt lat="46.22351913006587" lon="13.071312339610598"><ele>163.25</ele><time>2026-03-30T21:01:58.001Z</time></trkpt><trkpt lat="46.22355132647584" lon="13.07111822320982"><ele>163.0</ele><time>2026-03-30T21:01:59.001Z</time></trkpt><trkpt lat="46.22358613158387" lon="13.070936741480164"><ele>163.25</ele><time>2026-03-30T21:02:00.001Z</time></trkpt><trkpt lat="46.22361640557609" lon="13.070756904958662"><ele>163.5</ele><time>2026-03-30T21:02:01.001Z</time></trkpt><trkpt lat="46.22362915762668" lon="13.07057720957424"><ele>163.75</ele><time>2026-03-30T21:02:02.001Z</time></trkpt><trkpt lat="46.22363607901691" lon="13.070412894008673"><ele>164.0</ele><time>2026-03-30T21:02:03.001Z</time></trkpt><trkpt lat="46.22363921654413" lon="13.07026083399427"><ele>164.0</ele><time>2026-03-30T21:02:04.001Z</time></trkpt><trkpt lat="46.22363842383967" lon="13.070126636946412"><ele>164.0</ele><time>2026-03-30T21:02:05.001Z</time></trkpt><trkpt lat="46.22365031417909" lon="13.070025668623044"><ele>164.0</ele><time>2026-03-30T21:02:06.001Z</time></trkpt><trkpt lat="46.22368934482272" lon="13.069914441743448"><ele>164.0</ele><time>2026-03-30T21:02:07.001Z</time></trkpt><trkpt lat="46.22373798864365" lon="13.069824115364122"><ele>164.0</ele><time>2026-03-30T21:02:08.001Z</time></trkpt><trkpt lat="46.22377361963803" lon="13.069715320071433"><ele>164.0</ele><time>2026-03-30T21:02:10.001Z</time></trkpt><trkpt lat="46.22370736491722" lon="13.069491534017827"><ele>164.0</ele><time>2026-03-30T21:02:11.001Z</time></trkpt><trkpt lat="46.223650064792864" lon="13.069408192902863"><ele>164.0</ele><time>2026-03-30T21:02:12.001Z</time></trkpt><trkpt lat="46.22355963800655" lon="13.069330193470096"><ele>164.0</ele><time>2026-03-30T21:02:13.001Z</time></trkpt><trkpt lat="46.22344878459944" lon="13.06923710549743"><ele>164.0</ele><time>2026-03-30T21:02:14.001Z</time></trkpt><trkpt lat="46.22334386562962" lon="13.069119924551886"><ele>164.0</ele><time>2026-03-30T21:02:15.001Z</time></trkpt><trkpt lat="46.223237603433915" lon="13.069049782919507"><ele>163.33333333333331</ele><time>2026-03-30T21:02:16.001Z</time></trkpt><trkpt lat="46.2230966869021" lon="13.068973471791299"><ele>162.66666666666666</ele><time>2026-03-30T21:02:17.001Z</time></trkpt><trkpt lat="46.22292985181829" lon="13.068914638422441"><ele>162.0</ele><time>2026-03-30T21:02:18Z</time></trkpt><trkpt lat="46.22279257806284" lon="13.06885675462847"><ele>162.0</ele><time>2026-03-30T21:02:19Z</time></trkpt><trkpt lat="46.222650636969156" lon="13.068795952080235"><ele>162.0</ele><time>2026-03-30T21:02:20Z</time></trkpt><trkpt lat="46.222494193931134" lon="13.068723242173375"><ele>162.0</ele><time>2026-03-30T21:02:21Z</time></trkpt><trkpt lat="46.22232599552582" lon="13.068623350130064"><ele>163.0</ele><time>2026-03-30T21:02:22Z</time></trkpt><trkpt lat="46.222169369516365" lon="13.068550166507034"><ele>164.0</ele><time>2026-03-30T21:02:23Z</time></trkpt><trkpt lat="46.22202799217129" lon="13.068489240929333"><ele>165.0</ele><time>2026-03-30T21:02:24Z</time></trkpt><trkpt lat="46.221900377899765" lon="13.068426855895797"><ele>166.0</ele><time>2026-03-30T21:02:25Z</time></trkpt><trkpt lat="46.2217789337789" lon="13.068367791678263"><ele>166.0</ele><time>2026-03-30T21:02:26Z</time></trkpt><trkpt lat="46.22166542322529" lon="13.068312874837881"><ele>166.0</ele><time>2026-03-30T21:02:27Z</time></trkpt><trkpt lat="46.22155034814321" lon="13.068254120057677"><ele>166.0</ele><time>2026-03-30T21:02:28Z</time></trkpt><trkpt lat="46.221424555819816" lon="13.06819409584915"><ele>166.0</ele><time>2026-03-30T21:02:29Z</time></trkpt><trkpt lat="46.22129518647808" lon="13.068125118105396"><ele>165.25</ele><time>2026-03-30T21:02:30Z</time></trkpt><trkpt lat="46.2211604641807" lon="13.06805813155611"><ele>164.5</ele><time>2026-03-30T21:02:31Z</time></trkpt><trkpt lat="46.22102987904355" lon="13.067988360165366"><ele>163.75</ele><time>2026-03-30T21:02:32Z</time></trkpt><trkpt lat="46.22090254999585" lon="13.067916443801833"><ele>163.0</ele><time>2026-03-30T21:02:33Z</time></trkpt><trkpt lat="46.22078133118425" lon="13.067855922935687"><ele>163.0</ele><time>2026-03-30T21:02:34Z</time></trkpt><trkpt lat="46.220654689807226" lon="13.06780194717386"><ele>163.0</ele><time>2026-03-30T21:02:35Z</time></trkpt><trkpt lat="46.220523013112114" lon="13.067739544949518"><ele>163.0</ele><time>2026-03-30T21:02:36Z</time></trkpt><trkpt lat="46.22039125865822" lon="13.067669356860034"><ele>163.0</ele><time>2026-03-30T21:02:37Z</time></trkpt><trkpt lat="46.22027550153687" lon="13.067607498391583"><ele>163.25</ele><time>2026-03-30T21:02:38Z</time></trkpt><trkpt lat="46.2201633757489" lon="13.067551840014188"><ele>163.5</ele><time>2026-03-30T21:02:39Z</time></trkpt><trkpt lat="46.22005714102324" lon="13.067493942093057"><ele>163.75</ele><time>2026-03-30T21:02:40Z</time></trkpt><trkpt lat="46.219956805015755" lon="13.06744815254048"><ele>164.0</ele><time>2026-03-30T21:02:41Z</time></trkpt><trkpt lat="46.21983828661335" lon="13.067387130647935"><ele>163.75</ele><time>2026-03-30T21:02:42Z</time></trkpt><trkpt lat="46.219717094412474" lon="13.067322241722488"><ele>163.5</ele><time>2026-03-30T21:02:43Z</time></trkpt><trkpt lat="46.219589235927465" lon="13.067257489832613"><ele>163.25</ele><time>2026-03-30T21:02:44Z</time></trkpt><trkpt lat="46.219461163631934" lon="13.067190624214467"><ele>163.0</ele><time>2026-03-30T21:02:45Z</time></trkpt><trkpt lat="46.21932672892848" lon="13.067121797242807"><ele>163.0</ele><time>2026-03-30T21:02:46Z</time></trkpt><trkpt lat="46.21919780947712" lon="13.067063221234905"><ele>163.0</ele><time>2026-03-30T21:02:47Z</time></trkpt><trkpt lat="46.219078680311824" lon="13.067012016013146"><ele>163.0</ele><time>2026-03-30T21:02:48Z</time></trkpt><trkpt lat="46.21896895509643" lon="13.066961215629915"><ele>163.0</ele><time>2026-03-30T21:02:49Z</time></trkpt><trkpt lat="46.21886044807341" lon="13.066911020462763"><ele>162.5</ele><time>2026-03-30T21:02:50Z</time></trkpt><trkpt lat="46.2187449566237" lon="13.066846693616535"><ele>162.0</ele><time>2026-03-30T21:02:51Z</time></trkpt><trkpt lat="46.2186053305223" lon="13.066777312311334"><ele>161.5</ele><time>2026-03-30T21:02:52Z</time></trkpt><trkpt lat="46.21844076695494" lon="13.06670161599151"><ele>161.0</ele><time>2026-03-30T21:02:53Z</time></trkpt><trkpt lat="46.21826378172692" lon="13.066613975376521"><ele>162.0</ele><time>2026-03-30T21:02:54Z</time></trkpt><trkpt lat="46.218071889384994" lon="13.066517756654347"><ele>163.0</ele><time>2026-03-30T21:02:55Z</time></trkpt><trkpt lat="46.21787027610284" lon="13.066422267201622"><ele>164.0</ele><time>2026-03-30T21:02:56Z</time></trkpt><trkpt lat="46.21766823032276" lon="13.066318369824412"><ele>164.0</ele><time>2026-03-30T21:02:57Z</time></trkpt><trkpt lat="46.21747371655328" lon="13.066223259020399"><ele>164.0</ele><time>2026-03-30T21:02:58Z</time></trkpt><trkpt lat="46.21728240270223" lon="13.0661184722908"><ele>164.0</ele><time>2026-03-30T21:02:59Z</time></trkpt><trkpt lat="46.21709596489115" lon="13.066020474842313"><ele>163.0</ele><time>2026-03-30T21:03:00Z</time></trkpt><trkpt lat="46.216906334608616" lon="13.06591717111188"><ele>162.0</ele><time>2026-03-30T21:03:01Z</time></trkpt><trkpt lat="46.216713337421346" lon="13.065811866744522"><ele>161.0</ele><time>2026-03-30T21:03:02Z</time></trkpt><trkpt lat="46.216526835683695" lon="13.065708067343735"><ele>160.66666666666666</ele><time>2026-03-30T21:03:03Z</time></trkpt><trkpt lat="46.21635416715527" lon="13.06561156613486"><ele>160.33333333333334</ele><time>2026-03-30T21:03:04Z</time></trkpt><trkpt lat="46.21619377624313" lon="13.065523907581136"><ele>160.0</ele><time>2026-03-30T21:03:05Z</time></trkpt><trkpt lat="46.2160460185426" lon="13.065442513936777"><ele>160.0</ele><time>2026-03-30T21:03:06Z</time></trkpt><trkpt lat="46.2158974424355" lon="13.065358283677295"><ele>160.0</ele><time>2026-03-30T21:03:07Z</time></trkpt><trkpt lat="46.215737560441234" lon="13.065269809647676"><ele>160.0</ele><time>2026-03-30T21:03:08Z</time></trkpt><trkpt lat="46.21556790494095" lon="13.065173326118764"><ele>160.0</ele><time>2026-03-30T21:03:09Z</time></trkpt><trkpt lat="46.21538140873441" lon="13.065066500515789"><ele>160.0</ele><time>2026-03-30T21:03:10Z</time></trkpt><trkpt lat="46.21516414467149" lon="13.064947137289753"><ele>160.0</ele><time>2026-03-30T21:03:11Z</time></trkpt><trkpt lat="46.214949656895854" lon="13.064826829568334"><ele>160.0</ele><time>2026-03-30T21:03:12.001Z</time></trkpt><trkpt lat="46.21474982168884" lon="13.064715376904523"><ele>160.0</ele><time>2026-03-30T21:03:13.001Z</time></trkpt><trkpt lat="46.21456593831233" lon="13.064611621846728"><ele>160.0</ele><time>2026-03-30T21:03:14.001Z</time></trkpt><trkpt lat="46.21439651072444" lon="13.064516882853246"><ele>160.0</ele><time>2026-03-30T21:03:15.001Z</time></trkpt><trkpt lat="46.21422958467009" lon="13.064425300982467"><ele>160.0</ele><time>2026-03-30T21:03:16.001Z</time></trkpt><trkpt lat="46.21405429388002" lon="13.064322975219198"><ele>160.0</ele><time>2026-03-30T21:03:17.001Z</time></trkpt><trkpt lat="46.21388126893152" lon="13.064226017727698"><ele>160.0</ele><time>2026-03-30T21:03:18.001Z</time></trkpt><trkpt lat="46.213711337557704" lon="13.06413325457024"><ele>160.0</ele><time>2026-03-30T21:03:19.001Z</time></trkpt><trkpt lat="46.21353244820115" lon="13.064039501726612"><ele>160.0</ele><time>2026-03-30T21:03:20.001Z</time></trkpt><trkpt lat="46.21334374405764" lon="13.063949172162303"><ele>160.0</ele><time>2026-03-30T21:03:21.001Z</time></trkpt><trkpt lat="46.21314814220759" lon="13.063864801773963"><ele>160.0</ele><time>2026-03-30T21:03:22.001Z</time></trkpt><trkpt lat="46.21295674572141" lon="13.063794240561483"><ele>160.0</ele><time>2026-03-30T21:03:23.001Z</time></trkpt><trkpt lat="46.212769352545706" lon="13.063731338996188"><ele>160.0</ele><time>2026-03-30T21:03:24.001Z</time></trkpt><trkpt lat="46.212591863015575" lon="13.063680482009"><ele>160.0</ele><time>2026-03-30T21:03:25.001Z</time></trkpt><trkpt lat="46.21240045455055" lon="13.06362439329162"><ele>160.0</ele><time>2026-03-30T21:03:26.001Z</time></trkpt><trkpt lat="46.21219690465334" lon="13.06357375555678"><ele>159.33333333333334</ele><time>2026-03-30T21:03:27.001Z</time></trkpt><trkpt lat="46.21199371376641" lon="13.063535128006562"><ele>158.66666666666666</ele><time>2026-03-30T21:03:28.001Z</time></trkpt><trkpt lat="46.211808749882685" lon="13.06350855210941"><ele>158.0</ele><time>2026-03-30T21:03:29.001Z</time></trkpt><trkpt lat="46.211639101902655" lon="13.063488319649077"><ele>158.66666666666666</ele><time>2026-03-30T21:03:30.001Z</time></trkpt><trkpt lat="46.21147612513799" lon="13.06347219967761"><ele>159.33333333333334</ele><time>2026-03-30T21:03:31.001Z</time></trkpt><trkpt lat="46.211300954642454" lon="13.063459182909366"><ele>160.0</ele><time>2026-03-30T21:03:32.001Z</time></trkpt><trkpt lat="46.21110618968595" lon="13.06344678127293"><ele>160.0</ele><time>2026-03-30T21:03:33.001Z</time></trkpt><trkpt lat="46.21089282533843" lon="13.063431207700512"><ele>160.0</ele><time>2026-03-30T21:03:34.001Z</time></trkpt><trkpt lat="46.21066682160825" lon="13.063418764251946"><ele>160.0</ele><time>2026-03-30T21:03:35.001Z</time></trkpt><trkpt lat="46.21043039408791" lon="13.063415009533003"><ele>160.0</ele><time>2026-03-30T21:03:36.001Z</time></trkpt><trkpt lat="46.21018286562564" lon="13.063421316814201"><ele>160.0</ele><time>2026-03-30T21:03:37.001Z</time></trkpt><trkpt lat="46.20992002353852" lon="13.063433392445402"><ele>159.0</ele><time>2026-03-30T21:03:38.001Z</time></trkpt><trkpt lat="46.20964398925574" lon="13.063446833675592"><ele>158.0</ele><time>2026-03-30T21:03:39.001Z</time></trkpt><trkpt lat="46.209369945919" lon="13.063464400298507"><ele>158.0</ele><time>2026-03-30T21:03:40.001Z</time></trkpt><trkpt lat="46.20908296441107" lon="13.06349160656751"><ele>158.0</ele><time>2026-03-30T21:03:41.001Z</time></trkpt><trkpt lat="46.20878725093718" lon="13.063517128076068"><ele>157.5</ele><time>2026-03-30T21:03:42.001Z</time></trkpt><trkpt lat="46.20848816345117" lon="13.063545136325523"><ele>157.0</ele><time>2026-03-30T21:03:43.001Z</time></trkpt><trkpt lat="46.20817863719955" lon="13.063574220801273"><ele>157.5</ele><time>2026-03-30T21:03:44.001Z</time></trkpt><trkpt lat="46.20787180165484" lon="13.063601667224196"><ele>158.0</ele><time>2026-03-30T21:03:45.001Z</time></trkpt><trkpt lat="46.20759616039279" lon="13.06362930149755"><ele>158.0</ele><time>2026-03-30T21:03:46.001Z</time></trkpt><trkpt lat="46.20734199576248" lon="13.063652082954402"><ele>158.0</ele><time>2026-03-30T21:03:47.001Z</time></trkpt><trkpt lat="46.20710777299475" lon="13.063672401643254"><ele>158.0</ele><time>2026-03-30T21:03:48.001Z</time></trkpt><trkpt lat="46.20688420943864" lon="13.063696410335316"><ele>158.0</ele><time>2026-03-30T21:03:49.001Z</time></trkpt><trkpt lat="46.20665457631239" lon="13.063718526459457"><ele>158.5</ele><time>2026-03-30T21:03:50.001Z</time></trkpt><trkpt lat="46.206421916330434" lon="13.063739920244766"><ele>159.0</ele><time>2026-03-30T21:03:51.001Z</time></trkpt><trkpt lat="46.20619494660588" lon="13.063762403780535"><ele>159.0</ele><time>2026-03-30T21:03:52.001Z</time></trkpt><trkpt lat="46.205958937226676" lon="13.063782356598402"><ele>159.0</ele><time>2026-03-30T21:03:53.001Z</time></trkpt><trkpt lat="46.205711629537944" lon="13.063805110214394"><ele>158.5</ele><time>2026-03-30T21:03:54.001Z</time></trkpt><trkpt lat="46.205462961146004" lon="13.063827549293368"><ele>158.0</ele><time>2026-03-30T21:03:55.001Z</time></trkpt><trkpt lat="46.20522674388765" lon="13.063847689249705"><ele>158.0</ele><time>2026-03-30T21:03:56.001Z</time></trkpt><trkpt lat="46.205001975115216" lon="13.063868159687047"><ele>158.0</ele><time>2026-03-30T21:03:57.001Z</time></trkpt><trkpt lat="46.20479272263437" lon="13.063886059461181"><ele>158.0</ele><time>2026-03-30T21:03:58.001Z</time></trkpt><trkpt lat="46.204600728902435" lon="13.06390067014426"><ele>158.0</ele><time>2026-03-30T21:03:59.001Z</time></trkpt><trkpt lat="46.20441281166665" lon="13.063918910093808"><ele>158.0</ele><time>2026-03-30T21:04:00.001Z</time></trkpt><trkpt lat="46.204203137794394" lon="13.063940832101023"><ele>158.0</ele><time>2026-03-30T21:04:01.001Z</time></trkpt><trkpt lat="46.20397571464054" lon="13.063962717082896"><ele>158.0</ele><time>2026-03-30T21:04:02.001Z</time></trkpt><trkpt lat="46.20373733292664" lon="13.06397838041441"><ele>158.0</ele><time>2026-03-30T21:04:03.001Z</time></trkpt><trkpt lat="46.20349141443762" lon="13.064000498818103"><ele>158.0</ele><time>2026-03-30T21:04:04.001Z</time></trkpt><trkpt lat="46.20323971870025" lon="13.064024255348162"><ele>158.0</ele><time>2026-03-30T21:04:05.001Z</time></trkpt><trkpt lat="46.20298886024262" lon="13.06404689997155"><ele>158.0</ele><time>2026-03-30T21:04:06.001Z</time></trkpt><trkpt lat="46.20274119248259" lon="13.064070980793993"><ele>158.0</ele><time>2026-03-30T21:04:07.001Z</time></trkpt><trkpt lat="46.20251834007356" lon="13.06409429658288"><ele>158.0</ele><time>2026-03-30T21:04:08.001Z</time></trkpt><trkpt lat="46.20231479910685" lon="13.06411093890371"><ele>158.0</ele><time>2026-03-30T21:04:09.001Z</time></trkpt><trkpt lat="46.20212161039287" lon="13.06412683647513"><ele>158.0</ele><time>2026-03-30T21:04:10.001Z</time></trkpt><trkpt lat="46.20193859024632" lon="13.064143910342985"><ele>158.0</ele><time>2026-03-30T21:04:11.001Z</time></trkpt><trkpt lat="46.201744340287696" lon="13.064160990629171"><ele>158.0</ele><time>2026-03-30T21:04:12.001Z</time></trkpt><trkpt lat="46.201537632607085" lon="13.064175890894584"><ele>158.0</ele><time>2026-03-30T21:04:13.001Z</time></trkpt><trkpt lat="46.201324100573025" lon="13.064192574552157"><ele>158.0</ele><time>2026-03-30T21:04:14.001Z</time></trkpt><trkpt lat="46.20110476687956" lon="13.064207086311855"><ele>158.0</ele><time>2026-03-30T21:04:15.001Z</time></trkpt><trkpt lat="46.20088107960584" lon="13.06420900102611"><ele>158.0</ele><time>2026-03-30T21:04:16.001Z</time></trkpt><trkpt lat="46.20067904996245" lon="13.064188395881715"><ele>158.0</ele><time>2026-03-30T21:04:17.001Z</time></trkpt><trkpt lat="46.20049197895632" lon="13.06413589655798"><ele>158.0</ele><time>2026-03-30T21:04:18.001Z</time></trkpt><trkpt lat="46.200299317724706" lon="13.064056655842448"><ele>158.0</ele><time>2026-03-30T21:04:19.001Z</time></trkpt><trkpt lat="46.20011007389898" lon="13.063946448571622"><ele>158.0</ele><time>2026-03-30T21:04:20.001Z</time></trkpt><trkpt lat="46.19992043618352" lon="13.063812522873766"><ele>158.0</ele><time>2026-03-30T21:04:21.001Z</time></trkpt><trkpt lat="46.19973006263886" lon="13.063651012481001"><ele>158.0</ele><time>2026-03-30T21:04:22.001Z</time></trkpt><trkpt lat="46.199533706682445" lon="13.06347855175268"><ele>159.0</ele><time>2026-03-30T21:04:23.001Z</time></trkpt><trkpt lat="46.19933387254779" lon="13.063290046907126"><ele>160.0</ele><time>2026-03-30T21:04:24Z</time></trkpt><trkpt lat="46.19915014265558" lon="13.063121939939748"><ele>159.33333333333334</ele><time>2026-03-30T21:04:25Z</time></trkpt><trkpt lat="46.19898888974605" lon="13.062979607280056"><ele>158.66666666666666</ele><time>2026-03-30T21:04:26Z</time></trkpt><trkpt lat="46.19884086520564" lon="13.062845330822329"><ele>158.0</ele><time>2026-03-30T21:04:27Z</time></trkpt><trkpt lat="46.198703577199296" lon="13.062715385566337"><ele>158.0</ele><time>2026-03-30T21:04:28Z</time></trkpt><trkpt lat="46.19856238377501" lon="13.06257581198768"><ele>158.0</ele><time>2026-03-30T21:04:29Z</time></trkpt><trkpt lat="46.19840825235419" lon="13.062415803984589"><ele>158.0</ele><time>2026-03-30T21:04:30Z</time></trkpt><trkpt lat="46.198250017346" lon="13.062250852590399"><ele>158.66666666666666</ele><time>2026-03-30T21:04:31Z</time></trkpt><trkpt lat="46.198108013326355" lon="13.062105078708672"><ele>159.33333333333334</ele><time>2026-03-30T21:04:32Z</time></trkpt><trkpt lat="46.19798189822841" lon="13.061971822878322"><ele>160.0</ele><time>2026-03-30T21:04:33Z</time></trkpt><trkpt lat="46.197853181419966" lon="13.061829284778712"><ele>160.0</ele><time>2026-03-30T21:04:34Z</time></trkpt><trkpt lat="46.197712679448315" lon="13.061677894919407"><ele>160.0</ele><time>2026-03-30T21:04:35Z</time></trkpt><trkpt lat="46.1975584235689" lon="13.061523501993507"><ele>160.0</ele><time>2026-03-30T21:04:36Z</time></trkpt><trkpt lat="46.19740850799455" lon="13.061367446186322"><ele>160.33333333333334</ele><time>2026-03-30T21:04:37Z</time></trkpt><trkpt lat="46.19727422806765" lon="13.061219631904152"><ele>160.66666666666666</ele><time>2026-03-30T21:04:38Z</time></trkpt><trkpt lat="46.19713501613729" lon="13.061064241723674"><ele>161.0</ele><time>2026-03-30T21:04:39Z</time></trkpt><trkpt lat="46.196976305293376" lon="13.06090119248295"><ele>160.66666666666666</ele><time>2026-03-30T21:04:40Z</time></trkpt><trkpt lat="46.196807267203376" lon="13.060731117943169"><ele>160.33333333333334</ele><time>2026-03-30T21:04:41Z</time></trkpt><trkpt lat="46.19663395379221" lon="13.060570284054334"><ele>160.0</ele><time>2026-03-30T21:04:42Z</time></trkpt><trkpt lat="46.19645502793466" lon="13.060433581592251"><ele>161.66666666666669</ele><time>2026-03-30T21:04:43Z</time></trkpt><trkpt lat="46.19625929746528" lon="13.060308089438852"><ele>163.33333333333334</ele><time>2026-03-30T21:04:44Z</time></trkpt><trkpt lat="46.19605388555564" lon="13.060179856115889"><ele>165.0</ele><time>2026-03-30T21:04:45Z</time></trkpt><trkpt lat="46.195844844917545" lon="13.060052077835923"><ele>170.0</ele><time>2026-03-30T21:04:46Z</time></trkpt><trkpt lat="46.195612715049066" lon="13.059905266724813"><ele>175.0</ele><time>2026-03-30T21:04:47Z</time></trkpt><trkpt lat="46.195355642091926" lon="13.059739669987362"><ele>175.0</ele><time>2026-03-30T21:04:48Z</time></trkpt><trkpt lat="46.195122996289975" lon="13.05958647796086"><ele>175.0</ele><time>2026-03-30T21:04:49Z</time></trkpt><trkpt lat="46.194923208277466" lon="13.059451275245989"><ele>175.33333333333334</ele><time>2026-03-30T21:04:50Z</time></trkpt><trkpt lat="46.19473933205478" lon="13.059333750299796"><ele>175.66666666666666</ele><time>2026-03-30T21:04:51Z</time></trkpt><trkpt lat="46.194567513638745" lon="13.059223174181522"><ele>176.0</ele><time>2026-03-30T21:04:52Z</time></trkpt><trkpt lat="46.19441054893329" lon="13.05912647710719"><ele>176.33333333333331</ele><time>2026-03-30T21:04:53Z</time></trkpt><trkpt lat="46.19426866057351" lon="13.059030195098416"><ele>176.66666666666666</ele><time>2026-03-30T21:04:54Z</time></trkpt><trkpt lat="46.19411329183641" lon="13.058930935946957"><ele>177.0</ele><time>2026-03-30T21:04:55Z</time></trkpt><trkpt lat="46.193935897629764" lon="13.058816710410552"><ele>177.0</ele><time>2026-03-30T21:04:56Z</time></trkpt><trkpt lat="46.19374874673293" lon="13.05869594951009"><ele>177.0</ele><time>2026-03-30T21:04:57Z</time></trkpt><trkpt lat="46.193558141127895" lon="13.058570601856632"><ele>177.0</ele><time>2026-03-30T21:04:58Z</time></trkpt><trkpt lat="46.19338275844038" lon="13.05845806820565"><ele>177.0</ele><time>2026-03-30T21:04:59Z</time></trkpt><trkpt lat="46.19322487438199" lon="13.058356852827"><ele>177.0</ele><time>2026-03-30T21:05:00Z</time></trkpt><trkpt lat="46.193068747580305" lon="13.058257302602543"><ele>177.0</ele><time>2026-03-30T21:05:01Z</time></trkpt><trkpt lat="46.192914633285284" lon="13.058156521112002"><ele>178.0</ele><time>2026-03-30T21:05:02Z</time></trkpt><trkpt lat="46.192772868562265" lon="13.058060514756955"><ele>179.0</ele><time>2026-03-30T21:05:03Z</time></trkpt><trkpt lat="46.19264157772016" lon="13.057975492922232"><ele>180.0</ele><time>2026-03-30T21:05:04Z</time></trkpt><trkpt lat="46.19250836165895" lon="13.057894769183692"><ele>181.0</ele><time>2026-03-30T21:05:05Z</time></trkpt><trkpt lat="46.19236490877514" lon="13.05780221170759"><ele>179.25</ele><time>2026-03-30T21:05:06Z</time></trkpt><trkpt lat="46.19222536253723" lon="13.057708552492326"><ele>177.5</ele><time>2026-03-30T21:05:07Z</time></trkpt><trkpt lat="46.19209926450104" lon="13.057627117433999"><ele>175.75</ele><time>2026-03-30T21:05:08Z</time></trkpt><trkpt lat="46.19198287192914" lon="13.057552642939068"><ele>174.0</ele><time>2026-03-30T21:05:09Z</time></trkpt><trkpt lat="46.1918740730888" lon="13.057482508264192"><ele>174.5</ele><time>2026-03-30T21:05:10Z</time></trkpt><trkpt lat="46.1917695710139" lon="13.057414246019771"><ele>175.0</ele><time>2026-03-30T21:05:11Z</time></trkpt><trkpt lat="46.19165634693729" lon="13.057337602167813"><ele>175.5</ele><time>2026-03-30T21:05:12Z</time></trkpt><trkpt lat="46.19153833615996" lon="13.057261959321972"><ele>176.0</ele><time>2026-03-30T21:05:13Z</time></trkpt><trkpt lat="46.19143397172961" lon="13.057193483764841"><ele>176.0</ele><time>2026-03-30T21:05:14Z</time></trkpt><trkpt lat="46.19133489357654" lon="13.05713533322705"><ele>176.0</ele><time>2026-03-30T21:05:15Z</time></trkpt><trkpt lat="46.19124908060666" lon="13.05708376178142"><ele>176.0</ele><time>2026-03-30T21:05:16Z</time></trkpt><trkpt lat="46.191159788377504" lon="13.057033285561381"><ele>176.0</ele><time>2026-03-30T21:05:17Z</time></trkpt><trkpt lat="46.19107730837387" lon="13.056986460937308"><ele>176.0</ele><time>2026-03-30T21:05:18Z</time></trkpt><trkpt lat="46.190984347753165" lon="13.056926978764084"><ele>176.0</ele><time>2026-03-30T21:05:19Z</time></trkpt><trkpt lat="46.190873535070075" lon="13.056835694765502"><ele>176.0</ele><time>2026-03-30T21:05:20Z</time></trkpt><trkpt lat="46.19076432914657" lon="13.05670477471072"><ele>176.0</ele><time>2026-03-30T21:05:21Z</time></trkpt><trkpt lat="46.190652130802256" lon="13.056642566133347"><ele>176.0</ele><time>2026-03-30T21:05:22Z</time></trkpt><trkpt lat="46.19050267428269" lon="13.056594429130516"><ele>176.33333333333331</ele><time>2026-03-30T21:05:23Z</time></trkpt><trkpt lat="46.19034204964972" lon="13.056524773520461"><ele>176.66666666666666</ele><time>2026-03-30T21:05:24Z</time></trkpt><trkpt lat="46.19020834135962" lon="13.056418244493601"><ele>177.0</ele><time>2026-03-30T21:05:25Z</time></trkpt><trkpt lat="46.19005830256934" lon="13.056322679894146"><ele>177.0</ele><time>2026-03-30T21:05:26Z</time></trkpt><trkpt lat="46.1899009301779" lon="13.056219687220981"><ele>177.0</ele><time>2026-03-30T21:05:27Z</time></trkpt><trkpt lat="46.18975796839806" lon="13.056124574635232"><ele>177.0</ele><time>2026-03-30T21:05:28Z</time></trkpt><trkpt lat="46.18962702870537" lon="13.056031023954569"><ele>176.66666666666666</ele><time>2026-03-30T21:05:29Z</time></trkpt><trkpt lat="46.18948957172571" lon="13.05593681865195"><ele>176.33333333333331</ele><time>2026-03-30T21:05:30Z</time></trkpt><trkpt lat="46.18934768035117" lon="13.05585288309564"><ele>176.0</ele><time>2026-03-30T21:05:31.001Z</time></trkpt><trkpt lat="46.189212350083785" lon="13.05576976139055"><ele>176.0</ele><time>2026-03-30T21:05:32.001Z</time></trkpt><trkpt lat="46.18905841775852" lon="13.055663678429074"><ele>176.0</ele><time>2026-03-30T21:05:33.001Z</time></trkpt><trkpt lat="46.18889176638161" lon="13.055563026851157"><ele>176.0</ele><time>2026-03-30T21:05:34.001Z</time></trkpt><trkpt lat="46.18871582911873" lon="13.055448999188332"><ele>175.0</ele><time>2026-03-30T21:05:35.001Z</time></trkpt><trkpt lat="46.18855280884133" lon="13.055336448514122"><ele>174.0</ele><time>2026-03-30T21:05:36.001Z</time></trkpt><trkpt lat="46.188409194908644" lon="13.055243911428551"><ele>173.0</ele><time>2026-03-30T21:05:37.001Z</time></trkpt><trkpt lat="46.18827201589481" lon="13.055161486984947"><ele>173.0</ele><time>2026-03-30T21:05:38.001Z</time></trkpt><trkpt lat="46.18813946266474" lon="13.055073020530372"><ele>173.0</ele><time>2026-03-30T21:05:39.001Z</time></trkpt><trkpt lat="46.18799060798958" lon="13.054976110647232"><ele>173.0</ele><time>2026-03-30T21:05:40.001Z</time></trkpt><trkpt lat="46.18783749499138" lon="13.05488312994036"><ele>173.0</ele><time>2026-03-30T21:05:41.001Z</time></trkpt><trkpt lat="46.18770196471672" lon="13.05479404499163"><ele>173.0</ele><time>2026-03-30T21:05:42.001Z</time></trkpt><trkpt lat="46.18756742175437" lon="13.054704967089998"><ele>173.0</ele><time>2026-03-30T21:05:43.001Z</time></trkpt><trkpt lat="46.18741326352268" lon="13.054611825084061"><ele>172.25</ele><time>2026-03-30T21:05:44.001Z</time></trkpt><trkpt lat="46.1872688615923" lon="13.054525126926409"><ele>171.5</ele><time>2026-03-30T21:05:45.001Z</time></trkpt><trkpt lat="46.18714062140027" lon="13.054450917810254"><ele>170.75</ele><time>2026-03-30T21:05:46.001Z</time></trkpt><trkpt lat="46.18702577894817" lon="13.054371236764329"><ele>170.0</ele><time>2026-03-30T21:05:47.001Z</time></trkpt><trkpt lat="46.18692997558258" lon="13.054306324253384"><ele>170.0</ele><time>2026-03-30T21:05:48.001Z</time></trkpt><trkpt lat="46.18685028072758" lon="13.054244401516263"><ele>170.0</ele><time>2026-03-30T21:05:49.001Z</time></trkpt><trkpt lat="46.18676751694725" lon="13.054197566775787"><ele>170.0</ele><time>2026-03-30T21:05:50.001Z</time></trkpt><trkpt lat="46.18669410839384" lon="13.054129939009611"><ele>170.0</ele><time>2026-03-30T21:05:51.001Z</time></trkpt><trkpt lat="46.18662993868098" lon="13.054067383276598"><ele>170.0</ele><time>2026-03-30T21:05:52.001Z</time></trkpt><trkpt lat="46.186550796163516" lon="13.053976582279274"><ele>170.0</ele><time>2026-03-30T21:05:54.001Z</time></trkpt><trkpt lat="46.18644724844792" lon="13.053914951606087"><ele>170.0</ele><time>2026-03-30T21:05:56.001Z</time></trkpt><trkpt lat="46.18643120447023" lon="13.053806911580416"><ele>170.0</ele><time>2026-03-30T21:05:57.001Z</time></trkpt><trkpt lat="46.18633695931526" lon="13.053833124588513"><ele>170.0</ele><time>2026-03-30T21:05:59.001Z</time></trkpt><trkpt lat="46.18627561096159" lon="13.053983916226127"><ele>170.0</ele><time>2026-03-30T21:06:01.001Z</time></trkpt><trkpt lat="46.18629122833511" lon="13.054074051561583"><ele>170.0</ele><time>2026-03-30T21:06:02.001Z</time></trkpt><trkpt lat="46.18633407325922" lon="13.054143469293443"><ele>170.0</ele><time>2026-03-30T21:06:03.001Z</time></trkpt><trkpt lat="46.1863940790943" lon="13.054181242563917"><ele>170.0</ele><time>2026-03-30T21:06:04.001Z</time></trkpt><trkpt lat="46.186503749228116" lon="13.054163025934642"><ele>170.0</ele><time>2026-03-30T21:06:05.001Z</time></trkpt><trkpt lat="46.18659858048389" lon="13.054176424331542"><ele>170.0</ele><time>2026-03-30T21:06:06.001Z</time></trkpt><trkpt lat="46.18669388896273" lon="13.054216959645704"><ele>170.0</ele><time>2026-03-30T21:06:07.001Z</time></trkpt><trkpt lat="46.18677262089751" lon="13.054231406140257"><ele>170.0</ele><time>2026-03-30T21:06:08.001Z</time></trkpt><trkpt lat="46.186831740075725" lon="13.054305065287236"><ele>170.0</ele><time>2026-03-30T21:06:09.001Z</time></trkpt><trkpt lat="46.18691436738114" lon="13.054398775099711"><ele>170.0</ele><time>2026-03-30T21:06:11.001Z</time></trkpt><trkpt lat="46.186970584611906" lon="13.054439746483846"><ele>170.0</ele><time>2026-03-30T21:06:14.001Z</time></trkpt><trkpt lat="46.18704720348834" lon="13.054501514789987"><ele>170.0</ele><time>2026-03-30T21:09:20Z</time></trkpt><trkpt lat="46.187182167538296" lon="13.054549321744368"><ele>170.0</ele><time>2026-03-30T21:09:22Z</time></trkpt><trkpt lat="46.18727856907313" lon="13.054609008102341"><ele>170.75</ele><time>2026-03-30T21:09:23Z</time></trkpt><trkpt lat="46.18738731146854" lon="13.05468115412519"><ele>171.5</ele><time>2026-03-30T21:09:24Z</time></trkpt><trkpt lat="46.18749665709214" lon="13.054750736350979"><ele>172.25</ele><time>2026-03-30T21:09:25Z</time></trkpt><trkpt lat="46.18762200019499" lon="13.05482265913531"><ele>173.0</ele><time>2026-03-30T21:09:26Z</time></trkpt><trkpt lat="46.1877596993954" lon="13.054899440161584"><ele>173.0</ele><time>2026-03-30T21:09:27Z</time></trkpt><trkpt lat="46.18788367333773" lon="13.054972405768657"><ele>173.0</ele><time>2026-03-30T21:09:28Z</time></trkpt><trkpt lat="46.187992028878135" lon="13.055040591699747"><ele>173.0</ele><time>2026-03-30T21:09:29Z</time></trkpt><trkpt lat="46.188086487332384" lon="13.055103782417872"><ele>173.0</ele><time>2026-03-30T21:09:30Z</time></trkpt><trkpt lat="46.188177984211215" lon="13.055161982955626"><ele>173.0</ele><time>2026-03-30T21:09:31Z</time></trkpt><trkpt lat="46.18829069982761" lon="13.05523136507387"><ele>173.0</ele><time>2026-03-30T21:09:32Z</time></trkpt><trkpt lat="46.1884306832743" lon="13.055315568601543"><ele>173.0</ele><time>2026-03-30T21:09:33Z</time></trkpt><trkpt lat="46.1885778551226" lon="13.05541544128134"><ele>173.0</ele><time>2026-03-30T21:09:34Z</time></trkpt><trkpt lat="46.18871364130212" lon="13.055509498125502"><ele>173.0</ele><time>2026-03-30T21:09:35Z</time></trkpt><trkpt lat="46.18883786853261" lon="13.05559120063608"><ele>173.0</ele><time>2026-03-30T21:09:36Z</time></trkpt><trkpt lat="46.18896708594693" lon="13.055670919752442"><ele>173.0</ele><time>2026-03-30T21:09:37Z</time></trkpt><trkpt lat="46.18909637204403" lon="13.055751225219462"><ele>173.0</ele><time>2026-03-30T21:09:38Z</time></trkpt><trkpt lat="46.18921456108358" lon="13.055825446762128"><ele>173.0</ele><time>2026-03-30T21:09:39Z</time></trkpt><trkpt lat="46.18932428841653" lon="13.055893536266243"><ele>173.0</ele><time>2026-03-30T21:09:40Z</time></trkpt><trkpt lat="46.18943028637005" lon="13.055958574410486"><ele>173.0</ele><time>2026-03-30T21:09:41Z</time></trkpt><trkpt lat="46.189548760453356" lon="13.056034741043234"><ele>173.0</ele><time>2026-03-30T21:09:42Z</time></trkpt><trkpt lat="46.189663121108495" lon="13.056110107810278"><ele>173.0</ele><time>2026-03-30T21:09:43Z</time></trkpt><trkpt lat="46.189762818475515" lon="13.056176456349661"><ele>173.0</ele><time>2026-03-30T21:09:44Z</time></trkpt><trkpt lat="46.18985270888559" lon="13.056233804876307"><ele>173.0</ele><time>2026-03-30T21:09:45Z</time></trkpt><trkpt lat="46.1899365579336" lon="13.056289548431346"><ele>173.0</ele><time>2026-03-30T21:09:46Z</time></trkpt><trkpt lat="46.190032992516265" lon="13.056352267688645"><ele>173.0</ele><time>2026-03-30T21:09:47Z</time></trkpt><trkpt lat="46.19013993331292" lon="13.056429456499671"><ele>172.5</ele><time>2026-03-30T21:09:48Z</time></trkpt><trkpt lat="46.19024922318591" lon="13.056514749320547"><ele>172.0</ele><time>2026-03-30T21:09:49Z</time></trkpt><trkpt lat="46.190364152628916" lon="13.05660483652213"><ele>171.5</ele><time>2026-03-30T21:09:50Z</time></trkpt><trkpt lat="46.19046977032622" lon="13.056714738583876"><ele>171.0</ele><time>2026-03-30T21:09:52Z</time></trkpt><trkpt lat="46.19052166292537" lon="13.056784026390611"><ele>171.0</ele><time>2026-03-30T21:09:53Z</time></trkpt><trkpt lat="46.190564668019654" lon="13.05687800078118"><ele>171.0</ele><time>2026-03-30T21:09:54Z</time></trkpt><trkpt lat="46.19061595525424" lon="13.056950746298087"><ele>171.0</ele><time>2026-03-30T21:09:55Z</time></trkpt><trkpt lat="46.19067724538776" lon="13.0569883276763"><ele>171.0</ele><time>2026-03-30T21:09:56Z</time></trkpt><trkpt lat="46.19076145559976" lon="13.056998318114811"><ele>171.0</ele><time>2026-03-30T21:09:57Z</time></trkpt><trkpt lat="46.19086403813204" lon="13.056959382578276"><ele>171.0</ele><time>2026-03-30T21:09:58.001Z</time></trkpt><trkpt lat="46.191006407520256" lon="13.057002631479724"><ele>172.25</ele><time>2026-03-30T21:09:59.001Z</time></trkpt><trkpt lat="46.19113217630182" lon="13.05704991712175"><ele>173.5</ele><time>2026-03-30T21:10:00.001Z</time></trkpt><trkpt lat="46.191239304091354" lon="13.057126055325691"><ele>174.75</ele><time>2026-03-30T21:10:01.001Z</time></trkpt><trkpt lat="46.19134858914653" lon="13.0571967630925"><ele>176.0</ele><time>2026-03-30T21:10:02.001Z</time></trkpt><trkpt lat="46.19148248750831" lon="13.057279377005568"><ele>175.33333333333331</ele><time>2026-03-30T21:10:03.001Z</time></trkpt><trkpt lat="46.19163649291957" lon="13.057376952703057"><ele>174.66666666666666</ele><time>2026-03-30T21:10:04.001Z</time></trkpt><trkpt lat="46.19179813846825" lon="13.057485917990078"><ele>174.0</ele><time>2026-03-30T21:10:05.001Z</time></trkpt><trkpt lat="46.19197790456439" lon="13.057600976812637"><ele>174.0</ele><time>2026-03-30T21:10:06.001Z</time></trkpt><trkpt lat="46.19216625356675" lon="13.057723374010115"><ele>174.0</ele><time>2026-03-30T21:10:07.001Z</time></trkpt><trkpt lat="46.192361060767496" lon="13.057850861992488"><ele>174.0</ele><time>2026-03-30T21:10:08.001Z</time></trkpt><trkpt lat="46.19256157251354" lon="13.057983336510551"><ele>177.5</ele><time>2026-03-30T21:10:09.001Z</time></trkpt><trkpt lat="46.19276814485176" lon="13.05812036323415"><ele>181.0</ele><time>2026-03-30T21:10:10.001Z</time></trkpt><trkpt lat="46.19299520665184" lon="13.05826891351757"><ele>179.0</ele><time>2026-03-30T21:10:11.001Z</time></trkpt><trkpt lat="46.19322141401755" lon="13.05842133544145"><ele>177.0</ele><time>2026-03-30T21:10:12.001Z</time></trkpt><trkpt lat="46.193418786993384" lon="13.058544094214625"><ele>177.0</ele><time>2026-03-30T21:10:13.001Z</time></trkpt><trkpt lat="46.19359215617955" lon="13.058653693514792"><ele>177.0</ele><time>2026-03-30T21:10:14.001Z</time></trkpt><trkpt lat="46.19375066766267" lon="13.058752119704058"><ele>177.0</ele><time>2026-03-30T21:10:15.001Z</time></trkpt><trkpt lat="46.193901577250806" lon="13.05885293842547"><ele>176.66666666666666</ele><time>2026-03-30T21:10:16.001Z</time></trkpt><trkpt lat="46.194059489233666" lon="13.058958441087796"><ele>176.33333333333331</ele><time>2026-03-30T21:10:17.001Z</time></trkpt><trkpt lat="46.19421293567039" lon="13.059058540477723"><ele>176.0</ele><time>2026-03-30T21:10:18.001Z</time></trkpt><trkpt lat="46.19436298625723" lon="13.059160182374294"><ele>176.0</ele><time>2026-03-30T21:10:19.001Z</time></trkpt><trkpt lat="46.194530583099535" lon="13.059275318427376"><ele>176.0</ele><time>2026-03-30T21:10:20.001Z</time></trkpt><trkpt lat="46.19471084969137" lon="13.05939960180419"><ele>176.0</ele><time>2026-03-30T21:10:21.001Z</time></trkpt><trkpt lat="46.19490411449616" lon="13.05952947644127"><ele>175.66666666666666</ele><time>2026-03-30T21:10:22.001Z</time></trkpt><trkpt lat="46.19510609248924" lon="13.059668934723206"><ele>175.33333333333334</ele><time>2026-03-30T21:10:23.001Z</time></trkpt><trkpt lat="46.19529851938604" lon="13.059797941245504"><ele>175.0</ele><time>2026-03-30T21:10:24.001Z</time></trkpt><trkpt lat="46.1954723429979" lon="13.059913144083687"><ele>175.33333333333334</ele><time>2026-03-30T21:10:25.001Z</time></trkpt><trkpt lat="46.1956303209805" lon="13.060017991163011"><ele>175.66666666666666</ele><time>2026-03-30T21:10:26.001Z</time></trkpt><trkpt lat="46.19578622103903" lon="13.060122905749685"><ele>176.0</ele><time>2026-03-30T21:10:27.001Z</time></trkpt><trkpt lat="46.19594892833925" lon="13.060231077993103"><ele>172.33333333333331</ele><time>2026-03-30T21:10:28.001Z</time></trkpt><trkpt lat="46.196120236261905" lon="13.060338589280194"><ele>168.66666666666666</ele><time>2026-03-30T21:10:29.001Z</time></trkpt><trkpt lat="46.19629424276864" lon="13.060450187178109"><ele>165.0</ele><time>2026-03-30T21:10:30.001Z</time></trkpt><trkpt lat="46.196463626684164" lon="13.060561764550844"><ele>163.66666666666666</ele><time>2026-03-30T21:10:31.001Z</time></trkpt><trkpt lat="46.19661852409347" lon="13.060669753253759"><ele>162.33333333333331</ele><time>2026-03-30T21:10:32.001Z</time></trkpt><trkpt lat="46.19676886080202" lon="13.06078537566366"><ele>161.0</ele><time>2026-03-30T21:10:33.001Z</time></trkpt><trkpt lat="46.19692840674815" lon="13.06092534685358"><ele>161.0</ele><time>2026-03-30T21:10:34.001Z</time></trkpt><trkpt lat="46.197101088775355" lon="13.061090130662473"><ele>161.0</ele><time>2026-03-30T21:10:35.001Z</time></trkpt><trkpt lat="46.19726502102103" lon="13.061255771361099"><ele>161.0</ele><time>2026-03-30T21:10:36.001Z</time></trkpt><trkpt lat="46.197414723733225" lon="13.06141968316606"><ele>161.0</ele><time>2026-03-30T21:10:37.001Z</time></trkpt><trkpt lat="46.19755440871462" lon="13.061573421009891"><ele>161.0</ele><time>2026-03-30T21:10:38.001Z</time></trkpt><trkpt lat="46.19768546526003" lon="13.061713584165128"><ele>161.0</ele><time>2026-03-30T21:10:39.001Z</time></trkpt><trkpt lat="46.197832838246" lon="13.061867576523644"><ele>160.66666666666666</ele><time>2026-03-30T21:10:40.001Z</time></trkpt><trkpt lat="46.19799131874236" lon="13.062033884695882"><ele>160.33333333333334</ele><time>2026-03-30T21:10:41.001Z</time></trkpt><trkpt lat="46.19815185099877" lon="13.062203245364904"><ele>160.0</ele><time>2026-03-30T21:10:41.999Z</time></trkpt><trkpt lat="46.198292295436474" lon="13.062353396477226"><ele>159.33333333333334</ele><time>2026-03-30T21:10:42.999Z</time></trkpt><trkpt lat="46.198418039468045" lon="13.062488746036783"><ele>158.66666666666666</ele><time>2026-03-30T21:10:43.999Z</time></trkpt><trkpt lat="46.19854506449954" lon="13.062619940327112"><ele>158.0</ele><time>2026-03-30T21:10:44.999Z</time></trkpt><trkpt lat="46.19868426386239" lon="13.062761568538612"><ele>158.0</ele><time>2026-03-30T21:10:45.999Z</time></trkpt><trkpt lat="46.19882226206771" lon="13.062897817952253"><ele>158.0</ele><time>2026-03-30T21:10:46.999Z</time></trkpt><trkpt lat="46.198964714828634" lon="13.063031661065779"><ele>158.0</ele><time>2026-03-30T21:10:47.999Z</time></trkpt><trkpt lat="46.19911959413613" lon="13.063165804179746"><ele>158.66666666666666</ele><time>2026-03-30T21:10:48.999Z</time></trkpt><trkpt lat="46.19928821859685" lon="13.06330773996747"><ele>159.33333333333334</ele><time>2026-03-30T21:10:49.999Z</time></trkpt><trkpt lat="46.199452610637145" lon="13.063454292951239"><ele>160.0</ele><time>2026-03-30T21:10:50.999Z</time></trkpt><trkpt lat="46.19959774196291" lon="13.06358560404396"><ele>160.0</ele><time>2026-03-30T21:10:51.999Z</time></trkpt><trkpt lat="46.199743607561956" lon="13.063713123683002"><ele>160.0</ele><time>2026-03-30T21:10:52.999Z</time></trkpt><trkpt lat="46.199899069865126" lon="13.063841500987664"><ele>160.0</ele><time>2026-03-30T21:10:53.999Z</time></trkpt><trkpt lat="46.20005997440745" lon="13.063958043967908"><ele>159.33333333333334</ele><time>2026-03-30T21:10:54.999Z</time></trkpt><trkpt lat="46.200229146095964" lon="13.064059535977105"><ele>158.66666666666666</ele><time>2026-03-30T21:10:55.999Z</time></trkpt><trkpt lat="46.200406524390424" lon="13.064140219889927"><ele>158.0</ele><time>2026-03-30T21:10:56.999Z</time></trkpt><trkpt lat="46.20058625273074" lon="13.064206151904953"><ele>158.0</ele><time>2026-03-30T21:10:57.999Z</time></trkpt><trkpt lat="46.20077305527499" lon="13.064248666269961"><ele>158.0</ele><time>2026-03-30T21:10:58.999Z</time></trkpt><trkpt lat="46.20097244848129" lon="13.064261017330479"><ele>158.0</ele><time>2026-03-30T21:10:59.999Z</time></trkpt><trkpt lat="46.20118203262416" lon="13.064255330805358"><ele>158.0</ele><time>2026-03-30T21:11:01Z</time></trkpt><trkpt lat="46.20139992064232" lon="13.064232686971664"><ele>158.0</ele><time>2026-03-30T21:11:02Z</time></trkpt><trkpt lat="46.20163392909265" lon="13.064205131863755"><ele>158.0</ele><time>2026-03-30T21:11:03Z</time></trkpt><trkpt lat="46.20189124601235" lon="13.06418413411037"><ele>158.0</ele><time>2026-03-30T21:11:04Z</time></trkpt><trkpt lat="46.20216516074654" lon="13.06416054462655"><ele>158.0</ele><time>2026-03-30T21:11:05Z</time></trkpt><trkpt lat="46.20245595511654" lon="13.064131261728365"><ele>158.0</ele><time>2026-03-30T21:11:06Z</time></trkpt><trkpt lat="46.20273937670144" lon="13.064107002074234"><ele>158.0</ele><time>2026-03-30T21:11:07Z</time></trkpt><trkpt lat="46.20298613074406" lon="13.064085429865727"><ele>158.0</ele><time>2026-03-30T21:11:08Z</time></trkpt><trkpt lat="46.203208987202885" lon="13.06406619166437"><ele>158.0</ele><time>2026-03-30T21:11:09Z</time></trkpt><trkpt lat="46.203417448184496" lon="13.064044522226055"><ele>158.0</ele><time>2026-03-30T21:11:10Z</time></trkpt><trkpt lat="46.203606574715195" lon="13.064025333169987"><ele>158.0</ele><time>2026-03-30T21:11:11Z</time></trkpt><trkpt lat="46.20380595913932" lon="13.064004497321093"><ele>157.66666666666666</ele><time>2026-03-30T21:11:12Z</time></trkpt><trkpt lat="46.20401649690305" lon="13.063982149293627"><ele>157.33333333333334</ele><time>2026-03-30T21:11:13Z</time></trkpt><trkpt lat="46.204232338065665" lon="13.063985448509905"><ele>157.0</ele><time>2026-03-30T21:11:14Z</time></trkpt><trkpt lat="46.204452625746946" lon="13.0639460213342"><ele>157.0</ele><time>2026-03-30T21:11:15Z</time></trkpt><trkpt lat="46.204690414886095" lon="13.06392700951683"><ele>157.0</ele><time>2026-03-30T21:11:16Z</time></trkpt><trkpt lat="46.20494627041838" lon="13.063906061007296"><ele>157.5</ele><time>2026-03-30T21:11:17Z</time></trkpt><trkpt lat="46.20522427450477" lon="13.063880840829649"><ele>158.0</ele><time>2026-03-30T21:11:18Z</time></trkpt><trkpt lat="46.20550211390608" lon="13.063855296600288"><ele>158.5</ele><time>2026-03-30T21:11:19Z</time></trkpt><trkpt lat="46.20575152923158" lon="13.063836410803734"><ele>159.0</ele><time>2026-03-30T21:11:20Z</time></trkpt><trkpt lat="46.20597335713631" lon="13.063818134102576"><ele>159.0</ele><time>2026-03-30T21:11:21Z</time></trkpt><trkpt lat="46.206190755720314" lon="13.063793746535735"><ele>159.0</ele><time>2026-03-30T21:11:22Z</time></trkpt><trkpt lat="46.206429294888736" lon="13.063768804749444"><ele>158.5</ele><time>2026-03-30T21:11:23Z</time></trkpt><trkpt lat="46.206691722643164" lon="13.063745785505839"><ele>158.0</ele><time>2026-03-30T21:11:24Z</time></trkpt><trkpt lat="46.2069848160172" lon="13.063716995765828"><ele>158.0</ele><time>2026-03-30T21:11:25Z</time></trkpt><trkpt lat="46.20730891996443" lon="13.063685799974884"><ele>158.0</ele><time>2026-03-30T21:11:26Z</time></trkpt><trkpt lat="46.20759861857642" lon="13.06366287321258"><ele>158.0</ele><time>2026-03-30T21:11:27Z</time></trkpt><trkpt lat="46.20784706332816" lon="13.063640799807896"><ele>158.0</ele><time>2026-03-30T21:11:28Z</time></trkpt><trkpt lat="46.20807416363384" lon="13.063619500765924"><ele>157.66666666666666</ele><time>2026-03-30T21:11:29Z</time></trkpt><trkpt lat="46.208287991537446" lon="13.063601544813176"><ele>157.33333333333334</ele><time>2026-03-30T21:11:30Z</time></trkpt><trkpt lat="46.208491727476684" lon="13.063584683896632"><ele>157.0</ele><time>2026-03-30T21:11:31Z</time></trkpt><trkpt lat="46.208688586386764" lon="13.063564857561312"><ele>157.0</ele><time>2026-03-30T21:11:32Z</time></trkpt><trkpt lat="46.20889621524012" lon="13.063542306979098"><ele>157.0</ele><time>2026-03-30T21:11:33Z</time></trkpt><trkpt lat="46.20911651980964" lon="13.063523968266113"><ele>157.0</ele><time>2026-03-30T21:11:34Z</time></trkpt><trkpt lat="46.209351969825725" lon="13.063507475881133"><ele>157.5</ele><time>2026-03-30T21:11:35Z</time></trkpt><trkpt lat="46.20959600626013" lon="13.063486007084618"><ele>158.0</ele><time>2026-03-30T21:11:36Z</time></trkpt><trkpt lat="46.209845068451166" lon="13.063467875786394"><ele>159.0</ele><time>2026-03-30T21:11:37Z</time></trkpt><trkpt lat="46.210106850853144" lon="13.06345671695747"><ele>160.0</ele><time>2026-03-30T21:11:38Z</time></trkpt><trkpt lat="46.21036684527716" lon="13.063452461997818"><ele>160.0</ele><time>2026-03-30T21:11:39Z</time></trkpt><trkpt lat="46.21059766406854" lon="13.063457936931282"><ele>160.0</ele><time>2026-03-30T21:11:40Z</time></trkpt><trkpt lat="46.2108103889611" lon="13.063465491532686"><ele>160.0</ele><time>2026-03-30T21:11:41Z</time></trkpt><trkpt lat="46.21100786978118" lon="13.06347499107555"><ele>160.0</ele><time>2026-03-30T21:11:42Z</time></trkpt><trkpt lat="46.21120753426894" lon="13.063489194088836"><ele>160.0</ele><time>2026-03-30T21:11:43Z</time></trkpt><trkpt lat="46.21139862803951" lon="13.06350534987971"><ele>160.0</ele><time>2026-03-30T21:11:44Z</time></trkpt><trkpt lat="46.21157632855844" lon="13.063520563618985"><ele>159.33333333333334</ele><time>2026-03-30T21:11:45Z</time></trkpt><trkpt lat="46.21175162050469" lon="13.063538176201227"><ele>158.66666666666666</ele><time>2026-03-30T21:11:46Z</time></trkpt><trkpt lat="46.211935748168955" lon="13.06356696621237"><ele>158.0</ele><time>2026-03-30T21:11:47Z</time></trkpt><trkpt lat="46.2121285692961" lon="13.063605416449692"><ele>158.66666666666666</ele><time>2026-03-30T21:11:48Z</time></trkpt><trkpt lat="46.212327152138556" lon="13.063650268447333"><ele>159.33333333333334</ele><time>2026-03-30T21:11:49Z</time></trkpt><trkpt lat="46.21253491860317" lon="13.063702758861997"><ele>160.0</ele><time>2026-03-30T21:11:50Z</time></trkpt><trkpt lat="46.21274948870945" lon="13.063766038550854"><ele>160.0</ele><time>2026-03-30T21:11:51Z</time></trkpt><trkpt lat="46.21297708585608" lon="13.063844612963464"><ele>160.0</ele><time>2026-03-30T21:11:52Z</time></trkpt><trkpt lat="46.213207852703704" lon="13.063933841295736"><ele>160.0</ele><time>2026-03-30T21:11:53Z</time></trkpt><trkpt lat="46.213429425068966" lon="13.064030107499754"><ele>160.0</ele><time>2026-03-30T21:11:54Z</time></trkpt><trkpt lat="46.21365294716625" lon="13.064140450404494"><ele>160.0</ele><time>2026-03-30T21:11:55Z</time></trkpt><trkpt lat="46.213874337455856" lon="13.064259983973319"><ele>160.0</ele><time>2026-03-30T21:11:56Z</time></trkpt><trkpt lat="46.21408947686059" lon="13.064381700323436"><ele>160.0</ele><time>2026-03-30T21:11:57Z</time></trkpt><trkpt lat="46.21429930705695" lon="13.064499915072158"><ele>160.0</ele><time>2026-03-30T21:11:58Z</time></trkpt><trkpt lat="46.214507852978244" lon="13.064619225128032"><ele>160.0</ele><time>2026-03-30T21:11:59Z</time></trkpt><trkpt lat="46.214713347862016" lon="13.064732930193687"><ele>160.0</ele><time>2026-03-30T21:12:00Z</time></trkpt><trkpt lat="46.21490146426791" lon="13.064834358958631"><ele>160.0</ele><time>2026-03-30T21:12:01Z</time></trkpt><trkpt lat="46.21508027626493" lon="13.06493634904661"><ele>160.0</ele><time>2026-03-30T21:12:02Z</time></trkpt><trkpt lat="46.215274436530905" lon="13.065045456870969"><ele>160.0</ele><time>2026-03-30T21:12:03.001Z</time></trkpt><trkpt lat="46.215481953023954" lon="13.065161049742226"><ele>160.0</ele><time>2026-03-30T21:12:04.001Z</time></trkpt><trkpt lat="46.21569164516192" lon="13.065281601191993"><ele>160.0</ele><time>2026-03-30T21:12:05.001Z</time></trkpt><trkpt lat="46.21590368473867" lon="13.065403356619042"><ele>160.0</ele><time>2026-03-30T21:12:06.001Z</time></trkpt><trkpt lat="46.21611505263827" lon="13.065522811285637"><ele>160.0</ele><time>2026-03-30T21:12:07.001Z</time></trkpt><trkpt lat="46.21630350461958" lon="13.065630732311028"><ele>160.0</ele><time>2026-03-30T21:12:08.001Z</time></trkpt><trkpt lat="46.21647850878444" lon="13.065729590922952"><ele>160.33333333333334</ele><time>2026-03-30T21:12:09.001Z</time></trkpt><trkpt lat="46.21664927308681" lon="13.06582206343851"><ele>160.66666666666666</ele><time>2026-03-30T21:12:10.001Z</time></trkpt><trkpt lat="46.21682104247935" lon="13.065917819119088"><ele>161.0</ele><time>2026-03-30T21:12:11.001Z</time></trkpt><trkpt lat="46.21699513686057" lon="13.06601704588754"><ele>161.0</ele><time>2026-03-30T21:12:12.001Z</time></trkpt><trkpt lat="46.217177287391834" lon="13.066115630428053"><ele>161.0</ele><time>2026-03-30T21:12:13.001Z</time></trkpt><trkpt lat="46.217348299464334" lon="13.066207135646643"><ele>161.0</ele><time>2026-03-30T21:12:14.001Z</time></trkpt><trkpt lat="46.21750137103524" lon="13.066289102005483"><ele>162.0</ele><time>2026-03-30T21:12:15.001Z</time></trkpt><trkpt lat="46.21766913232662" lon="13.066373108860297"><ele>163.0</ele><time>2026-03-30T21:12:16.001Z</time></trkpt><trkpt lat="46.21784825192513" lon="13.066456499905334"><ele>164.0</ele><time>2026-03-30T21:12:17.001Z</time></trkpt><trkpt lat="46.21801693919824" lon="13.066537396134079"><ele>163.0</ele><time>2026-03-30T21:12:18.001Z</time></trkpt><trkpt lat="46.21817292667905" lon="13.066616270427202"><ele>162.0</ele><time>2026-03-30T21:12:19.001Z</time></trkpt><trkpt lat="46.218317128316656" lon="13.066692337280854"><ele>161.0</ele><time>2026-03-30T21:12:20.001Z</time></trkpt><trkpt lat="46.218452256029565" lon="13.066764164483976"><ele>161.0</ele><time>2026-03-30T21:12:21.001Z</time></trkpt><trkpt lat="46.21859074727395" lon="13.06683560801468"><ele>161.0</ele><time>2026-03-30T21:12:22.001Z</time></trkpt><trkpt lat="46.21874201045759" lon="13.066909505142734"><ele>161.0</ele><time>2026-03-30T21:12:23.001Z</time></trkpt><trkpt lat="46.218900974470905" lon="13.066983078271775"><ele>161.66666666666666</ele><time>2026-03-30T21:12:24.001Z</time></trkpt><trkpt lat="46.21906472970378" lon="13.067064224922786"><ele>162.33333333333334</ele><time>2026-03-30T21:12:25.001Z</time></trkpt><trkpt lat="46.219225391718226" lon="13.067142156668682"><ele>163.0</ele><time>2026-03-30T21:12:26.001Z</time></trkpt><trkpt lat="46.219383101351795" lon="13.067219535634663"><ele>163.0</ele><time>2026-03-30T21:12:27.001Z</time></trkpt><trkpt lat="46.21953546976805" lon="13.067296386664346"><ele>163.0</ele><time>2026-03-30T21:12:28.001Z</time></trkpt><trkpt lat="46.21968404327504" lon="13.06737147809906"><ele>163.0</ele><time>2026-03-30T21:12:29.001Z</time></trkpt><trkpt lat="46.21983776444079" lon="13.067446154716151"><ele>163.33333333333334</ele><time>2026-03-30T21:12:30.001Z</time></trkpt><trkpt lat="46.22000374578085" lon="13.067528037111394"><ele>163.66666666666666</ele><time>2026-03-30T21:12:31.001Z</time></trkpt><trkpt lat="46.220163309925006" lon="13.06760272120516"><ele>164.0</ele><time>2026-03-30T21:12:32.001Z</time></trkpt><trkpt lat="46.22030546937685" lon="13.067678760036653"><ele>164.0</ele><time>2026-03-30T21:12:33.001Z</time></trkpt><trkpt lat="46.22044236917027" lon="13.067747653636523"><ele>164.0</ele><time>2026-03-30T21:12:34.001Z</time></trkpt><trkpt lat="46.220574710369355" lon="13.067815018080571"><ele>164.0</ele><time>2026-03-30T21:12:35.001Z</time></trkpt><trkpt lat="46.22071324734922" lon="13.067881786054315"><ele>164.0</ele><time>2026-03-30T21:12:36.001Z</time></trkpt><trkpt lat="46.220856941144426" lon="13.067952887373426"><ele>163.66666666666666</ele><time>2026-03-30T21:12:37.001Z</time></trkpt><trkpt lat="46.22101376380194" lon="13.06802796918135"><ele>163.33333333333334</ele><time>2026-03-30T21:12:38.001Z</time></trkpt><trkpt lat="46.22117515431084" lon="13.068107269323228"><ele>163.0</ele><time>2026-03-30T21:12:39.001Z</time></trkpt><trkpt lat="46.221346937037644" lon="13.068191763611543"><ele>163.33333333333334</ele><time>2026-03-30T21:12:40.001Z</time></trkpt><trkpt lat="46.221512063180555" lon="13.068270073001056"><ele>163.66666666666666</ele><time>2026-03-30T21:12:41.001Z</time></trkpt><trkpt lat="46.2216623893177" lon="13.068344392176392"><ele>164.0</ele><time>2026-03-30T21:12:42.001Z</time></trkpt><trkpt lat="46.22180283399109" lon="13.068418541458724"><ele>164.66666666666666</ele><time>2026-03-30T21:12:43.001Z</time></trkpt><trkpt lat="46.22194542933222" lon="13.068487404699644"><ele>165.33333333333334</ele><time>2026-03-30T21:12:44.001Z</time></trkpt><trkpt lat="46.22209828683045" lon="13.068562466971258"><ele>166.0</ele><time>2026-03-30T21:12:45.001Z</time></trkpt><trkpt lat="46.222254971692294" lon="13.068640020212886"><ele>165.0</ele><time>2026-03-30T21:12:46.001Z</time></trkpt><trkpt lat="46.22240454188893" lon="13.068717971412715"><ele>164.0</ele><time>2026-03-30T21:12:47.001Z</time></trkpt><trkpt lat="46.22254382843969" lon="13.068789243038685"><ele>163.0</ele><time>2026-03-30T21:12:47.999Z</time></trkpt><trkpt lat="46.222674667798174" lon="13.06885392073316"><ele>162.0</ele><time>2026-03-30T21:12:48.999Z</time></trkpt><trkpt lat="46.22279631617279" lon="13.068914937588277"><ele>162.0</ele><time>2026-03-30T21:12:49.999Z</time></trkpt><trkpt lat="46.22290918487824" lon="13.06896772932286"><ele>162.0</ele><time>2026-03-30T21:12:50.999Z</time></trkpt><trkpt lat="46.22301067746204" lon="13.069019896104525"><ele>162.0</ele><time>2026-03-30T21:12:51.999Z</time></trkpt><trkpt lat="46.22310551092499" lon="13.069068416627568"><ele>162.0</ele><time>2026-03-30T21:12:52.999Z</time></trkpt><trkpt lat="46.22319410915024" lon="13.069113848828383"><ele>162.0</ele><time>2026-03-30T21:12:53.999Z</time></trkpt><trkpt lat="46.223279232198855" lon="13.069168278337063"><ele>162.39999999999998</ele><time>2026-03-30T21:12:54.999Z</time></trkpt><trkpt lat="46.22336246957808" lon="13.069228182253896"><ele>162.79999999999998</ele><time>2026-03-30T21:12:55.999Z</time></trkpt><trkpt lat="46.22340806248197" lon="13.069293969619029"><ele>163.2</ele><time>2026-03-30T21:12:56.999Z</time></trkpt><trkpt lat="46.22344544612992" lon="13.069396837526849"><ele>163.6</ele><time>2026-03-30T21:12:57.999Z</time></trkpt><trkpt lat="46.223478225488726" lon="13.069547389747562"><ele>164.0</ele><time>2026-03-30T21:12:58.999Z</time></trkpt><trkpt lat="46.22351313943546" lon="13.069725514116044"><ele>164.0</ele><time>2026-03-30T21:12:59.999Z</time></trkpt><trkpt lat="46.22358011747251" lon="13.069902508330735"><ele>164.0</ele><time>2026-03-30T21:13:00.999Z</time></trkpt><trkpt lat="46.223621517722144" lon="13.070072657455095"><ele>164.0</ele><time>2026-03-30T21:13:01.999Z</time></trkpt><trkpt lat="46.22362962494716" lon="13.070245671080157"><ele>164.0</ele><time>2026-03-30T21:13:02.999Z</time></trkpt><trkpt lat="46.223621779040656" lon="13.070444820188172"><ele>164.0</ele><time>2026-03-30T21:13:03.999Z</time></trkpt><trkpt lat="46.2236044954666" lon="13.070669145003063"><ele>164.0</ele><time>2026-03-30T21:13:05Z</time></trkpt><trkpt lat="46.22358048004879" lon="13.070863921897406"><ele>164.0</ele><time>2026-03-30T21:13:06Z</time></trkpt><trkpt lat="46.22355056458532" lon="13.071069253512807"><ele>164.0</ele><time>2026-03-30T21:13:07Z</time></trkpt><trkpt lat="46.22351087273885" lon="13.071291370833025"><ele>164.0</ele><time>2026-03-30T21:13:08Z</time></trkpt><trkpt lat="46.22346207709914" lon="13.071510228000545"><ele>164.0</ele><time>2026-03-30T21:13:09Z</time></trkpt><trkpt lat="46.22342855128827" lon="13.071709155012437"><ele>164.0</ele><time>2026-03-30T21:13:10Z</time></trkpt><trkpt lat="46.22339539596192" lon="13.071881249667555"><ele>164.0</ele><time>2026-03-30T21:13:11Z</time></trkpt><trkpt lat="46.223360301941" lon="13.0720414653127"><ele>164.0</ele><time>2026-03-30T21:13:12Z</time></trkpt><trkpt lat="46.22333174456119" lon="13.072194382952203"><ele>164.0</ele><time>2026-03-30T21:13:13Z</time></trkpt><trkpt lat="46.223300492127855" lon="13.07233761140849"><ele>164.0</ele><time>2026-03-30T21:13:14Z</time></trkpt><trkpt lat="46.22325571366787" lon="13.072489807784512"><ele>164.0</ele><time>2026-03-30T21:13:15Z</time></trkpt><trkpt lat="46.223204126237164" lon="13.072659566064587"><ele>163.75</ele><time>2026-03-30T21:13:16Z</time></trkpt><trkpt lat="46.22314443643506" lon="13.072832795611594"><ele>163.5</ele><time>2026-03-30T21:13:17Z</time></trkpt><trkpt lat="46.22307004622792" lon="13.073012184856783"><ele>163.25</ele><time>2026-03-30T21:13:18Z</time></trkpt><trkpt lat="46.222984442397824" lon="13.073209569569261"><ele>163.0</ele><time>2026-03-30T21:13:19Z</time></trkpt><trkpt lat="46.222890812609215" lon="13.073425131580455"><ele>163.66666666666669</ele><time>2026-03-30T21:13:20Z</time></trkpt><trkpt lat="46.22277875609018" lon="13.073672222877708"><ele>164.33333333333334</ele><time>2026-03-30T21:13:21Z</time></trkpt><trkpt lat="46.22265087371718" lon="13.073962615483076"><ele>165.0</ele><time>2026-03-30T21:13:22Z</time></trkpt><trkpt lat="46.22251638824461" lon="13.074272474837153"><ele>165.5</ele><time>2026-03-30T21:13:23Z</time></trkpt><trkpt lat="46.22236707905223" lon="13.074598016793576"><ele>166.0</ele><time>2026-03-30T21:13:24Z</time></trkpt><trkpt lat="46.22221092007213" lon="13.074951386938185"><ele>165.0</ele><time>2026-03-30T21:13:25Z</time></trkpt><trkpt lat="46.22205626771053" lon="13.075297887257683"><ele>164.0</ele><time>2026-03-30T21:13:26Z</time></trkpt><trkpt lat="46.22190425426098" lon="13.075641279944625"><ele>164.0</ele><time>2026-03-30T21:13:27Z</time></trkpt><trkpt lat="46.22172873063637" lon="13.07596011204712"><ele>164.0</ele><time>2026-03-30T21:13:28Z</time></trkpt><trkpt lat="46.22159611571239" lon="13.07628882259197"><ele>164.0</ele><time>2026-03-30T21:13:29Z</time></trkpt><trkpt lat="46.22147355105782" lon="13.076562326236493"><ele>164.0</ele><time>2026-03-30T21:13:30Z</time></trkpt><trkpt lat="46.22136081886936" lon="13.076819280571783"><ele>164.0</ele><time>2026-03-30T21:13:31Z</time></trkpt><trkpt lat="46.22125565529002" lon="13.077067324280994"><ele>164.0</ele><time>2026-03-30T21:13:32Z</time></trkpt><trkpt lat="46.22115386143733" lon="13.077295981469206"><ele>164.0</ele><time>2026-03-30T21:13:33Z</time></trkpt><trkpt lat="46.22106182368636" lon="13.0775088025717"><ele>164.0</ele><time>2026-03-30T21:13:34Z</time></trkpt><trkpt lat="46.220972394938784" lon="13.077714758972817"><ele>163.33333333333331</ele><time>2026-03-30T21:13:35Z</time></trkpt><trkpt lat="46.22087301558925" lon="13.077937682480885"><ele>162.66666666666666</ele><time>2026-03-30T21:13:36Z</time></trkpt><trkpt lat="46.22076859895184" lon="13.078168193666958"><ele>162.0</ele><time>2026-03-30T21:13:37Z</time></trkpt><trkpt lat="46.2206656516735" lon="13.078404303028274"><ele>162.33333333333334</ele><time>2026-03-30T21:13:38Z</time></trkpt><trkpt lat="46.2205572765651" lon="13.078644357527896"><ele>162.66666666666669</ele><time>2026-03-30T21:13:39Z</time></trkpt><trkpt lat="46.22044921130323" lon="13.078882831926919"><ele>163.0</ele><time>2026-03-30T21:13:40Z</time></trkpt><trkpt lat="46.22033776190966" lon="13.079128552681885"><ele>163.66666666666669</ele><time>2026-03-30T21:13:41Z</time></trkpt><trkpt lat="46.22022329492103" lon="13.079382112251675"><ele>164.33333333333334</ele><time>2026-03-30T21:13:42Z</time></trkpt><trkpt lat="46.22010675144118" lon="13.079644042259138"><ele>165.0</ele><time>2026-03-30T21:13:43Z</time></trkpt><trkpt lat="46.21998686388738" lon="13.079906936391712"><ele>165.0</ele><time>2026-03-30T21:13:44Z</time></trkpt><trkpt lat="46.21987044062468" lon="13.0801704380276"><ele>165.0</ele><time>2026-03-30T21:13:45Z</time></trkpt><trkpt lat="46.219751714443845" lon="13.080435415775282"><ele>165.0</ele><time>2026-03-30T21:13:46Z</time></trkpt><trkpt lat="46.219632500569034" lon="13.080697515657171"><ele>165.0</ele><time>2026-03-30T21:13:47Z</time></trkpt><trkpt lat="46.21951725633066" lon="13.080950996320492"><ele>165.0</ele><time>2026-03-30T21:13:48Z</time></trkpt><trkpt lat="46.21941613351731" lon="13.081188426493162"><ele>165.0</ele><time>2026-03-30T21:13:49Z</time></trkpt><trkpt lat="46.219320268290275" lon="13.081408972938743"><ele>164.33333333333334</ele><time>2026-03-30T21:13:50Z</time></trkpt><trkpt lat="46.21923023300214" lon="13.081612244017391"><ele>163.66666666666669</ele><time>2026-03-30T21:13:51Z</time></trkpt><trkpt lat="46.21914651779655" lon="13.081804669864221"><ele>163.0</ele><time>2026-03-30T21:13:52Z</time></trkpt><trkpt lat="46.21906453748483" lon="13.081984934100428"><ele>163.0</ele><time>2026-03-30T21:13:53Z</time></trkpt><trkpt lat="46.21899076788083" lon="13.082155068762804"><ele>163.0</ele><time>2026-03-30T21:13:54Z</time></trkpt><trkpt lat="46.21892239866842" lon="13.082309221691387"><ele>163.0</ele><time>2026-03-30T21:13:55Z</time></trkpt><trkpt lat="46.21886411655312" lon="13.082446023514926"><ele>163.0</ele><time>2026-03-30T21:13:56Z</time></trkpt><trkpt lat="46.21880905562368" lon="13.082570807938458"><ele>163.33333333333334</ele><time>2026-03-30T21:13:57Z</time></trkpt><trkpt lat="46.218765988921675" lon="13.082669120516082"><ele>163.66666666666669</ele><time>2026-03-30T21:13:58Z</time></trkpt><trkpt lat="46.218726384093856" lon="13.082752531472861"><ele>164.0</ele><time>2026-03-30T21:13:59Z</time></trkpt><trkpt lat="46.21867910932599" lon="13.082823150652109"><ele>164.33333333333334</ele><time>2026-03-30T21:14:00Z</time></trkpt><trkpt lat="46.21860372727225" lon="13.08287400791672"><ele>164.66666666666666</ele><time>2026-03-30T21:14:01Z</time></trkpt><trkpt lat="46.218516624951526" lon="13.082882880615067"><ele>165.0</ele><time>2026-03-30T21:14:02Z</time></trkpt><trkpt lat="46.21842762621552" lon="13.082848007022115"><ele>165.0</ele><time>2026-03-30T21:14:03Z</time></trkpt><trkpt lat="46.21833197865328" lon="13.082872648645761"><ele>165.0</ele><time>2026-03-30T21:14:04Z</time></trkpt><trkpt lat="46.218226547537995" lon="13.082712244631447"><ele>165.0</ele><time>2026-03-30T21:14:05Z</time></trkpt><trkpt lat="46.21813444348789" lon="13.082655390870501"><ele>165.0</ele><time>2026-03-30T21:14:06Z</time></trkpt><trkpt lat="46.21805171195729" lon="13.082607083646723"><ele>165.0</ele><time>2026-03-30T21:14:07.001Z</time></trkpt><trkpt lat="46.21798195687063" lon="13.082554355568554"><ele>164.8</ele><time>2026-03-30T21:14:08.001Z</time></trkpt><trkpt lat="46.21791132120978" lon="13.082514713586773"><ele>164.6</ele><time>2026-03-30T21:14:09.001Z</time></trkpt><trkpt lat="46.21783763547874" lon="13.08246425298385"><ele>164.39999999999998</ele><time>2026-03-30T21:14:10.001Z</time></trkpt><trkpt lat="46.21775051166146" lon="13.082410061010767"><ele>164.2</ele><time>2026-03-30T21:14:11.001Z</time></trkpt><trkpt lat="46.217659460581416" lon="13.082360552121811"><ele>164.0</ele><time>2026-03-30T21:14:12.001Z</time></trkpt><trkpt lat="46.21756403140979" lon="13.082305192045837"><ele>164.0</ele><time>2026-03-30T21:14:13.001Z</time></trkpt><trkpt lat="46.21748213514573" lon="13.082255684106464"><ele>164.0</ele><time>2026-03-30T21:14:14.001Z</time></trkpt><trkpt lat="46.217403476232796" lon="13.082207418011757"><ele>164.0</ele><time>2026-03-30T21:14:15.001Z</time></trkpt><trkpt lat="46.21733200793721" lon="13.08215517859941"><ele>164.0</ele><time>2026-03-30T21:14:16.001Z</time></trkpt><trkpt lat="46.217261702047004" lon="13.082119081862656"><ele>164.0</ele><time>2026-03-30T21:14:17.001Z</time></trkpt><trkpt lat="46.21719113284421" lon="13.082077830393107"><ele>164.0</ele><time>2026-03-30T21:14:18.001Z</time></trkpt><trkpt lat="46.2171241503994" lon="13.082032804697489"><ele>164.0</ele><time>2026-03-30T21:14:19.001Z</time></trkpt><trkpt lat="46.217048965230084" lon="13.081986689551188"><ele>164.0</ele><time>2026-03-30T21:14:20.001Z</time></trkpt><trkpt lat="46.216971015946" lon="13.081938249720546"><ele>164.0</ele><time>2026-03-30T21:14:21.001Z</time></trkpt><trkpt lat="46.21689016413046" lon="13.081873786973505"><ele>164.0</ele><time>2026-03-30T21:14:22.001Z</time></trkpt><trkpt lat="46.216798330905505" lon="13.0818094871611"><ele>164.0</ele><time>2026-03-30T21:14:23.001Z</time></trkpt><trkpt lat="46.216699597964144" lon="13.081755680765882"><ele>164.0</ele><time>2026-03-30T21:14:24.001Z</time></trkpt><trkpt lat="46.216616697356734" lon="13.081704926035851"><ele>164.0</ele><time>2026-03-30T21:14:25.001Z</time></trkpt><trkpt lat="46.21654775751595" lon="13.081646732627839"><ele>164.0</ele><time>2026-03-30T21:14:26.001Z</time></trkpt><trkpt lat="46.21649841075433" lon="13.081559296855087"><ele>164.0</ele><time>2026-03-30T21:14:27.001Z</time></trkpt><trkpt lat="46.21644854322184" lon="13.08147278433266"><ele>164.0</ele><time>2026-03-30T21:14:28.001Z</time></trkpt><trkpt lat="46.21645520452776" lon="13.081288470946774"><ele>164.0</ele><time>2026-03-30T21:14:29.001Z</time></trkpt><trkpt lat="46.21645521960459" lon="13.081124155393255"><ele>164.0</ele><time>2026-03-30T21:14:30.001Z</time></trkpt><trkpt lat="46.2164607430783" lon="13.080977954220698"><ele>164.0</ele><time>2026-03-30T21:14:31.001Z</time></trkpt><trkpt lat="46.21645357755295" lon="13.080853658540725"><ele>164.0</ele><time>2026-03-30T21:14:32.001Z</time></trkpt><trkpt lat="46.21642473241434" lon="13.080752359809308"><ele>164.0</ele><time>2026-03-30T21:14:33.001Z</time></trkpt><trkpt lat="46.21638228288437" lon="13.080663015667923"><ele>163.83333333333331</ele><time>2026-03-30T21:14:34.001Z</time></trkpt><trkpt lat="46.21631936490776" lon="13.08059001626567"><ele>163.66666666666666</ele><time>2026-03-30T21:14:35.001Z</time></trkpt><trkpt lat="46.21624575219016" lon="13.080535764972717"><ele>163.5</ele><time>2026-03-30T21:14:36.001Z</time></trkpt><trkpt lat="46.21616891732707" lon="13.080502261445037"><ele>163.33333333333334</ele><time>2026-03-30T21:14:37.001Z</time></trkpt><trkpt lat="46.21609452444954" lon="13.080462522445675"><ele>163.16666666666669</ele><time>2026-03-30T21:14:38.001Z</time></trkpt><trkpt lat="46.21601948021344" lon="13.080422753733508"><ele>163.0</ele><time>2026-03-30T21:14:39.001Z</time></trkpt><trkpt lat="46.21595028809486" lon="13.080374979599036"><ele>163.0</ele><time>2026-03-30T21:14:40.001Z</time></trkpt><trkpt lat="46.21587679894864" lon="13.080350582515988"><ele>163.0</ele><time>2026-03-30T21:14:41.001Z</time></trkpt><trkpt lat="46.21579002239842" lon="13.080348036781917"><ele>163.0</ele><time>2026-03-30T21:14:42.001Z</time></trkpt><trkpt lat="46.215706948186686" lon="13.080345327491065"><ele>163.0</ele><time>2026-03-30T21:14:43.001Z</time></trkpt><trkpt lat="46.215619544958685" lon="13.080323811559147"><ele>163.0</ele><time>2026-03-30T21:14:45.001Z</time></trkpt><trkpt lat="46.21551174594758" lon="13.080291496332029"><ele>163.0</ele><time>2026-03-30T21:14:47.001Z</time></trkpt><trkpt lat="46.21544507266817" lon="13.080280305245092"><ele>163.0</ele><time>2026-03-30T21:14:48.001Z</time></trkpt><trkpt lat="46.21536120914394" lon="13.080240808202241"><ele>163.0</ele><time>2026-03-30T21:14:50.001Z</time></trkpt><trkpt lat="46.21527852654437" lon="13.080202353807545"><ele>163.0</ele><time>2026-03-30T21:14:53.001Z</time></trkpt><trkpt lat="46.215198077890776" lon="13.080165011742654"><ele>163.0</ele><time>2026-03-30T21:14:54.999Z</time></trkpt><trkpt lat="46.215101923747" lon="13.080119874760888"><ele>163.0</ele><time>2026-03-30T21:14:56.999Z</time></trkpt><trkpt lat="46.21502297304596" lon="13.080064391274922"><ele>163.0</ele><time>2026-03-30T21:14:58.999Z</time></trkpt><trkpt lat="46.21495282915308" lon="13.080004975595966"><ele>162.75</ele><time>2026-03-30T21:15:00.999Z</time></trkpt><trkpt lat="46.214871195511535" lon="13.079914172633446"><ele>162.5</ele><time>2026-03-30T21:15:02.999Z</time></trkpt><trkpt lat="46.214769295991545" lon="13.079815101018399"><ele>162.25</ele><time>2026-03-30T21:15:04.999Z</time></trkpt><trkpt lat="46.21467079621176" lon="13.079713057187908"><ele>162.0</ele><time>2026-03-30T21:15:06.999Z</time></trkpt><trkpt lat="46.21456786255611" lon="13.079614456687144"><ele>162.0</ele><time>2026-03-30T21:15:08.999Z</time></trkpt><trkpt lat="46.21446868717645" lon="13.079509461775535"><ele>162.0</ele><time>2026-03-30T21:15:10.999Z</time></trkpt><trkpt lat="46.21436204858282" lon="13.079414467705396"><ele>162.0</ele><time>2026-03-30T21:15:12.999Z</time></trkpt><trkpt lat="46.214308312141284" lon="13.079359157593785"><ele>162.0</ele><time>2026-03-30T21:15:13.999Z</time></trkpt><trkpt lat="46.21425357020848" lon="13.079303662656098"><ele>162.0</ele><time>2026-03-30T21:15:15Z</time></trkpt><trkpt lat="46.214196716160494" lon="13.079249787945118"><ele>162.0</ele><time>2026-03-30T21:15:16Z</time></trkpt><trkpt lat="46.21413967617203" lon="13.07919859366517"><ele>162.0</ele><time>2026-03-30T21:15:17Z</time></trkpt><trkpt lat="46.21408332695201" lon="13.079143709144573"><ele>162.0</ele><time>2026-03-30T21:15:18Z</time></trkpt><trkpt lat="46.214028398754145" lon="13.079089212872628"><ele>162.0</ele><time>2026-03-30T21:15:19Z</time></trkpt><trkpt lat="46.21397457278055" lon="13.079034437108032"><ele>162.0</ele><time>2026-03-30T21:15:20Z</time></trkpt><trkpt lat="46.21386874036317" lon="13.07894156508761"><ele>162.0</ele><time>2026-03-30T21:15:22Z</time></trkpt><trkpt lat="46.21381402975667" lon="13.078893240296559"><ele>162.0</ele><time>2026-03-30T21:15:23Z</time></trkpt><trkpt lat="46.21376161921504" lon="13.078837669704033"><ele>161.85714285714286</ele><time>2026-03-30T21:15:24Z</time></trkpt><trkpt lat="46.21370303689482" lon="13.078777876379293"><ele>161.71428571428572</ele><time>2026-03-30T21:15:25Z</time></trkpt><trkpt lat="46.21363801936518" lon="13.078717639515592"><ele>161.57142857142856</ele><time>2026-03-30T21:15:26Z</time></trkpt><trkpt lat="46.213574499814" lon="13.07865584606075"><ele>161.42857142857144</ele><time>2026-03-30T21:15:27Z</time></trkpt><trkpt lat="46.213515104422136" lon="13.07859471615498"><ele>161.28571428571428</ele><time>2026-03-30T21:15:28Z</time></trkpt><trkpt lat="46.213455578603295" lon="13.078542401847415"><ele>161.14285714285714</ele><time>2026-03-30T21:15:29Z</time></trkpt><trkpt lat="46.21339579338574" lon="13.078494457864513"><ele>161.0</ele><time>2026-03-30T21:15:30Z</time></trkpt><trkpt lat="46.213334340435715" lon="13.0784583279983"><ele>161.0</ele><time>2026-03-30T21:15:31Z</time></trkpt><trkpt lat="46.213271341918066" lon="13.078429430773674"><ele>161.0</ele><time>2026-03-30T21:15:32Z</time></trkpt><trkpt lat="46.21320333297675" lon="13.078397093756873"><ele>161.0</ele><time>2026-03-30T21:15:33Z</time></trkpt><trkpt lat="46.213133960896336" lon="13.07837328333863"><ele>161.0</ele><time>2026-03-30T21:15:34Z</time></trkpt><trkpt lat="46.213069794160994" lon="13.078364478384119"><ele>161.0</ele><time>2026-03-30T21:15:35Z</time></trkpt><trkpt lat="46.21295947155084" lon="13.078369803815225"><ele>161.0</ele><time>2026-03-30T21:15:37Z</time></trkpt><trkpt lat="46.21287179933125" lon="13.078375674310726"><ele>164.0</ele><time>2026-03-30T21:15:39Z</time></trkpt><trkpt lat="46.2127849762371" lon="13.078373270809177"><ele>164.0</ele><time>2026-03-30T21:15:41Z</time></trkpt><trkpt lat="46.21268151882381" lon="13.078357711579647"><ele>164.0</ele><time>2026-03-30T21:15:43Z</time></trkpt><trkpt lat="46.212608764792996" lon="13.078328739709502"><ele>164.0</ele><time>2026-03-30T21:15:46Z</time></trkpt></trkseg></trk></gpx>